<?xml version="1.0" encoding="UTF-8" standalone="no" ?>
<gpx xmlns="http://www.topografix.com/GPX/1/1" xmlns:xsi="http://www.w3.org/2001/XMLSchema-instance" xsi:schemaLocation="http://www.topografix.com/GPX/1/1 http://www.topografix.com/GPX/1/1/gpx.xsd" version="1.1" creator="VisuGPX - https://www.visugpx.com">
  <metadata>
    <name>GR 400, étape 07</name>
    <desc><![CDATA[Du camping d'Albepierre à Murat.]]></desc>
  </metadata>
  <trk>
    <name><![CDATA[GR 400, étape 07_1]]></name>
    <extensions>
      <line xmlns="http://www.topografix.com/GPX/gpx_style/0/2">
        <color>0000FF</color>
        <width>4</width>
      </line>
    </extensions>
    <trkseg>
      <trkpt lat="45.07894" lon="2.82975">
        <ele>1047.7</ele>
        <time>2021-09-14T05:26:39.000Z</time>
      </trkpt>
      <trkpt lat="45.07889" lon="2.82981">
        <ele>1048.4</ele>
        <time>2021-09-14T05:27:54.000Z</time>
      </trkpt>
      <trkpt lat="45.07884" lon="2.82988">
        <ele>1049.1</ele>
        <time>2021-09-14T05:28:06.000Z</time>
      </trkpt>
      <trkpt lat="45.0788" lon="2.82995">
        <ele>1049.7</ele>
        <time>2021-09-14T05:28:15.000Z</time>
      </trkpt>
      <trkpt lat="45.07872" lon="2.82996">
        <ele>1051</ele>
        <time>2021-09-14T05:29:07.000Z</time>
      </trkpt>
      <trkpt lat="45.07865" lon="2.82995">
        <ele>1052</ele>
        <time>2021-09-14T05:29:16.000Z</time>
      </trkpt>
      <trkpt lat="45.0786" lon="2.82987">
        <ele>1052.8</ele>
        <time>2021-09-14T05:29:26.000Z</time>
      </trkpt>
      <trkpt lat="45.07853" lon="2.82986">
        <ele>1053.8</ele>
        <time>2021-09-14T05:29:34.000Z</time>
      </trkpt>
      <trkpt lat="45.07844" lon="2.82987">
        <ele>1055.2</ele>
        <time>2021-09-14T05:29:39.000Z</time>
      </trkpt>
      <trkpt lat="45.07835" lon="2.8299">
        <ele>1056.6</ele>
        <time>2021-09-14T05:29:45.000Z</time>
      </trkpt>
      <trkpt lat="45.07826" lon="2.82991">
        <ele>1059.1</ele>
        <time>2021-09-14T05:29:51.000Z</time>
      </trkpt>
      <trkpt lat="45.07819" lon="2.82992">
        <ele>1061.3</ele>
        <time>2021-09-14T05:29:57.000Z</time>
      </trkpt>
      <trkpt lat="45.07812" lon="2.82992">
        <ele>1063.4</ele>
        <time>2021-09-14T05:30:04.000Z</time>
      </trkpt>
      <trkpt lat="45.07805" lon="2.82993">
        <ele>1065.5</ele>
        <time>2021-09-14T05:30:09.000Z</time>
      </trkpt>
      <trkpt lat="45.07797" lon="2.82991">
        <ele>1068</ele>
        <time>2021-09-14T05:30:15.000Z</time>
      </trkpt>
      <trkpt lat="45.07789" lon="2.82988">
        <ele>1070.5</ele>
        <time>2021-09-14T05:30:21.000Z</time>
      </trkpt>
      <trkpt lat="45.07783" lon="2.82985">
        <ele>1072.4</ele>
        <time>2021-09-14T05:30:27.000Z</time>
      </trkpt>
      <trkpt lat="45.07775" lon="2.82986">
        <ele>1074.8</ele>
        <time>2021-09-14T05:30:33.000Z</time>
      </trkpt>
      <trkpt lat="45.07769" lon="2.82992">
        <ele>1076.5</ele>
        <time>2021-09-14T05:30:40.000Z</time>
      </trkpt>
      <trkpt lat="45.07768" lon="2.83001">
        <ele>1076.5</ele>
        <time>2021-09-14T05:30:45.000Z</time>
      </trkpt>
      <trkpt lat="45.07767" lon="2.83012">
        <ele>1075.6</ele>
        <time>2021-09-14T05:30:51.000Z</time>
      </trkpt>
      <trkpt lat="45.07768" lon="2.83022">
        <ele>1074.2</ele>
        <time>2021-09-14T05:31:13.000Z</time>
      </trkpt>
      <trkpt lat="45.07771" lon="2.83032">
        <ele>1072.3</ele>
        <time>2021-09-14T05:31:18.000Z</time>
      </trkpt>
      <trkpt lat="45.07777" lon="2.83039">
        <ele>1070</ele>
        <time>2021-09-14T05:31:23.000Z</time>
      </trkpt>
      <trkpt lat="45.07783" lon="2.83046">
        <ele>1067.8</ele>
        <time>2021-09-14T05:31:28.000Z</time>
      </trkpt>
      <trkpt lat="45.07787" lon="2.83054">
        <ele>1066.1</ele>
        <time>2021-09-14T05:31:33.000Z</time>
      </trkpt>
      <trkpt lat="45.07793" lon="2.83064">
        <ele>1063.8</ele>
        <time>2021-09-14T05:31:39.000Z</time>
      </trkpt>
      <trkpt lat="45.07798" lon="2.83074">
        <ele>1061.9</ele>
        <time>2021-09-14T05:31:45.000Z</time>
      </trkpt>
      <trkpt lat="45.07802" lon="2.83085">
        <ele>1060.3</ele>
        <time>2021-09-14T05:31:51.000Z</time>
      </trkpt>
      <trkpt lat="45.07807" lon="2.83096">
        <ele>1058.5</ele>
        <time>2021-09-14T05:31:57.000Z</time>
      </trkpt>
      <trkpt lat="45.07811" lon="2.83104">
        <ele>1057.2</ele>
        <time>2021-09-14T05:32:02.000Z</time>
      </trkpt>
      <trkpt lat="45.07816" lon="2.83114">
        <ele>1055.6</ele>
        <time>2021-09-14T05:32:08.000Z</time>
      </trkpt>
      <trkpt lat="45.07818" lon="2.83129">
        <ele>1054.3</ele>
        <time>2021-09-14T05:32:14.000Z</time>
      </trkpt>
      <trkpt lat="45.07822" lon="2.83137">
        <ele>1053.2</ele>
        <time>2021-09-14T05:32:20.000Z</time>
      </trkpt>
      <trkpt lat="45.07823" lon="2.83149">
        <ele>1052.4</ele>
        <time>2021-09-14T05:32:25.000Z</time>
      </trkpt>
      <trkpt lat="45.07825" lon="2.83162">
        <ele>1051.4</ele>
        <time>2021-09-14T05:32:30.000Z</time>
      </trkpt>
      <trkpt lat="45.07828" lon="2.83176">
        <ele>1050.1</ele>
        <time>2021-09-14T05:32:36.000Z</time>
      </trkpt>
      <trkpt lat="45.07829" lon="2.83189">
        <ele>1049.2</ele>
        <time>2021-09-14T05:32:42.000Z</time>
      </trkpt>
      <trkpt lat="45.0783" lon="2.83202">
        <ele>1048.3</ele>
        <time>2021-09-14T05:32:48.000Z</time>
      </trkpt>
      <trkpt lat="45.0783" lon="2.83213">
        <ele>1047.6</ele>
        <time>2021-09-14T05:32:54.000Z</time>
      </trkpt>
      <trkpt lat="45.07828" lon="2.83223">
        <ele>1047.2</ele>
        <time>2021-09-14T05:33:00.000Z</time>
      </trkpt>
      <trkpt lat="45.07826" lon="2.83232">
        <ele>1046.8</ele>
        <time>2021-09-14T05:33:09.000Z</time>
      </trkpt>
      <trkpt lat="45.07825" lon="2.83242">
        <ele>1046.2</ele>
        <time>2021-09-14T05:33:15.000Z</time>
      </trkpt>
      <trkpt lat="45.07828" lon="2.83233">
        <ele>1046.5</ele>
        <time>2021-09-14T05:33:42.000Z</time>
      </trkpt>
      <trkpt lat="45.07834" lon="2.83229">
        <ele>1046.3</ele>
        <time>2021-09-14T05:33:51.000Z</time>
      </trkpt>
      <trkpt lat="45.07843" lon="2.83227">
        <ele>1046.8</ele>
        <time>2021-09-14T05:33:57.000Z</time>
      </trkpt>
      <trkpt lat="45.0785" lon="2.83227">
        <ele>1047.1</ele>
        <time>2021-09-14T05:34:03.000Z</time>
      </trkpt>
      <trkpt lat="45.07858" lon="2.83229">
        <ele>1047.4</ele>
        <time>2021-09-14T05:34:09.000Z</time>
      </trkpt>
      <trkpt lat="45.07863" lon="2.83235">
        <ele>1047.5</ele>
        <time>2021-09-14T05:34:15.000Z</time>
      </trkpt>
      <trkpt lat="45.07869" lon="2.8324">
        <ele>1047.8</ele>
        <time>2021-09-14T05:34:22.000Z</time>
      </trkpt>
      <trkpt lat="45.07875" lon="2.83244">
        <ele>1048.1</ele>
        <time>2021-09-14T05:34:26.000Z</time>
      </trkpt>
      <trkpt lat="45.07881" lon="2.83248">
        <ele>1048.4</ele>
        <time>2021-09-14T05:34:30.000Z</time>
      </trkpt>
      <trkpt lat="45.07891" lon="2.83252">
        <ele>1049.1</ele>
        <time>2021-09-14T05:34:35.000Z</time>
      </trkpt>
      <trkpt lat="45.07899" lon="2.83254">
        <ele>1049.6</ele>
        <time>2021-09-14T05:34:40.000Z</time>
      </trkpt>
      <trkpt lat="45.07908" lon="2.83259">
        <ele>1050.1</ele>
        <time>2021-09-14T05:34:45.000Z</time>
      </trkpt>
      <trkpt lat="45.07917" lon="2.83266">
        <ele>1050.6</ele>
        <time>2021-09-14T05:34:51.000Z</time>
      </trkpt>
      <trkpt lat="45.07926" lon="2.83272">
        <ele>1050.3</ele>
        <time>2021-09-14T05:34:57.000Z</time>
      </trkpt>
      <trkpt lat="45.07932" lon="2.83276">
        <ele>1050.1</ele>
        <time>2021-09-14T05:35:03.000Z</time>
      </trkpt>
      <trkpt lat="45.07938" lon="2.8328">
        <ele>1049.9</ele>
        <time>2021-09-14T05:35:16.000Z</time>
      </trkpt>
      <trkpt lat="45.07945" lon="2.83286">
        <ele>1049.7</ele>
        <time>2021-09-14T05:35:21.000Z</time>
      </trkpt>
      <trkpt lat="45.07951" lon="2.8329">
        <ele>1049.6</ele>
        <time>2021-09-14T05:35:26.000Z</time>
      </trkpt>
      <trkpt lat="45.07957" lon="2.83296">
        <ele>1049.5</ele>
        <time>2021-09-14T05:35:32.000Z</time>
      </trkpt>
      <trkpt lat="45.07964" lon="2.83302">
        <ele>1049.5</ele>
        <time>2021-09-14T05:35:38.000Z</time>
      </trkpt>
      <trkpt lat="45.0797" lon="2.83307">
        <ele>1049.5</ele>
        <time>2021-09-14T05:35:43.000Z</time>
      </trkpt>
      <trkpt lat="45.07979" lon="2.83312">
        <ele>1049.5</ele>
        <time>2021-09-14T05:35:49.000Z</time>
      </trkpt>
      <trkpt lat="45.07986" lon="2.83319">
        <ele>1049.6</ele>
        <time>2021-09-14T05:35:55.000Z</time>
      </trkpt>
      <trkpt lat="45.07996" lon="2.83325">
        <ele>1049.8</ele>
        <time>2021-09-14T05:36:01.000Z</time>
      </trkpt>
      <trkpt lat="45.08004" lon="2.83331">
        <ele>1049.7</ele>
        <time>2021-09-14T05:36:07.000Z</time>
      </trkpt>
      <trkpt lat="45.08012" lon="2.83336">
        <ele>1049.3</ele>
        <time>2021-09-14T05:36:13.000Z</time>
      </trkpt>
      <trkpt lat="45.08022" lon="2.83341">
        <ele>1048.8</ele>
        <time>2021-09-14T05:36:19.000Z</time>
      </trkpt>
      <trkpt lat="45.08031" lon="2.83347">
        <ele>1048.4</ele>
        <time>2021-09-14T05:36:25.000Z</time>
      </trkpt>
      <trkpt lat="45.0804" lon="2.83351">
        <ele>1047.9</ele>
        <time>2021-09-14T05:36:31.000Z</time>
      </trkpt>
      <trkpt lat="45.08049" lon="2.83358">
        <ele>1047.5</ele>
        <time>2021-09-14T05:36:37.000Z</time>
      </trkpt>
      <trkpt lat="45.08059" lon="2.83362">
        <ele>1047</ele>
        <time>2021-09-14T05:36:43.000Z</time>
      </trkpt>
      <trkpt lat="45.08067" lon="2.83368">
        <ele>1046.7</ele>
        <time>2021-09-14T05:36:49.000Z</time>
      </trkpt>
      <trkpt lat="45.08074" lon="2.83373">
        <ele>1046.5</ele>
        <time>2021-09-14T05:36:55.000Z</time>
      </trkpt>
      <trkpt lat="45.0808" lon="2.83377">
        <ele>1046.2</ele>
        <time>2021-09-14T05:37:20.000Z</time>
      </trkpt>
      <trkpt lat="45.08088" lon="2.83382">
        <ele>1045.8</ele>
        <time>2021-09-14T05:37:25.000Z</time>
      </trkpt>
      <trkpt lat="45.08096" lon="2.83386">
        <ele>1045.4</ele>
        <time>2021-09-14T05:37:31.000Z</time>
      </trkpt>
      <trkpt lat="45.08104" lon="2.83392">
        <ele>1045</ele>
        <time>2021-09-14T05:37:37.000Z</time>
      </trkpt>
      <trkpt lat="45.08112" lon="2.83398">
        <ele>1044.8</ele>
        <time>2021-09-14T05:37:43.000Z</time>
      </trkpt>
      <trkpt lat="45.0812" lon="2.83405">
        <ele>1044.7</ele>
        <time>2021-09-14T05:37:49.000Z</time>
      </trkpt>
      <trkpt lat="45.08127" lon="2.83409">
        <ele>1044.5</ele>
        <time>2021-09-14T05:37:54.000Z</time>
      </trkpt>
      <trkpt lat="45.08135" lon="2.83415">
        <ele>1044.4</ele>
        <time>2021-09-14T05:38:00.000Z</time>
      </trkpt>
      <trkpt lat="45.08142" lon="2.83421">
        <ele>1044.5</ele>
        <time>2021-09-14T05:38:06.000Z</time>
      </trkpt>
      <trkpt lat="45.08149" lon="2.83424">
        <ele>1044.4</ele>
        <time>2021-09-14T05:38:12.000Z</time>
      </trkpt>
      <trkpt lat="45.08156" lon="2.8343">
        <ele>1044.5</ele>
        <time>2021-09-14T05:38:25.000Z</time>
      </trkpt>
      <trkpt lat="45.08162" lon="2.83436">
        <ele>1044.6</ele>
        <time>2021-09-14T05:38:29.000Z</time>
      </trkpt>
      <trkpt lat="45.08171" lon="2.83441">
        <ele>1044.3</ele>
        <time>2021-09-14T05:38:35.000Z</time>
      </trkpt>
      <trkpt lat="45.0818" lon="2.83448">
        <ele>1043.9</ele>
        <time>2021-09-14T05:38:41.000Z</time>
      </trkpt>
      <trkpt lat="45.08188" lon="2.83456">
        <ele>1043.7</ele>
        <time>2021-09-14T05:38:47.000Z</time>
      </trkpt>
      <trkpt lat="45.08196" lon="2.83464">
        <ele>1043.4</ele>
        <time>2021-09-14T05:38:53.000Z</time>
      </trkpt>
      <trkpt lat="45.08203" lon="2.83472">
        <ele>1043.2</ele>
        <time>2021-09-14T05:38:59.000Z</time>
      </trkpt>
      <trkpt lat="45.08209" lon="2.83478">
        <ele>1043</ele>
        <time>2021-09-14T05:39:07.000Z</time>
      </trkpt>
      <trkpt lat="45.08214" lon="2.83484">
        <ele>1042.8</ele>
        <time>2021-09-14T05:39:19.000Z</time>
      </trkpt>
      <trkpt lat="45.0822" lon="2.8349">
        <ele>1042.6</ele>
        <time>2021-09-14T05:39:24.000Z</time>
      </trkpt>
      <trkpt lat="45.08226" lon="2.83496">
        <ele>1042.3</ele>
        <time>2021-09-14T05:39:29.000Z</time>
      </trkpt>
      <trkpt lat="45.08233" lon="2.83503">
        <ele>1042.2</ele>
        <time>2021-09-14T05:39:35.000Z</time>
      </trkpt>
      <trkpt lat="45.08241" lon="2.8351">
        <ele>1042.1</ele>
        <time>2021-09-14T05:39:40.000Z</time>
      </trkpt>
      <trkpt lat="45.08248" lon="2.83515">
        <ele>1042</ele>
        <time>2021-09-14T05:39:45.000Z</time>
      </trkpt>
      <trkpt lat="45.08255" lon="2.83523">
        <ele>1042.1</ele>
        <time>2021-09-14T05:39:51.000Z</time>
      </trkpt>
      <trkpt lat="45.08264" lon="2.83531">
        <ele>1042</ele>
        <time>2021-09-14T05:39:57.000Z</time>
      </trkpt>
      <trkpt lat="45.08271" lon="2.83538">
        <ele>1041.9</ele>
        <time>2021-09-14T05:40:03.000Z</time>
      </trkpt>
      <trkpt lat="45.08279" lon="2.83546">
        <ele>1041.8</ele>
        <time>2021-09-14T05:40:09.000Z</time>
      </trkpt>
      <trkpt lat="45.08287" lon="2.83553">
        <ele>1041.6</ele>
        <time>2021-09-14T05:40:15.000Z</time>
      </trkpt>
      <trkpt lat="45.08295" lon="2.8356">
        <ele>1041.4</ele>
        <time>2021-09-14T05:40:21.000Z</time>
      </trkpt>
      <trkpt lat="45.08302" lon="2.83566">
        <ele>1041.2</ele>
        <time>2021-09-14T05:40:27.000Z</time>
      </trkpt>
      <trkpt lat="45.0831" lon="2.8357">
        <ele>1040.6</ele>
        <time>2021-09-14T05:40:33.000Z</time>
      </trkpt>
      <trkpt lat="45.08317" lon="2.83571">
        <ele>1039.8</ele>
        <time>2021-09-14T05:40:40.000Z</time>
      </trkpt>
      <trkpt lat="45.08324" lon="2.8357">
        <ele>1038.8</ele>
        <time>2021-09-14T05:40:46.000Z</time>
      </trkpt>
      <trkpt lat="45.08331" lon="2.83569">
        <ele>1037.8</ele>
        <time>2021-09-14T05:40:52.000Z</time>
      </trkpt>
      <trkpt lat="45.08338" lon="2.83569">
        <ele>1037</ele>
        <time>2021-09-14T05:40:57.000Z</time>
      </trkpt>
      <trkpt lat="45.08345" lon="2.83573">
        <ele>1036.8</ele>
        <time>2021-09-14T05:41:04.000Z</time>
      </trkpt>
      <trkpt lat="45.08353" lon="2.83573">
        <ele>1036</ele>
        <time>2021-09-14T05:41:09.000Z</time>
      </trkpt>
      <trkpt lat="45.08364" lon="2.83576">
        <ele>1035.2</ele>
        <time>2021-09-14T05:41:15.000Z</time>
      </trkpt>
      <trkpt lat="45.08372" lon="2.83581">
        <ele>1034.7</ele>
        <time>2021-09-14T05:41:21.000Z</time>
      </trkpt>
      <trkpt lat="45.0838" lon="2.83591">
        <ele>1034.6</ele>
        <time>2021-09-14T05:41:27.000Z</time>
      </trkpt>
      <trkpt lat="45.08386" lon="2.83595">
        <ele>1034.2</ele>
        <time>2021-09-14T05:41:33.000Z</time>
      </trkpt>
      <trkpt lat="45.08393" lon="2.83599">
        <ele>1033.7</ele>
        <time>2021-09-14T05:41:44.000Z</time>
      </trkpt>
      <trkpt lat="45.08398" lon="2.83606">
        <ele>1033.6</ele>
        <time>2021-09-14T05:41:50.000Z</time>
      </trkpt>
      <trkpt lat="45.08402" lon="2.83613">
        <ele>1033.6</ele>
        <time>2021-09-14T05:41:57.000Z</time>
      </trkpt>
      <trkpt lat="45.0841" lon="2.83627">
        <ele>1033.5</ele>
        <time>2021-09-14T05:42:03.000Z</time>
      </trkpt>
      <trkpt lat="45.0842" lon="2.83633">
        <ele>1032.7</ele>
        <time>2021-09-14T05:42:09.000Z</time>
      </trkpt>
      <trkpt lat="45.08426" lon="2.83635">
        <ele>1032.3</ele>
        <time>2021-09-14T05:42:15.000Z</time>
      </trkpt>
      <trkpt lat="45.08434" lon="2.83636">
        <ele>1031.7</ele>
        <time>2021-09-14T05:42:21.000Z</time>
      </trkpt>
      <trkpt lat="45.08441" lon="2.83638">
        <ele>1031.3</ele>
        <time>2021-09-14T05:42:29.000Z</time>
      </trkpt>
      <trkpt lat="45.08448" lon="2.83643">
        <ele>1030.8</ele>
        <time>2021-09-14T05:42:37.000Z</time>
      </trkpt>
      <trkpt lat="45.08454" lon="2.83648">
        <ele>1030.5</ele>
        <time>2021-09-14T05:42:42.000Z</time>
      </trkpt>
      <trkpt lat="45.08462" lon="2.83653">
        <ele>1029.8</ele>
        <time>2021-09-14T05:42:46.000Z</time>
      </trkpt>
      <trkpt lat="45.08467" lon="2.83659">
        <ele>1029.4</ele>
        <time>2021-09-14T05:42:52.000Z</time>
      </trkpt>
      <trkpt lat="45.08473" lon="2.83666">
        <ele>1028.9</ele>
        <time>2021-09-14T05:42:57.000Z</time>
      </trkpt>
      <trkpt lat="45.08483" lon="2.83675">
        <ele>1028.2</ele>
        <time>2021-09-14T05:43:03.000Z</time>
      </trkpt>
      <trkpt lat="45.0849" lon="2.83685">
        <ele>1027.7</ele>
        <time>2021-09-14T05:43:09.000Z</time>
      </trkpt>
      <trkpt lat="45.08498" lon="2.83692">
        <ele>1026.9</ele>
        <time>2021-09-14T05:43:15.000Z</time>
      </trkpt>
      <trkpt lat="45.0851" lon="2.83698">
        <ele>1026.3</ele>
        <time>2021-09-14T05:43:21.000Z</time>
      </trkpt>
      <trkpt lat="45.08523" lon="2.83706">
        <ele>1025.9</ele>
        <time>2021-09-14T05:43:27.000Z</time>
      </trkpt>
      <trkpt lat="45.08539" lon="2.83714">
        <ele>1025.2</ele>
        <time>2021-09-14T05:43:33.000Z</time>
      </trkpt>
      <trkpt lat="45.08549" lon="2.83721">
        <ele>1024.8</ele>
        <time>2021-09-14T05:43:39.000Z</time>
      </trkpt>
      <trkpt lat="45.08557" lon="2.83729">
        <ele>1024.4</ele>
        <time>2021-09-14T05:43:45.000Z</time>
      </trkpt>
      <trkpt lat="45.08563" lon="2.83736">
        <ele>1024.1</ele>
        <time>2021-09-14T05:43:51.000Z</time>
      </trkpt>
      <trkpt lat="45.08571" lon="2.83742">
        <ele>1023.7</ele>
        <time>2021-09-14T05:43:57.000Z</time>
      </trkpt>
      <trkpt lat="45.0858" lon="2.83749">
        <ele>1023.2</ele>
        <time>2021-09-14T05:44:03.000Z</time>
      </trkpt>
      <trkpt lat="45.08588" lon="2.83754">
        <ele>1023</ele>
        <time>2021-09-14T05:44:09.000Z</time>
      </trkpt>
      <trkpt lat="45.08597" lon="2.83761">
        <ele>1022.8</ele>
        <time>2021-09-14T05:44:15.000Z</time>
      </trkpt>
      <trkpt lat="45.08604" lon="2.83765">
        <ele>1022.5</ele>
        <time>2021-09-14T05:44:22.000Z</time>
      </trkpt>
      <trkpt lat="45.08611" lon="2.8377">
        <ele>1022.2</ele>
        <time>2021-09-14T05:44:27.000Z</time>
      </trkpt>
      <trkpt lat="45.08618" lon="2.83778">
        <ele>1022</ele>
        <time>2021-09-14T05:44:33.000Z</time>
      </trkpt>
      <trkpt lat="45.08624" lon="2.83784">
        <ele>1021.7</ele>
        <time>2021-09-14T05:44:39.000Z</time>
      </trkpt>
      <trkpt lat="45.08629" lon="2.83791">
        <ele>1021.4</ele>
        <time>2021-09-14T05:44:45.000Z</time>
      </trkpt>
      <trkpt lat="45.08634" lon="2.83797">
        <ele>1021.1</ele>
        <time>2021-09-14T05:44:51.000Z</time>
      </trkpt>
      <trkpt lat="45.0864" lon="2.83805">
        <ele>1020.7</ele>
        <time>2021-09-14T05:44:57.000Z</time>
      </trkpt>
      <trkpt lat="45.08647" lon="2.83812">
        <ele>1020.1</ele>
        <time>2021-09-14T05:45:03.000Z</time>
      </trkpt>
      <trkpt lat="45.08652" lon="2.83819">
        <ele>1019.6</ele>
        <time>2021-09-14T05:45:10.000Z</time>
      </trkpt>
      <trkpt lat="45.08656" lon="2.83826">
        <ele>1019.2</ele>
        <time>2021-09-14T05:45:15.000Z</time>
      </trkpt>
      <trkpt lat="45.08665" lon="2.83832">
        <ele>1018.2</ele>
        <time>2021-09-14T05:45:21.000Z</time>
      </trkpt>
      <trkpt lat="45.08675" lon="2.83839">
        <ele>1017.8</ele>
        <time>2021-09-14T05:45:27.000Z</time>
      </trkpt>
      <trkpt lat="45.08683" lon="2.83847">
        <ele>1017.7</ele>
        <time>2021-09-14T05:45:33.000Z</time>
      </trkpt>
      <trkpt lat="45.0869" lon="2.83854">
        <ele>1017.5</ele>
        <time>2021-09-14T05:45:39.000Z</time>
      </trkpt>
      <trkpt lat="45.08699" lon="2.83859">
        <ele>1017.1</ele>
        <time>2021-09-14T05:45:45.000Z</time>
      </trkpt>
      <trkpt lat="45.08707" lon="2.83865">
        <ele>1016.7</ele>
        <time>2021-09-14T05:45:51.000Z</time>
      </trkpt>
      <trkpt lat="45.08715" lon="2.83871">
        <ele>1016.2</ele>
        <time>2021-09-14T05:45:57.000Z</time>
      </trkpt>
      <trkpt lat="45.08722" lon="2.83875">
        <ele>1015.7</ele>
        <time>2021-09-14T05:46:04.000Z</time>
      </trkpt>
      <trkpt lat="45.08729" lon="2.83878">
        <ele>1015.1</ele>
        <time>2021-09-14T05:46:11.000Z</time>
      </trkpt>
      <trkpt lat="45.08735" lon="2.83882">
        <ele>1014.7</ele>
        <time>2021-09-14T05:46:20.000Z</time>
      </trkpt>
      <trkpt lat="45.08741" lon="2.83883">
        <ele>1014.2</ele>
        <time>2021-09-14T05:46:26.000Z</time>
      </trkpt>
      <trkpt lat="45.08748" lon="2.83884">
        <ele>1013.6</ele>
        <time>2021-09-14T05:46:35.000Z</time>
      </trkpt>
      <trkpt lat="45.08755" lon="2.83889">
        <ele>1013.4</ele>
        <time>2021-09-14T05:46:43.000Z</time>
      </trkpt>
      <trkpt lat="45.08761" lon="2.83893">
        <ele>1013.3</ele>
        <time>2021-09-14T05:46:48.000Z</time>
      </trkpt>
      <trkpt lat="45.08767" lon="2.83898">
        <ele>1013.2</ele>
        <time>2021-09-14T05:46:54.000Z</time>
      </trkpt>
      <trkpt lat="45.08773" lon="2.83901">
        <ele>1013.1</ele>
        <time>2021-09-14T05:46:59.000Z</time>
      </trkpt>
      <trkpt lat="45.08779" lon="2.83905">
        <ele>1013</ele>
        <time>2021-09-14T05:47:04.000Z</time>
      </trkpt>
      <trkpt lat="45.08782" lon="2.83913">
        <ele>1012.7</ele>
        <time>2021-09-14T05:47:21.000Z</time>
      </trkpt>
      <trkpt lat="45.08787" lon="2.83921">
        <ele>1012.8</ele>
        <time>2021-09-14T05:47:36.000Z</time>
      </trkpt>
      <trkpt lat="45.08792" lon="2.83926">
        <ele>1013</ele>
        <time>2021-09-14T05:47:44.000Z</time>
      </trkpt>
      <trkpt lat="45.08798" lon="2.83931">
        <ele>1013.1</ele>
        <time>2021-09-14T05:47:51.000Z</time>
      </trkpt>
      <trkpt lat="45.08804" lon="2.83935">
        <ele>1013.1</ele>
        <time>2021-09-14T05:47:57.000Z</time>
      </trkpt>
      <trkpt lat="45.08812" lon="2.83939">
        <ele>1013</ele>
        <time>2021-09-14T05:48:03.000Z</time>
      </trkpt>
      <trkpt lat="45.0882" lon="2.83942">
        <ele>1012.8</ele>
        <time>2021-09-14T05:48:09.000Z</time>
      </trkpt>
      <trkpt lat="45.08826" lon="2.83946">
        <ele>1012.7</ele>
        <time>2021-09-14T05:48:23.000Z</time>
      </trkpt>
      <trkpt lat="45.08832" lon="2.8395">
        <ele>1012.5</ele>
        <time>2021-09-14T05:48:34.000Z</time>
      </trkpt>
      <trkpt lat="45.08839" lon="2.83953">
        <ele>1012.5</ele>
        <time>2021-09-14T05:48:40.000Z</time>
      </trkpt>
      <trkpt lat="45.08845" lon="2.83959">
        <ele>1012.6</ele>
        <time>2021-09-14T05:48:46.000Z</time>
      </trkpt>
      <trkpt lat="45.08852" lon="2.83962">
        <ele>1012.6</ele>
        <time>2021-09-14T05:48:52.000Z</time>
      </trkpt>
      <trkpt lat="45.08859" lon="2.83966">
        <ele>1012.5</ele>
        <time>2021-09-14T05:48:57.000Z</time>
      </trkpt>
      <trkpt lat="45.08872" lon="2.8397">
        <ele>1012.3</ele>
        <time>2021-09-14T05:49:03.000Z</time>
      </trkpt>
      <trkpt lat="45.08885" lon="2.83977">
        <ele>1011.8</ele>
        <time>2021-09-14T05:49:09.000Z</time>
      </trkpt>
      <trkpt lat="45.08894" lon="2.83985">
        <ele>1011.1</ele>
        <time>2021-09-14T05:49:15.000Z</time>
      </trkpt>
      <trkpt lat="45.08904" lon="2.83989">
        <ele>1010.5</ele>
        <time>2021-09-14T05:49:21.000Z</time>
      </trkpt>
      <trkpt lat="45.08913" lon="2.83996">
        <ele>1009.5</ele>
        <time>2021-09-14T05:49:27.000Z</time>
      </trkpt>
      <trkpt lat="45.08925" lon="2.84">
        <ele>1008.8</ele>
        <time>2021-09-14T05:49:33.000Z</time>
      </trkpt>
      <trkpt lat="45.08936" lon="2.84009">
        <ele>1008.2</ele>
        <time>2021-09-14T05:49:39.000Z</time>
      </trkpt>
      <trkpt lat="45.08945" lon="2.84015">
        <ele>1007.8</ele>
        <time>2021-09-14T05:49:45.000Z</time>
      </trkpt>
      <trkpt lat="45.08959" lon="2.84022">
        <ele>1007.1</ele>
        <time>2021-09-14T05:49:51.000Z</time>
      </trkpt>
      <trkpt lat="45.08971" lon="2.8403">
        <ele>1006.3</ele>
        <time>2021-09-14T05:49:57.000Z</time>
      </trkpt>
      <trkpt lat="45.0898" lon="2.84039">
        <ele>1005.5</ele>
        <time>2021-09-14T05:50:03.000Z</time>
      </trkpt>
      <trkpt lat="45.08988" lon="2.84046">
        <ele>1004.8</ele>
        <time>2021-09-14T05:50:09.000Z</time>
      </trkpt>
      <trkpt lat="45.08998" lon="2.84056">
        <ele>1003.7</ele>
        <time>2021-09-14T05:50:15.000Z</time>
      </trkpt>
      <trkpt lat="45.09005" lon="2.84057">
        <ele>1003.8</ele>
        <time>2021-09-14T05:50:21.000Z</time>
      </trkpt>
      <trkpt lat="45.09009" lon="2.84066">
        <ele>1003.4</ele>
        <time>2021-09-14T05:50:42.000Z</time>
      </trkpt>
      <trkpt lat="45.09014" lon="2.84074">
        <ele>1003.2</ele>
        <time>2021-09-14T05:50:48.000Z</time>
      </trkpt>
      <trkpt lat="45.09019" lon="2.84081">
        <ele>1003</ele>
        <time>2021-09-14T05:50:52.000Z</time>
      </trkpt>
      <trkpt lat="45.09024" lon="2.84091">
        <ele>1003.2</ele>
        <time>2021-09-14T05:50:57.000Z</time>
      </trkpt>
      <trkpt lat="45.09029" lon="2.84097">
        <ele>1003.5</ele>
        <time>2021-09-14T05:51:03.000Z</time>
      </trkpt>
      <trkpt lat="45.09035" lon="2.84102">
        <ele>1003.7</ele>
        <time>2021-09-14T05:51:09.000Z</time>
      </trkpt>
      <trkpt lat="45.09041" lon="2.84113">
        <ele>1003.8</ele>
        <time>2021-09-14T05:51:15.000Z</time>
      </trkpt>
      <trkpt lat="45.09047" lon="2.84124">
        <ele>1003.8</ele>
        <time>2021-09-14T05:51:21.000Z</time>
      </trkpt>
      <trkpt lat="45.09054" lon="2.8413">
        <ele>1003.7</ele>
        <time>2021-09-14T05:51:27.000Z</time>
      </trkpt>
      <trkpt lat="45.09063" lon="2.84136">
        <ele>1003.6</ele>
        <time>2021-09-14T05:51:33.000Z</time>
      </trkpt>
      <trkpt lat="45.09071" lon="2.84138">
        <ele>1003.5</ele>
        <time>2021-09-14T05:51:39.000Z</time>
      </trkpt>
      <trkpt lat="45.09079" lon="2.84137">
        <ele>1003.5</ele>
        <time>2021-09-14T05:51:45.000Z</time>
      </trkpt>
      <trkpt lat="45.09089" lon="2.84138">
        <ele>1003.5</ele>
        <time>2021-09-14T05:51:51.000Z</time>
      </trkpt>
      <trkpt lat="45.09099" lon="2.84142">
        <ele>1003.6</ele>
        <time>2021-09-14T05:51:57.000Z</time>
      </trkpt>
      <trkpt lat="45.09112" lon="2.84145">
        <ele>1003.7</ele>
        <time>2021-09-14T05:52:02.000Z</time>
      </trkpt>
      <trkpt lat="45.09123" lon="2.84149">
        <ele>1003.7</ele>
        <time>2021-09-14T05:52:08.000Z</time>
      </trkpt>
      <trkpt lat="45.09137" lon="2.84154">
        <ele>1003.6</ele>
        <time>2021-09-14T05:52:14.000Z</time>
      </trkpt>
      <trkpt lat="45.09152" lon="2.84158">
        <ele>1003.6</ele>
        <time>2021-09-14T05:52:20.000Z</time>
      </trkpt>
      <trkpt lat="45.09163" lon="2.84163">
        <ele>1003.3</ele>
        <time>2021-09-14T05:52:26.000Z</time>
      </trkpt>
      <trkpt lat="45.09178" lon="2.84165">
        <ele>1004.4</ele>
        <time>2021-09-14T05:52:32.000Z</time>
      </trkpt>
      <trkpt lat="45.0919" lon="2.84171">
        <ele>1005.1</ele>
        <time>2021-09-14T05:52:38.000Z</time>
      </trkpt>
      <trkpt lat="45.09198" lon="2.84176">
        <ele>1005.5</ele>
        <time>2021-09-14T05:52:43.000Z</time>
      </trkpt>
      <trkpt lat="45.09204" lon="2.84187">
        <ele>1004.9</ele>
        <time>2021-09-14T05:52:49.000Z</time>
      </trkpt>
      <trkpt lat="45.09209" lon="2.84197">
        <ele>1004.3</ele>
        <time>2021-09-14T05:52:55.000Z</time>
      </trkpt>
      <trkpt lat="45.09215" lon="2.84206">
        <ele>1003.7</ele>
        <time>2021-09-14T05:53:01.000Z</time>
      </trkpt>
      <trkpt lat="45.0922" lon="2.84213">
        <ele>1003.3</ele>
        <time>2021-09-14T05:53:08.000Z</time>
      </trkpt>
      <trkpt lat="45.09227" lon="2.84215">
        <ele>1003.5</ele>
        <time>2021-09-14T05:53:14.000Z</time>
      </trkpt>
      <trkpt lat="45.09236" lon="2.8422">
        <ele>1003.5</ele>
        <time>2021-09-14T05:53:19.000Z</time>
      </trkpt>
      <trkpt lat="45.09241" lon="2.84226">
        <ele>1002.9</ele>
        <time>2021-09-14T05:53:29.000Z</time>
      </trkpt>
      <trkpt lat="45.09245" lon="2.84235">
        <ele>1001.9</ele>
        <time>2021-09-14T05:53:38.000Z</time>
      </trkpt>
      <trkpt lat="45.09248" lon="2.84244">
        <ele>1000.8</ele>
        <time>2021-09-14T05:53:44.000Z</time>
      </trkpt>
      <trkpt lat="45.09255" lon="2.84256">
        <ele>1000.4</ele>
        <time>2021-09-14T05:53:59.000Z</time>
      </trkpt>
      <trkpt lat="45.09259" lon="2.84265">
        <ele>1000.5</ele>
        <time>2021-09-14T05:54:06.000Z</time>
      </trkpt>
      <trkpt lat="45.09254" lon="2.84273">
        <ele>999.6</ele>
        <time>2021-09-14T05:54:14.000Z</time>
      </trkpt>
      <trkpt lat="45.0925" lon="2.84282">
        <ele>998.8</ele>
        <time>2021-09-14T05:54:24.000Z</time>
      </trkpt>
      <trkpt lat="45.09242" lon="2.84299">
        <ele>998.3</ele>
        <time>2021-09-14T05:54:47.000Z</time>
      </trkpt>
      <trkpt lat="45.09237" lon="2.84306">
        <ele>998.1</ele>
        <time>2021-09-14T05:54:59.000Z</time>
      </trkpt>
      <trkpt lat="45.09231" lon="2.84312">
        <ele>998.1</ele>
        <time>2021-09-14T05:55:04.000Z</time>
      </trkpt>
      <trkpt lat="45.09225" lon="2.84316">
        <ele>998.1</ele>
        <time>2021-09-14T05:55:10.000Z</time>
      </trkpt>
      <trkpt lat="45.09219" lon="2.84323">
        <ele>998.2</ele>
        <time>2021-09-14T05:55:17.000Z</time>
      </trkpt>
      <trkpt lat="45.09214" lon="2.84331">
        <ele>998.3</ele>
        <time>2021-09-14T05:55:22.000Z</time>
      </trkpt>
      <trkpt lat="45.09212" lon="2.84343">
        <ele>998.6</ele>
        <time>2021-09-14T05:55:29.000Z</time>
      </trkpt>
      <trkpt lat="45.09209" lon="2.84351">
        <ele>998.9</ele>
        <time>2021-09-14T05:55:35.000Z</time>
      </trkpt>
      <trkpt lat="45.09207" lon="2.8436">
        <ele>999.2</ele>
        <time>2021-09-14T05:55:42.000Z</time>
      </trkpt>
      <trkpt lat="45.09204" lon="2.84368">
        <ele>999.6</ele>
        <time>2021-09-14T05:55:50.000Z</time>
      </trkpt>
      <trkpt lat="45.09202" lon="2.84378">
        <ele>1000</ele>
        <time>2021-09-14T05:55:55.000Z</time>
      </trkpt>
      <trkpt lat="45.09204" lon="2.84387">
        <ele>1000.1</ele>
        <time>2021-09-14T05:56:01.000Z</time>
      </trkpt>
      <trkpt lat="45.09207" lon="2.84396">
        <ele>1000.1</ele>
        <time>2021-09-14T05:56:05.000Z</time>
      </trkpt>
      <trkpt lat="45.09212" lon="2.84408">
        <ele>1000</ele>
        <time>2021-09-14T05:56:11.000Z</time>
      </trkpt>
      <trkpt lat="45.09218" lon="2.84417">
        <ele>999.7</ele>
        <time>2021-09-14T05:56:17.000Z</time>
      </trkpt>
      <trkpt lat="45.09224" lon="2.84431">
        <ele>999.6</ele>
        <time>2021-09-14T05:56:23.000Z</time>
      </trkpt>
      <trkpt lat="45.09229" lon="2.8444">
        <ele>999.3</ele>
        <time>2021-09-14T05:56:29.000Z</time>
      </trkpt>
      <trkpt lat="45.09227" lon="2.84448">
        <ele>999.7</ele>
        <time>2021-09-14T05:56:38.000Z</time>
      </trkpt>
      <trkpt lat="45.09224" lon="2.84457">
        <ele>1000.3</ele>
        <time>2021-09-14T05:56:52.000Z</time>
      </trkpt>
      <trkpt lat="45.09227" lon="2.84465">
        <ele>1000.2</ele>
        <time>2021-09-14T05:57:03.000Z</time>
      </trkpt>
      <trkpt lat="45.09228" lon="2.84475">
        <ele>1000.3</ele>
        <time>2021-09-14T05:57:35.000Z</time>
      </trkpt>
      <trkpt lat="45.09236" lon="2.84477">
        <ele>999.4</ele>
        <time>2021-09-14T05:57:52.000Z</time>
      </trkpt>
      <trkpt lat="45.09242" lon="2.84483">
        <ele>998.8</ele>
        <time>2021-09-14T05:57:57.000Z</time>
      </trkpt>
      <trkpt lat="45.09248" lon="2.84488">
        <ele>998.1</ele>
        <time>2021-09-14T05:58:02.000Z</time>
      </trkpt>
      <trkpt lat="45.09254" lon="2.84495">
        <ele>997.7</ele>
        <time>2021-09-14T05:58:07.000Z</time>
      </trkpt>
      <trkpt lat="45.0926" lon="2.84501">
        <ele>997.3</ele>
        <time>2021-09-14T05:58:12.000Z</time>
      </trkpt>
      <trkpt lat="45.09266" lon="2.84506">
        <ele>997</ele>
        <time>2021-09-14T05:58:17.000Z</time>
      </trkpt>
      <trkpt lat="45.09275" lon="2.84512">
        <ele>996.5</ele>
        <time>2021-09-14T05:58:22.000Z</time>
      </trkpt>
      <trkpt lat="45.09283" lon="2.84517">
        <ele>996</ele>
        <time>2021-09-14T05:58:28.000Z</time>
      </trkpt>
      <trkpt lat="45.09289" lon="2.84523">
        <ele>995.6</ele>
        <time>2021-09-14T05:58:33.000Z</time>
      </trkpt>
      <trkpt lat="45.09296" lon="2.8453">
        <ele>995.2</ele>
        <time>2021-09-14T05:58:39.000Z</time>
      </trkpt>
      <trkpt lat="45.09305" lon="2.84538">
        <ele>994.5</ele>
        <time>2021-09-14T05:58:45.000Z</time>
      </trkpt>
      <trkpt lat="45.09311" lon="2.84547">
        <ele>994.1</ele>
        <time>2021-09-14T05:58:51.000Z</time>
      </trkpt>
      <trkpt lat="45.09319" lon="2.84555">
        <ele>993.4</ele>
        <time>2021-09-14T05:58:57.000Z</time>
      </trkpt>
      <trkpt lat="45.09325" lon="2.84566">
        <ele>992.8</ele>
        <time>2021-09-14T05:59:03.000Z</time>
      </trkpt>
      <trkpt lat="45.0933" lon="2.84573">
        <ele>992.3</ele>
        <time>2021-09-14T05:59:09.000Z</time>
      </trkpt>
      <trkpt lat="45.09338" lon="2.84581">
        <ele>991.6</ele>
        <time>2021-09-14T05:59:15.000Z</time>
      </trkpt>
      <trkpt lat="45.09345" lon="2.84587">
        <ele>991.1</ele>
        <time>2021-09-14T05:59:21.000Z</time>
      </trkpt>
      <trkpt lat="45.09349" lon="2.84594">
        <ele>991.2</ele>
        <time>2021-09-14T05:59:30.000Z</time>
      </trkpt>
      <trkpt lat="45.09351" lon="2.84604">
        <ele>991.6</ele>
        <time>2021-09-14T05:59:34.000Z</time>
      </trkpt>
      <trkpt lat="45.09353" lon="2.84613">
        <ele>991.9</ele>
        <time>2021-09-14T05:59:42.000Z</time>
      </trkpt>
      <trkpt lat="45.09357" lon="2.84621">
        <ele>991.9</ele>
        <time>2021-09-14T05:59:46.000Z</time>
      </trkpt>
      <trkpt lat="45.0936" lon="2.84629">
        <ele>991.9</ele>
        <time>2021-09-14T05:59:51.000Z</time>
      </trkpt>
      <trkpt lat="45.09364" lon="2.84639">
        <ele>991.8</ele>
        <time>2021-09-14T05:59:56.000Z</time>
      </trkpt>
      <trkpt lat="45.09369" lon="2.84649">
        <ele>991.4</ele>
        <time>2021-09-14T06:00:01.000Z</time>
      </trkpt>
      <trkpt lat="45.09374" lon="2.8466">
        <ele>990.9</ele>
        <time>2021-09-14T06:00:07.000Z</time>
      </trkpt>
      <trkpt lat="45.0938" lon="2.84671">
        <ele>990.6</ele>
        <time>2021-09-14T06:00:13.000Z</time>
      </trkpt>
      <trkpt lat="45.09383" lon="2.84681">
        <ele>991.2</ele>
        <time>2021-09-14T06:00:19.000Z</time>
      </trkpt>
      <trkpt lat="45.09389" lon="2.84691">
        <ele>991.1</ele>
        <time>2021-09-14T06:00:25.000Z</time>
      </trkpt>
      <trkpt lat="45.09393" lon="2.84702">
        <ele>991.5</ele>
        <time>2021-09-14T06:00:31.000Z</time>
      </trkpt>
      <trkpt lat="45.094" lon="2.84713">
        <ele>991.2</ele>
        <time>2021-09-14T06:00:37.000Z</time>
      </trkpt>
      <trkpt lat="45.09405" lon="2.84723">
        <ele>991.1</ele>
        <time>2021-09-14T06:00:43.000Z</time>
      </trkpt>
      <trkpt lat="45.0941" lon="2.84731">
        <ele>990.8</ele>
        <time>2021-09-14T06:00:49.000Z</time>
      </trkpt>
      <trkpt lat="45.09415" lon="2.84739">
        <ele>990.4</ele>
        <time>2021-09-14T06:01:05.000Z</time>
      </trkpt>
      <trkpt lat="45.0942" lon="2.84747">
        <ele>990.4</ele>
        <time>2021-09-14T06:01:10.000Z</time>
      </trkpt>
      <trkpt lat="45.09425" lon="2.84753">
        <ele>990.7</ele>
        <time>2021-09-14T06:01:14.000Z</time>
      </trkpt>
      <trkpt lat="45.09431" lon="2.84758">
        <ele>990.9</ele>
        <time>2021-09-14T06:01:19.000Z</time>
      </trkpt>
      <trkpt lat="45.09438" lon="2.84765">
        <ele>991.2</ele>
        <time>2021-09-14T06:01:25.000Z</time>
      </trkpt>
      <trkpt lat="45.09445" lon="2.84771">
        <ele>991.1</ele>
        <time>2021-09-14T06:01:31.000Z</time>
      </trkpt>
      <trkpt lat="45.09441" lon="2.84778">
        <ele>992.9</ele>
        <time>2021-09-14T06:01:43.000Z</time>
      </trkpt>
      <trkpt lat="45.09447" lon="2.84783">
        <ele>992.5</ele>
        <time>2021-09-14T06:01:58.000Z</time>
      </trkpt>
      <trkpt lat="45.09454" lon="2.84784">
        <ele>991.4</ele>
        <time>2021-09-14T06:02:02.000Z</time>
      </trkpt>
      <trkpt lat="45.09462" lon="2.84789">
        <ele>990.5</ele>
        <time>2021-09-14T06:02:07.000Z</time>
      </trkpt>
      <trkpt lat="45.09471" lon="2.84793">
        <ele>989</ele>
        <time>2021-09-14T06:02:13.000Z</time>
      </trkpt>
      <trkpt lat="45.0948" lon="2.84801">
        <ele>987.7</ele>
        <time>2021-09-14T06:02:19.000Z</time>
      </trkpt>
      <trkpt lat="45.09488" lon="2.84809">
        <ele>986.3</ele>
        <time>2021-09-14T06:02:25.000Z</time>
      </trkpt>
      <trkpt lat="45.09494" lon="2.84814">
        <ele>985.1</ele>
        <time>2021-09-14T06:02:31.000Z</time>
      </trkpt>
      <trkpt lat="45.095" lon="2.8482">
        <ele>983.7</ele>
        <time>2021-09-14T06:02:39.000Z</time>
      </trkpt>
      <trkpt lat="45.09506" lon="2.84824">
        <ele>983.2</ele>
        <time>2021-09-14T06:03:16.000Z</time>
      </trkpt>
      <trkpt lat="45.09511" lon="2.8483">
        <ele>982.7</ele>
        <time>2021-09-14T06:03:20.000Z</time>
      </trkpt>
      <trkpt lat="45.09518" lon="2.84832">
        <ele>981.9</ele>
        <time>2021-09-14T06:03:25.000Z</time>
      </trkpt>
      <trkpt lat="45.09524" lon="2.84841">
        <ele>982.3</ele>
        <time>2021-09-14T06:03:30.000Z</time>
      </trkpt>
      <trkpt lat="45.09533" lon="2.84849">
        <ele>982.3</ele>
        <time>2021-09-14T06:03:36.000Z</time>
      </trkpt>
      <trkpt lat="45.09542" lon="2.84859">
        <ele>982.3</ele>
        <time>2021-09-14T06:03:42.000Z</time>
      </trkpt>
      <trkpt lat="45.09551" lon="2.84865">
        <ele>981.6</ele>
        <time>2021-09-14T06:03:48.000Z</time>
      </trkpt>
      <trkpt lat="45.09558" lon="2.84872">
        <ele>981.2</ele>
        <time>2021-09-14T06:03:54.000Z</time>
      </trkpt>
      <trkpt lat="45.09567" lon="2.84878">
        <ele>980.2</ele>
        <time>2021-09-14T06:04:00.000Z</time>
      </trkpt>
      <trkpt lat="45.09576" lon="2.84882">
        <ele>978.9</ele>
        <time>2021-09-14T06:04:06.000Z</time>
      </trkpt>
      <trkpt lat="45.09584" lon="2.84888">
        <ele>977.9</ele>
        <time>2021-09-14T06:04:12.000Z</time>
      </trkpt>
      <trkpt lat="45.09591" lon="2.84896">
        <ele>977.6</ele>
        <time>2021-09-14T06:04:18.000Z</time>
      </trkpt>
      <trkpt lat="45.09599" lon="2.84903">
        <ele>976.8</ele>
        <time>2021-09-14T06:04:24.000Z</time>
      </trkpt>
      <trkpt lat="45.09609" lon="2.84907">
        <ele>975.3</ele>
        <time>2021-09-14T06:04:30.000Z</time>
      </trkpt>
      <trkpt lat="45.09618" lon="2.84912">
        <ele>973.6</ele>
        <time>2021-09-14T06:04:36.000Z</time>
      </trkpt>
      <trkpt lat="45.09626" lon="2.84917">
        <ele>971.9</ele>
        <time>2021-09-14T06:04:42.000Z</time>
      </trkpt>
      <trkpt lat="45.09633" lon="2.84923">
        <ele>971.4</ele>
        <time>2021-09-14T06:04:48.000Z</time>
      </trkpt>
      <trkpt lat="45.09643" lon="2.84927">
        <ele>969.9</ele>
        <time>2021-09-14T06:04:54.000Z</time>
      </trkpt>
      <trkpt lat="45.0965" lon="2.84931">
        <ele>969</ele>
        <time>2021-09-14T06:05:00.000Z</time>
      </trkpt>
      <trkpt lat="45.09659" lon="2.84934">
        <ele>967.5</ele>
        <time>2021-09-14T06:05:06.000Z</time>
      </trkpt>
      <trkpt lat="45.09668" lon="2.84937">
        <ele>966.1</ele>
        <time>2021-09-14T06:05:12.000Z</time>
      </trkpt>
      <trkpt lat="45.09675" lon="2.84942">
        <ele>966.3</ele>
        <time>2021-09-14T06:05:18.000Z</time>
      </trkpt>
      <trkpt lat="45.09684" lon="2.84947">
        <ele>966.3</ele>
        <time>2021-09-14T06:05:24.000Z</time>
      </trkpt>
      <trkpt lat="45.09694" lon="2.84951">
        <ele>965.9</ele>
        <time>2021-09-14T06:05:30.000Z</time>
      </trkpt>
      <trkpt lat="45.09703" lon="2.84958">
        <ele>965.4</ele>
        <time>2021-09-14T06:05:36.000Z</time>
      </trkpt>
      <trkpt lat="45.09711" lon="2.84961">
        <ele>964.8</ele>
        <time>2021-09-14T06:05:42.000Z</time>
      </trkpt>
      <trkpt lat="45.09718" lon="2.84967">
        <ele>964.1</ele>
        <time>2021-09-14T06:05:48.000Z</time>
      </trkpt>
      <trkpt lat="45.09725" lon="2.84975">
        <ele>963.2</ele>
        <time>2021-09-14T06:05:54.000Z</time>
      </trkpt>
      <trkpt lat="45.09732" lon="2.84981">
        <ele>962</ele>
        <time>2021-09-14T06:06:00.000Z</time>
      </trkpt>
      <trkpt lat="45.09741" lon="2.84989">
        <ele>960.3</ele>
        <time>2021-09-14T06:06:06.000Z</time>
      </trkpt>
      <trkpt lat="45.09749" lon="2.84997">
        <ele>958.4</ele>
        <time>2021-09-14T06:06:12.000Z</time>
      </trkpt>
      <trkpt lat="45.09758" lon="2.85004">
        <ele>957.6</ele>
        <time>2021-09-14T06:06:18.000Z</time>
      </trkpt>
      <trkpt lat="45.09766" lon="2.85013">
        <ele>957.6</ele>
        <time>2021-09-14T06:06:24.000Z</time>
      </trkpt>
      <trkpt lat="45.09774" lon="2.85018">
        <ele>956.8</ele>
        <time>2021-09-14T06:06:30.000Z</time>
      </trkpt>
      <trkpt lat="45.09781" lon="2.85027">
        <ele>956.2</ele>
        <time>2021-09-14T06:06:36.000Z</time>
      </trkpt>
      <trkpt lat="45.09789" lon="2.85036">
        <ele>955.1</ele>
        <time>2021-09-14T06:06:42.000Z</time>
      </trkpt>
      <trkpt lat="45.09795" lon="2.85046">
        <ele>954.1</ele>
        <time>2021-09-14T06:06:48.000Z</time>
      </trkpt>
      <trkpt lat="45.098" lon="2.85055">
        <ele>953</ele>
        <time>2021-09-14T06:06:54.000Z</time>
      </trkpt>
      <trkpt lat="45.09804" lon="2.85064">
        <ele>951.9</ele>
        <time>2021-09-14T06:07:00.000Z</time>
      </trkpt>
      <trkpt lat="45.09808" lon="2.85071">
        <ele>950.7</ele>
        <time>2021-09-14T06:07:05.000Z</time>
      </trkpt>
      <trkpt lat="45.09813" lon="2.85083">
        <ele>948.8</ele>
        <time>2021-09-14T06:07:11.000Z</time>
      </trkpt>
      <trkpt lat="45.09817" lon="2.85093">
        <ele>948.5</ele>
        <time>2021-09-14T06:07:17.000Z</time>
      </trkpt>
      <trkpt lat="45.09822" lon="2.851">
        <ele>947.7</ele>
        <time>2021-09-14T06:07:23.000Z</time>
      </trkpt>
      <trkpt lat="45.0983" lon="2.85103">
        <ele>945.4</ele>
        <time>2021-09-14T06:07:29.000Z</time>
      </trkpt>
      <trkpt lat="45.09838" lon="2.85105">
        <ele>943.8</ele>
        <time>2021-09-14T06:07:35.000Z</time>
      </trkpt>
      <trkpt lat="45.09847" lon="2.85107">
        <ele>942.3</ele>
        <time>2021-09-14T06:07:41.000Z</time>
      </trkpt>
      <trkpt lat="45.09855" lon="2.85109">
        <ele>940.9</ele>
        <time>2021-09-14T06:07:47.000Z</time>
      </trkpt>
      <trkpt lat="45.09861" lon="2.85106">
        <ele>939.6</ele>
        <time>2021-09-14T06:08:00.000Z</time>
      </trkpt>
      <trkpt lat="45.09867" lon="2.851">
        <ele>938.3</ele>
        <time>2021-09-14T06:08:12.000Z</time>
      </trkpt>
      <trkpt lat="45.09873" lon="2.85097">
        <ele>937.2</ele>
        <time>2021-09-14T06:08:48.000Z</time>
      </trkpt>
      <trkpt lat="45.0988" lon="2.85096">
        <ele>936</ele>
        <time>2021-09-14T06:09:22.000Z</time>
      </trkpt>
      <trkpt lat="45.09884" lon="2.85087">
        <ele>935.3</ele>
        <time>2021-09-14T06:09:29.000Z</time>
      </trkpt>
      <trkpt lat="45.09887" lon="2.85078">
        <ele>936.1</ele>
        <time>2021-09-14T06:09:37.000Z</time>
      </trkpt>
      <trkpt lat="45.09891" lon="2.8507">
        <ele>937.5</ele>
        <time>2021-09-14T06:09:43.000Z</time>
      </trkpt>
      <trkpt lat="45.09894" lon="2.8506">
        <ele>939.6</ele>
        <time>2021-09-14T06:09:49.000Z</time>
      </trkpt>
      <trkpt lat="45.09896" lon="2.85051">
        <ele>941.7</ele>
        <time>2021-09-14T06:09:56.000Z</time>
      </trkpt>
      <trkpt lat="45.09898" lon="2.85042">
        <ele>943.9</ele>
        <time>2021-09-14T06:10:02.000Z</time>
      </trkpt>
      <trkpt lat="45.09901" lon="2.85033">
        <ele>946.1</ele>
        <time>2021-09-14T06:10:07.000Z</time>
      </trkpt>
      <trkpt lat="45.09905" lon="2.85025">
        <ele>948.3</ele>
        <time>2021-09-14T06:10:14.000Z</time>
      </trkpt>
      <trkpt lat="45.09907" lon="2.85016">
        <ele>950.8</ele>
        <time>2021-09-14T06:10:20.000Z</time>
      </trkpt>
      <trkpt lat="45.09908" lon="2.85006">
        <ele>953.6</ele>
        <time>2021-09-14T06:10:26.000Z</time>
      </trkpt>
      <trkpt lat="45.0991" lon="2.84997">
        <ele>956.7</ele>
        <time>2021-09-14T06:10:32.000Z</time>
      </trkpt>
      <trkpt lat="45.09912" lon="2.84986">
        <ele>961.3</ele>
        <time>2021-09-14T06:10:38.000Z</time>
      </trkpt>
      <trkpt lat="45.09913" lon="2.84976">
        <ele>965.4</ele>
        <time>2021-09-14T06:10:45.000Z</time>
      </trkpt>
      <trkpt lat="45.09919" lon="2.84972">
        <ele>967</ele>
        <time>2021-09-14T06:10:50.000Z</time>
      </trkpt>
      <trkpt lat="45.09921" lon="2.84963">
        <ele>970.3</ele>
        <time>2021-09-14T06:11:18.000Z</time>
      </trkpt>
      <trkpt lat="45.09921" lon="2.84953">
        <ele>974.4</ele>
        <time>2021-09-14T06:11:25.000Z</time>
      </trkpt>
      <trkpt lat="45.09924" lon="2.84945">
        <ele>977.1</ele>
        <time>2021-09-14T06:11:34.000Z</time>
      </trkpt>
      <trkpt lat="45.09924" lon="2.84935">
        <ele>981.1</ele>
        <time>2021-09-14T06:11:43.000Z</time>
      </trkpt>
      <trkpt lat="45.09922" lon="2.84926">
        <ele>985.1</ele>
        <time>2021-09-14T06:11:49.000Z</time>
      </trkpt>
      <trkpt lat="45.0992" lon="2.84918">
        <ele>988.8</ele>
        <time>2021-09-14T06:11:57.000Z</time>
      </trkpt>
      <trkpt lat="45.09921" lon="2.84908">
        <ele>992.4</ele>
        <time>2021-09-14T06:12:08.000Z</time>
      </trkpt>
      <trkpt lat="45.09921" lon="2.84898">
        <ele>996.1</ele>
        <time>2021-09-14T06:12:15.000Z</time>
      </trkpt>
      <trkpt lat="45.09926" lon="2.8489">
        <ele>998.2</ele>
        <time>2021-09-14T06:12:21.000Z</time>
      </trkpt>
      <trkpt lat="45.09928" lon="2.84882">
        <ele>1000.8</ele>
        <time>2021-09-14T06:12:28.000Z</time>
      </trkpt>
      <trkpt lat="45.09932" lon="2.84873">
        <ele>1003.5</ele>
        <time>2021-09-14T06:12:34.000Z</time>
      </trkpt>
      <trkpt lat="45.09935" lon="2.84862">
        <ele>1007.2</ele>
        <time>2021-09-14T06:12:40.000Z</time>
      </trkpt>
      <trkpt lat="45.09939" lon="2.84854">
        <ele>1009.6</ele>
        <time>2021-09-14T06:12:45.000Z</time>
      </trkpt>
      <trkpt lat="45.09938" lon="2.84844">
        <ele>1013.6</ele>
        <time>2021-09-14T06:12:50.000Z</time>
      </trkpt>
      <trkpt lat="45.09939" lon="2.84832">
        <ele>1018</ele>
        <time>2021-09-14T06:12:54.000Z</time>
      </trkpt>
      <trkpt lat="45.09933" lon="2.8482">
        <ele>1023.2</ele>
        <time>2021-09-14T06:12:59.000Z</time>
      </trkpt>
      <trkpt lat="45.09932" lon="2.84807">
        <ele>1028</ele>
        <time>2021-09-14T06:13:05.000Z</time>
      </trkpt>
      <trkpt lat="45.09934" lon="2.84793">
        <ele>1032.7</ele>
        <time>2021-09-14T06:13:11.000Z</time>
      </trkpt>
      <trkpt lat="45.09944" lon="2.84788">
        <ele>1032.9</ele>
        <time>2021-09-14T06:13:17.000Z</time>
      </trkpt>
      <trkpt lat="45.09956" lon="2.84791">
        <ele>1029.9</ele>
        <time>2021-09-14T06:13:23.000Z</time>
      </trkpt>
      <trkpt lat="45.09969" lon="2.84791">
        <ele>1027.8</ele>
        <time>2021-09-14T06:13:29.000Z</time>
      </trkpt>
      <trkpt lat="45.09978" lon="2.8479">
        <ele>1026.6</ele>
        <time>2021-09-14T06:13:35.000Z</time>
      </trkpt>
      <trkpt lat="45.09988" lon="2.84789">
        <ele>1025.4</ele>
        <time>2021-09-14T06:13:41.000Z</time>
      </trkpt>
      <trkpt lat="45.09997" lon="2.84788">
        <ele>1024.3</ele>
        <time>2021-09-14T06:13:47.000Z</time>
      </trkpt>
      <trkpt lat="45.10004" lon="2.84787">
        <ele>1021.8</ele>
        <time>2021-09-14T06:13:53.000Z</time>
      </trkpt>
      <trkpt lat="45.10008" lon="2.84778">
        <ele>1022.6</ele>
        <time>2021-09-14T06:14:03.000Z</time>
      </trkpt>
      <trkpt lat="45.1001" lon="2.84769">
        <ele>1024.5</ele>
        <time>2021-09-14T06:14:15.000Z</time>
      </trkpt>
      <trkpt lat="45.1001" lon="2.84759">
        <ele>1027.8</ele>
        <time>2021-09-14T06:14:23.000Z</time>
      </trkpt>
      <trkpt lat="45.10008" lon="2.8475">
        <ele>1032.1</ele>
        <time>2021-09-14T06:14:31.000Z</time>
      </trkpt>
      <trkpt lat="45.10015" lon="2.8475">
        <ele>1027.8</ele>
        <time>2021-09-14T06:14:35.000Z</time>
      </trkpt>
      <trkpt lat="45.10022" lon="2.84748">
        <ele>1023.9</ele>
        <time>2021-09-14T06:14:49.000Z</time>
      </trkpt>
      <trkpt lat="45.10029" lon="2.84748">
        <ele>1019.6</ele>
        <time>2021-09-14T06:14:54.000Z</time>
      </trkpt>
      <trkpt lat="45.10037" lon="2.84747">
        <ele>1014.9</ele>
        <time>2021-09-14T06:15:02.000Z</time>
      </trkpt>
      <trkpt lat="45.10047" lon="2.84749">
        <ele>1008.4</ele>
        <time>2021-09-14T06:15:05.000Z</time>
      </trkpt>
      <trkpt lat="45.10058" lon="2.84752">
        <ele>1000.9</ele>
        <time>2021-09-14T06:15:11.000Z</time>
      </trkpt>
      <trkpt lat="45.1005" lon="2.84751">
        <ele>1006.1</ele>
        <time>2021-09-14T06:15:17.000Z</time>
      </trkpt>
      <trkpt lat="45.10051" lon="2.84742">
        <ele>1007.2</ele>
        <time>2021-09-14T06:15:23.000Z</time>
      </trkpt>
      <trkpt lat="45.10037" lon="2.84736">
        <ele>1016.9</ele>
        <time>2021-09-14T06:15:29.000Z</time>
      </trkpt>
      <trkpt lat="45.10029" lon="2.84729">
        <ele>1023.2</ele>
        <time>2021-09-14T06:15:35.000Z</time>
      </trkpt>
      <trkpt lat="45.10022" lon="2.84722">
        <ele>1028.9</ele>
        <time>2021-09-14T06:15:42.000Z</time>
      </trkpt>
      <trkpt lat="45.10024" lon="2.84712">
        <ele>1029.5</ele>
        <time>2021-09-14T06:15:53.000Z</time>
      </trkpt>
      <trkpt lat="45.10022" lon="2.84703">
        <ele>1032.5</ele>
        <time>2021-09-14T06:16:02.000Z</time>
      </trkpt>
      <trkpt lat="45.10024" lon="2.84693">
        <ele>1033.2</ele>
        <time>2021-09-14T06:16:11.000Z</time>
      </trkpt>
      <trkpt lat="45.10039" lon="2.84683">
        <ele>1025.3</ele>
        <time>2021-09-14T06:16:17.000Z</time>
      </trkpt>
      <trkpt lat="45.10051" lon="2.84667">
        <ele>1020.3</ele>
        <time>2021-09-14T06:16:23.000Z</time>
      </trkpt>
      <trkpt lat="45.10058" lon="2.84663">
        <ele>1016.6</ele>
        <time>2021-09-14T06:17:44.000Z</time>
      </trkpt>
      <trkpt lat="45.10067" lon="2.84667">
        <ele>1009.7</ele>
        <time>2021-09-14T06:17:48.000Z</time>
      </trkpt>
      <trkpt lat="45.10064" lon="2.84658">
        <ele>1013.8</ele>
        <time>2021-09-14T06:18:03.000Z</time>
      </trkpt>
      <trkpt lat="45.10059" lon="2.8465">
        <ele>1018.9</ele>
        <time>2021-09-14T06:18:09.000Z</time>
      </trkpt>
      <trkpt lat="45.10054" lon="2.84639">
        <ele>1024.8</ele>
        <time>2021-09-14T06:18:20.000Z</time>
      </trkpt>
      <trkpt lat="45.10056" lon="2.84627">
        <ele>1026.2</ele>
        <time>2021-09-14T06:18:51.000Z</time>
      </trkpt>
      <trkpt lat="45.10059" lon="2.84618">
        <ele>1026.4</ele>
        <time>2021-09-14T06:19:12.000Z</time>
      </trkpt>
      <trkpt lat="45.10056" lon="2.84609">
        <ele>1030.4</ele>
        <time>2021-09-14T06:19:17.000Z</time>
      </trkpt>
      <trkpt lat="45.10054" lon="2.84583">
        <ele>1037.7</ele>
        <time>2021-09-14T06:19:23.000Z</time>
      </trkpt>
      <trkpt lat="45.10055" lon="2.84558">
        <ele>1040.9</ele>
        <time>2021-09-14T06:19:29.000Z</time>
      </trkpt>
      <trkpt lat="45.10058" lon="2.84548">
        <ele>1040.3</ele>
        <time>2021-09-14T06:19:36.000Z</time>
      </trkpt>
      <trkpt lat="45.10055" lon="2.8454">
        <ele>1043.6</ele>
        <time>2021-09-14T06:19:55.000Z</time>
      </trkpt>
      <trkpt lat="45.10053" lon="2.84531">
        <ele>1046.5</ele>
        <time>2021-09-14T06:20:04.000Z</time>
      </trkpt>
      <trkpt lat="45.10047" lon="2.84526">
        <ele>1051.6</ele>
        <time>2021-09-14T06:20:12.000Z</time>
      </trkpt>
      <trkpt lat="45.10044" lon="2.84518">
        <ele>1055.1</ele>
        <time>2021-09-14T06:20:19.000Z</time>
      </trkpt>
      <trkpt lat="45.10043" lon="2.84507">
        <ele>1057.8</ele>
        <time>2021-09-14T06:20:26.000Z</time>
      </trkpt>
      <trkpt lat="45.10044" lon="2.84498">
        <ele>1058.7</ele>
        <time>2021-09-14T06:20:33.000Z</time>
      </trkpt>
      <trkpt lat="45.10042" lon="2.84489">
        <ele>1062.5</ele>
        <time>2021-09-14T06:20:40.000Z</time>
      </trkpt>
      <trkpt lat="45.10041" lon="2.84479">
        <ele>1065.8</ele>
        <time>2021-09-14T06:20:47.000Z</time>
      </trkpt>
      <trkpt lat="45.10037" lon="2.8447">
        <ele>1071.2</ele>
        <time>2021-09-14T06:20:52.000Z</time>
      </trkpt>
      <trkpt lat="45.10033" lon="2.84461">
        <ele>1076.6</ele>
        <time>2021-09-14T06:20:57.000Z</time>
      </trkpt>
      <trkpt lat="45.1003" lon="2.84452">
        <ele>1081.2</ele>
        <time>2021-09-14T06:21:03.000Z</time>
      </trkpt>
      <trkpt lat="45.10026" lon="2.8444">
        <ele>1087.4</ele>
        <time>2021-09-14T06:21:09.000Z</time>
      </trkpt>
      <trkpt lat="45.10022" lon="2.84426">
        <ele>1094.2</ele>
        <time>2021-09-14T06:21:15.000Z</time>
      </trkpt>
      <trkpt lat="45.1002" lon="2.84414">
        <ele>1098.6</ele>
        <time>2021-09-14T06:21:21.000Z</time>
      </trkpt>
      <trkpt lat="45.1002" lon="2.84403">
        <ele>1100.2</ele>
        <time>2021-09-14T06:21:27.000Z</time>
      </trkpt>
      <trkpt lat="45.10022" lon="2.84393">
        <ele>1100.1</ele>
        <time>2021-09-14T06:21:33.000Z</time>
      </trkpt>
      <trkpt lat="45.10019" lon="2.84384">
        <ele>1103.7</ele>
        <time>2021-09-14T06:21:43.000Z</time>
      </trkpt>
      <trkpt lat="45.10016" lon="2.84376">
        <ele>1107.3</ele>
        <time>2021-09-14T06:21:49.000Z</time>
      </trkpt>
      <trkpt lat="45.10014" lon="2.84366">
        <ele>1110.3</ele>
        <time>2021-09-14T06:21:56.000Z</time>
      </trkpt>
      <trkpt lat="45.10012" lon="2.84356">
        <ele>1113.3</ele>
        <time>2021-09-14T06:22:02.000Z</time>
      </trkpt>
      <trkpt lat="45.1001" lon="2.84347">
        <ele>1116.2</ele>
        <time>2021-09-14T06:22:06.000Z</time>
      </trkpt>
      <trkpt lat="45.10006" lon="2.84337">
        <ele>1120.8</ele>
        <time>2021-09-14T06:22:11.000Z</time>
      </trkpt>
      <trkpt lat="45.1" lon="2.84331">
        <ele>1126.4</ele>
        <time>2021-09-14T06:22:15.000Z</time>
      </trkpt>
      <trkpt lat="45.09995" lon="2.84322">
        <ele>1129.9</ele>
        <time>2021-09-14T06:22:21.000Z</time>
      </trkpt>
      <trkpt lat="45.09994" lon="2.84311">
        <ele>1132</ele>
        <time>2021-09-14T06:22:27.000Z</time>
      </trkpt>
      <trkpt lat="45.09992" lon="2.84301">
        <ele>1134.3</ele>
        <time>2021-09-14T06:22:33.000Z</time>
      </trkpt>
      <trkpt lat="45.09989" lon="2.84292">
        <ele>1136.9</ele>
        <time>2021-09-14T06:22:42.000Z</time>
      </trkpt>
      <trkpt lat="45.0999" lon="2.84283">
        <ele>1137.8</ele>
        <time>2021-09-14T06:22:52.000Z</time>
      </trkpt>
      <trkpt lat="45.09986" lon="2.84275">
        <ele>1140.5</ele>
        <time>2021-09-14T06:22:58.000Z</time>
      </trkpt>
      <trkpt lat="45.09986" lon="2.84265">
        <ele>1141.9</ele>
        <time>2021-09-14T06:23:05.000Z</time>
      </trkpt>
      <trkpt lat="45.09984" lon="2.84256">
        <ele>1143.9</ele>
        <time>2021-09-14T06:23:11.000Z</time>
      </trkpt>
      <trkpt lat="45.09982" lon="2.84247">
        <ele>1145.5</ele>
        <time>2021-09-14T06:23:18.000Z</time>
      </trkpt>
      <trkpt lat="45.0998" lon="2.84237">
        <ele>1146.3</ele>
        <time>2021-09-14T06:23:24.000Z</time>
      </trkpt>
      <trkpt lat="45.09978" lon="2.84228">
        <ele>1147.1</ele>
        <time>2021-09-14T06:23:30.000Z</time>
      </trkpt>
      <trkpt lat="45.09975" lon="2.84219">
        <ele>1148.3</ele>
        <time>2021-09-14T06:23:37.000Z</time>
      </trkpt>
      <trkpt lat="45.09974" lon="2.84209">
        <ele>1148.7</ele>
        <time>2021-09-14T06:23:43.000Z</time>
      </trkpt>
      <trkpt lat="45.09977" lon="2.84201">
        <ele>1147.7</ele>
        <time>2021-09-14T06:23:51.000Z</time>
      </trkpt>
      <trkpt lat="45.09983" lon="2.84195">
        <ele>1145.6</ele>
        <time>2021-09-14T06:23:58.000Z</time>
      </trkpt>
      <trkpt lat="45.09984" lon="2.84186">
        <ele>1145.4</ele>
        <time>2021-09-14T06:24:05.000Z</time>
      </trkpt>
      <trkpt lat="45.09993" lon="2.84181">
        <ele>1142.3</ele>
        <time>2021-09-14T06:24:09.000Z</time>
      </trkpt>
      <trkpt lat="45.09989" lon="2.84173">
        <ele>1143.8</ele>
        <time>2021-09-14T06:24:16.000Z</time>
      </trkpt>
      <trkpt lat="45.09986" lon="2.84164">
        <ele>1144.8</ele>
        <time>2021-09-14T06:24:22.000Z</time>
      </trkpt>
      <trkpt lat="45.09993" lon="2.84153">
        <ele>1142.1</ele>
        <time>2021-09-14T06:24:27.000Z</time>
      </trkpt>
      <trkpt lat="45.09997" lon="2.8414">
        <ele>1140.4</ele>
        <time>2021-09-14T06:24:33.000Z</time>
      </trkpt>
      <trkpt lat="45.09987" lon="2.84128">
        <ele>1143.4</ele>
        <time>2021-09-14T06:24:39.000Z</time>
      </trkpt>
      <trkpt lat="45.09985" lon="2.84117">
        <ele>1143.7</ele>
        <time>2021-09-14T06:24:45.000Z</time>
      </trkpt>
      <trkpt lat="45.09975" lon="2.84111">
        <ele>1146.8</ele>
        <time>2021-09-14T06:24:51.000Z</time>
      </trkpt>
      <trkpt lat="45.09968" lon="2.84103">
        <ele>1148.7</ele>
        <time>2021-09-14T06:24:57.000Z</time>
      </trkpt>
      <trkpt lat="45.09969" lon="2.84093">
        <ele>1148</ele>
        <time>2021-09-14T06:25:06.000Z</time>
      </trkpt>
      <trkpt lat="45.09969" lon="2.84083">
        <ele>1147.7</ele>
        <time>2021-09-14T06:25:27.000Z</time>
      </trkpt>
      <trkpt lat="45.09964" lon="2.84078">
        <ele>1149.1</ele>
        <time>2021-09-14T06:25:52.000Z</time>
      </trkpt>
      <trkpt lat="45.09964" lon="2.84068">
        <ele>1148.7</ele>
        <time>2021-09-14T06:26:02.000Z</time>
      </trkpt>
      <trkpt lat="45.09975" lon="2.84063">
        <ele>1144.9</ele>
        <time>2021-09-14T06:26:07.000Z</time>
      </trkpt>
      <trkpt lat="45.09982" lon="2.84062">
        <ele>1142.6</ele>
        <time>2021-09-14T06:26:10.000Z</time>
      </trkpt>
      <trkpt lat="45.09983" lon="2.84052">
        <ele>1141.8</ele>
        <time>2021-09-14T06:26:19.000Z</time>
      </trkpt>
      <trkpt lat="45.09988" lon="2.84044">
        <ele>1139.7</ele>
        <time>2021-09-14T06:26:25.000Z</time>
      </trkpt>
      <trkpt lat="45.09996" lon="2.84045">
        <ele>1137.1</ele>
        <time>2021-09-14T06:26:29.000Z</time>
      </trkpt>
      <trkpt lat="45.10008" lon="2.84043">
        <ele>1131.7</ele>
        <time>2021-09-14T06:26:33.000Z</time>
      </trkpt>
      <trkpt lat="45.10023" lon="2.84037">
        <ele>1124.3</ele>
        <time>2021-09-14T06:26:39.000Z</time>
      </trkpt>
      <trkpt lat="45.1003" lon="2.84031">
        <ele>1120.8</ele>
        <time>2021-09-14T06:26:45.000Z</time>
      </trkpt>
      <trkpt lat="45.10036" lon="2.84026">
        <ele>1117.9</ele>
        <time>2021-09-14T06:26:54.000Z</time>
      </trkpt>
      <trkpt lat="45.10068" lon="2.8402">
        <ele>1103.3</ele>
        <time>2021-09-14T06:26:57.000Z</time>
      </trkpt>
      <trkpt lat="45.10089" lon="2.84017">
        <ele>1092.9</ele>
        <time>2021-09-14T06:27:03.000Z</time>
      </trkpt>
      <trkpt lat="45.10105" lon="2.84011">
        <ele>1083.7</ele>
        <time>2021-09-14T06:27:09.000Z</time>
      </trkpt>
      <trkpt lat="45.10132" lon="2.83984">
        <ele>1069.6</ele>
        <time>2021-09-14T06:27:15.000Z</time>
      </trkpt>
      <trkpt lat="45.10142" lon="2.83958">
        <ele>1065.7</ele>
        <time>2021-09-14T06:27:21.000Z</time>
      </trkpt>
      <trkpt lat="45.10141" lon="2.83929">
        <ele>1067.8</ele>
        <time>2021-09-14T06:27:27.000Z</time>
      </trkpt>
      <trkpt lat="45.10136" lon="2.83899">
        <ele>1070.3</ele>
        <time>2021-09-14T06:27:33.000Z</time>
      </trkpt>
      <trkpt lat="45.10135" lon="2.83871">
        <ele>1070.2</ele>
        <time>2021-09-14T06:27:39.000Z</time>
      </trkpt>
      <trkpt lat="45.10138" lon="2.83849">
        <ele>1068.8</ele>
        <time>2021-09-14T06:27:45.000Z</time>
      </trkpt>
      <trkpt lat="45.10142" lon="2.83834">
        <ele>1067.3</ele>
        <time>2021-09-14T06:27:51.000Z</time>
      </trkpt>
      <trkpt lat="45.10144" lon="2.83818">
        <ele>1066.2</ele>
        <time>2021-09-14T06:27:57.000Z</time>
      </trkpt>
      <trkpt lat="45.10145" lon="2.83803">
        <ele>1065.4</ele>
        <time>2021-09-14T06:28:03.000Z</time>
      </trkpt>
      <trkpt lat="45.10149" lon="2.83793">
        <ele>1063.9</ele>
        <time>2021-09-14T06:28:09.000Z</time>
      </trkpt>
      <trkpt lat="45.10152" lon="2.83784">
        <ele>1062.8</ele>
        <time>2021-09-14T06:28:15.000Z</time>
      </trkpt>
      <trkpt lat="45.10152" lon="2.83774">
        <ele>1062.6</ele>
        <time>2021-09-14T06:28:21.000Z</time>
      </trkpt>
      <trkpt lat="45.10152" lon="2.83764">
        <ele>1062.4</ele>
        <time>2021-09-14T06:28:28.000Z</time>
      </trkpt>
      <trkpt lat="45.10152" lon="2.83753">
        <ele>1062.1</ele>
        <time>2021-09-14T06:28:33.000Z</time>
      </trkpt>
      <trkpt lat="45.10155" lon="2.83743">
        <ele>1061.1</ele>
        <time>2021-09-14T06:28:39.000Z</time>
      </trkpt>
      <trkpt lat="45.10154" lon="2.83733">
        <ele>1061.3</ele>
        <time>2021-09-14T06:28:45.000Z</time>
      </trkpt>
      <trkpt lat="45.10154" lon="2.83723">
        <ele>1061.2</ele>
        <time>2021-09-14T06:28:52.000Z</time>
      </trkpt>
      <trkpt lat="45.10156" lon="2.83711">
        <ele>1060.5</ele>
        <time>2021-09-14T06:28:57.000Z</time>
      </trkpt>
      <trkpt lat="45.10158" lon="2.83696">
        <ele>1059.8</ele>
        <time>2021-09-14T06:29:03.000Z</time>
      </trkpt>
      <trkpt lat="45.10158" lon="2.83686">
        <ele>1059.7</ele>
        <time>2021-09-14T06:29:09.000Z</time>
      </trkpt>
      <trkpt lat="45.10158" lon="2.83677">
        <ele>1059.6</ele>
        <time>2021-09-14T06:29:15.000Z</time>
      </trkpt>
      <trkpt lat="45.10159" lon="2.83663">
        <ele>1059.3</ele>
        <time>2021-09-14T06:29:21.000Z</time>
      </trkpt>
      <trkpt lat="45.1016" lon="2.83651">
        <ele>1059.5</ele>
        <time>2021-09-14T06:29:27.000Z</time>
      </trkpt>
      <trkpt lat="45.1016" lon="2.8364">
        <ele>1059.9</ele>
        <time>2021-09-14T06:29:33.000Z</time>
      </trkpt>
      <trkpt lat="45.1016" lon="2.83629">
        <ele>1060.3</ele>
        <time>2021-09-14T06:29:39.000Z</time>
      </trkpt>
      <trkpt lat="45.10158" lon="2.83617">
        <ele>1061.3</ele>
        <time>2021-09-14T06:29:45.000Z</time>
      </trkpt>
      <trkpt lat="45.10154" lon="2.8361">
        <ele>1062.7</ele>
        <time>2021-09-14T06:29:51.000Z</time>
      </trkpt>
      <trkpt lat="45.10152" lon="2.836">
        <ele>1063.6</ele>
        <time>2021-09-14T06:30:01.000Z</time>
      </trkpt>
      <trkpt lat="45.10149" lon="2.83591">
        <ele>1064.8</ele>
        <time>2021-09-14T06:30:47.000Z</time>
      </trkpt>
      <trkpt lat="45.10147" lon="2.83583">
        <ele>1065.7</ele>
        <time>2021-09-14T06:30:58.000Z</time>
      </trkpt>
      <trkpt lat="45.10145" lon="2.83572">
        <ele>1066.6</ele>
        <time>2021-09-14T06:31:10.000Z</time>
      </trkpt>
      <trkpt lat="45.10145" lon="2.83563">
        <ele>1067</ele>
        <time>2021-09-14T06:31:15.000Z</time>
      </trkpt>
      <trkpt lat="45.10143" lon="2.83552">
        <ele>1067.9</ele>
        <time>2021-09-14T06:31:21.000Z</time>
      </trkpt>
      <trkpt lat="45.10141" lon="2.83543">
        <ele>1068.7</ele>
        <time>2021-09-14T06:31:27.000Z</time>
      </trkpt>
      <trkpt lat="45.10136" lon="2.83532">
        <ele>1070.4</ele>
        <time>2021-09-14T06:31:33.000Z</time>
      </trkpt>
      <trkpt lat="45.10132" lon="2.8352">
        <ele>1071.8</ele>
        <time>2021-09-14T06:31:39.000Z</time>
      </trkpt>
      <trkpt lat="45.10129" lon="2.8351">
        <ele>1072.8</ele>
        <time>2021-09-14T06:31:45.000Z</time>
      </trkpt>
      <trkpt lat="45.10127" lon="2.83501">
        <ele>1073.5</ele>
        <time>2021-09-14T06:31:51.000Z</time>
      </trkpt>
      <trkpt lat="45.10123" lon="2.83491">
        <ele>1074.8</ele>
        <time>2021-09-14T06:31:57.000Z</time>
      </trkpt>
      <trkpt lat="45.1012" lon="2.83481">
        <ele>1075.8</ele>
        <time>2021-09-14T06:32:04.000Z</time>
      </trkpt>
      <trkpt lat="45.10118" lon="2.83471">
        <ele>1076.5</ele>
        <time>2021-09-14T06:32:10.000Z</time>
      </trkpt>
      <trkpt lat="45.10116" lon="2.83462">
        <ele>1077.2</ele>
        <time>2021-09-14T06:32:17.000Z</time>
      </trkpt>
      <trkpt lat="45.10113" lon="2.83452">
        <ele>1078.1</ele>
        <time>2021-09-14T06:32:23.000Z</time>
      </trkpt>
      <trkpt lat="45.10112" lon="2.83442">
        <ele>1078.6</ele>
        <time>2021-09-14T06:32:29.000Z</time>
      </trkpt>
      <trkpt lat="45.10108" lon="2.83433">
        <ele>1079.5</ele>
        <time>2021-09-14T06:32:37.000Z</time>
      </trkpt>
      <trkpt lat="45.10104" lon="2.83426">
        <ele>1080.4</ele>
        <time>2021-09-14T06:32:44.000Z</time>
      </trkpt>
      <trkpt lat="45.10102" lon="2.83417">
        <ele>1080.9</ele>
        <time>2021-09-14T06:32:49.000Z</time>
      </trkpt>
      <trkpt lat="45.10101" lon="2.83405">
        <ele>1081.3</ele>
        <time>2021-09-14T06:32:55.000Z</time>
      </trkpt>
      <trkpt lat="45.10096" lon="2.83398">
        <ele>1082.2</ele>
        <time>2021-09-14T06:33:03.000Z</time>
      </trkpt>
      <trkpt lat="45.10091" lon="2.83391">
        <ele>1083.1</ele>
        <time>2021-09-14T06:33:09.000Z</time>
      </trkpt>
      <trkpt lat="45.10087" lon="2.83382">
        <ele>1083.9</ele>
        <time>2021-09-14T06:33:15.000Z</time>
      </trkpt>
      <trkpt lat="45.10084" lon="2.83373">
        <ele>1084.4</ele>
        <time>2021-09-14T06:33:21.000Z</time>
      </trkpt>
      <trkpt lat="45.1008" lon="2.83363">
        <ele>1085.5</ele>
        <time>2021-09-14T06:33:27.000Z</time>
      </trkpt>
      <trkpt lat="45.10077" lon="2.83351">
        <ele>1086.4</ele>
        <time>2021-09-14T06:33:33.000Z</time>
      </trkpt>
      <trkpt lat="45.10073" lon="2.83337">
        <ele>1087.6</ele>
        <time>2021-09-14T06:33:39.000Z</time>
      </trkpt>
      <trkpt lat="45.1007" lon="2.83326">
        <ele>1088.2</ele>
        <time>2021-09-14T06:33:45.000Z</time>
      </trkpt>
      <trkpt lat="45.10068" lon="2.83316">
        <ele>1088.5</ele>
        <time>2021-09-14T06:33:51.000Z</time>
      </trkpt>
      <trkpt lat="45.10067" lon="2.83304">
        <ele>1088.6</ele>
        <time>2021-09-14T06:33:57.000Z</time>
      </trkpt>
      <trkpt lat="45.10064" lon="2.83287">
        <ele>1088.9</ele>
        <time>2021-09-14T06:34:03.000Z</time>
      </trkpt>
      <trkpt lat="45.1006" lon="2.83272">
        <ele>1089.5</ele>
        <time>2021-09-14T06:34:09.000Z</time>
      </trkpt>
      <trkpt lat="45.1006" lon="2.83255">
        <ele>1089.2</ele>
        <time>2021-09-14T06:34:15.000Z</time>
      </trkpt>
      <trkpt lat="45.10059" lon="2.83242">
        <ele>1088.8</ele>
        <time>2021-09-14T06:34:21.000Z</time>
      </trkpt>
      <trkpt lat="45.10056" lon="2.83232">
        <ele>1088.9</ele>
        <time>2021-09-14T06:34:27.000Z</time>
      </trkpt>
      <trkpt lat="45.10054" lon="2.83221">
        <ele>1088.7</ele>
        <time>2021-09-14T06:34:33.000Z</time>
      </trkpt>
      <trkpt lat="45.10053" lon="2.8321">
        <ele>1088.3</ele>
        <time>2021-09-14T06:34:39.000Z</time>
      </trkpt>
      <trkpt lat="45.10052" lon="2.83197">
        <ele>1087.7</ele>
        <time>2021-09-14T06:34:45.000Z</time>
      </trkpt>
      <trkpt lat="45.10052" lon="2.83185">
        <ele>1087.1</ele>
        <time>2021-09-14T06:34:51.000Z</time>
      </trkpt>
      <trkpt lat="45.1005" lon="2.83174">
        <ele>1086.8</ele>
        <time>2021-09-14T06:34:57.000Z</time>
      </trkpt>
      <trkpt lat="45.10052" lon="2.83165">
        <ele>1086.1</ele>
        <time>2021-09-14T06:35:04.000Z</time>
      </trkpt>
      <trkpt lat="45.10053" lon="2.83155">
        <ele>1086.1</ele>
        <time>2021-09-14T06:35:09.000Z</time>
      </trkpt>
      <trkpt lat="45.10051" lon="2.8314">
        <ele>1086.9</ele>
        <time>2021-09-14T06:35:15.000Z</time>
      </trkpt>
      <trkpt lat="45.10051" lon="2.83127">
        <ele>1087.3</ele>
        <time>2021-09-14T06:35:21.000Z</time>
      </trkpt>
      <trkpt lat="45.10051" lon="2.83115">
        <ele>1087.6</ele>
        <time>2021-09-14T06:35:27.000Z</time>
      </trkpt>
      <trkpt lat="45.10053" lon="2.83102">
        <ele>1087.6</ele>
        <time>2021-09-14T06:35:33.000Z</time>
      </trkpt>
      <trkpt lat="45.10051" lon="2.83087">
        <ele>1088.3</ele>
        <time>2021-09-14T06:35:39.000Z</time>
      </trkpt>
      <trkpt lat="45.10058" lon="2.83088">
        <ele>1087.1</ele>
        <time>2021-09-14T06:36:10.000Z</time>
      </trkpt>
      <trkpt lat="45.10062" lon="2.83095">
        <ele>1086.2</ele>
        <time>2021-09-14T06:36:16.000Z</time>
      </trkpt>
      <trkpt lat="45.10066" lon="2.83105">
        <ele>1085.2</ele>
        <time>2021-09-14T06:36:23.000Z</time>
      </trkpt>
      <trkpt lat="45.10071" lon="2.83112">
        <ele>1084.1</ele>
        <time>2021-09-14T06:36:29.000Z</time>
      </trkpt>
      <trkpt lat="45.10072" lon="2.83122">
        <ele>1083.6</ele>
        <time>2021-09-14T06:37:01.000Z</time>
      </trkpt>
      <trkpt lat="45.10072" lon="2.83132">
        <ele>1083.3</ele>
        <time>2021-09-14T06:37:08.000Z</time>
      </trkpt>
      <trkpt lat="45.10067" lon="2.83139">
        <ele>1084</ele>
        <time>2021-09-14T06:37:14.000Z</time>
      </trkpt>
      <trkpt lat="45.10071" lon="2.83148">
        <ele>1083</ele>
        <time>2021-09-14T06:37:35.000Z</time>
      </trkpt>
      <trkpt lat="45.10075" lon="2.83156">
        <ele>1082</ele>
        <time>2021-09-14T06:38:01.000Z</time>
      </trkpt>
      <trkpt lat="45.10082" lon="2.83157">
        <ele>1080.6</ele>
        <time>2021-09-14T06:38:05.000Z</time>
      </trkpt>
      <trkpt lat="45.10087" lon="2.83165">
        <ele>1079.6</ele>
        <time>2021-09-14T06:38:11.000Z</time>
      </trkpt>
      <trkpt lat="45.10093" lon="2.8317">
        <ele>1078.9</ele>
        <time>2021-09-14T06:38:21.000Z</time>
      </trkpt>
      <trkpt lat="45.10096" lon="2.83179">
        <ele>1078.9</ele>
        <time>2021-09-14T06:38:49.000Z</time>
      </trkpt>
      <trkpt lat="45.10102" lon="2.83185">
        <ele>1078.4</ele>
        <time>2021-09-14T06:38:57.000Z</time>
      </trkpt>
      <trkpt lat="45.10108" lon="2.8319">
        <ele>1077.9</ele>
        <time>2021-09-14T06:39:03.000Z</time>
      </trkpt>
      <trkpt lat="45.10113" lon="2.83196">
        <ele>1077.5</ele>
        <time>2021-09-14T06:39:13.000Z</time>
      </trkpt>
      <trkpt lat="45.1012" lon="2.83197">
        <ele>1076.6</ele>
        <time>2021-09-14T06:39:18.000Z</time>
      </trkpt>
      <trkpt lat="45.10127" lon="2.83196">
        <ele>1075.6</ele>
        <time>2021-09-14T06:39:24.000Z</time>
      </trkpt>
      <trkpt lat="45.10133" lon="2.83194">
        <ele>1074.8</ele>
        <time>2021-09-14T06:39:37.000Z</time>
      </trkpt>
      <trkpt lat="45.10141" lon="2.8319">
        <ele>1073.5</ele>
        <time>2021-09-14T06:39:55.000Z</time>
      </trkpt>
      <trkpt lat="45.10148" lon="2.83191">
        <ele>1072.6</ele>
        <time>2021-09-14T06:40:12.000Z</time>
      </trkpt>
      <trkpt lat="45.10155" lon="2.83188">
        <ele>1071.6</ele>
        <time>2021-09-14T06:40:17.000Z</time>
      </trkpt>
      <trkpt lat="45.10162" lon="2.83186">
        <ele>1070.5</ele>
        <time>2021-09-14T06:40:21.000Z</time>
      </trkpt>
      <trkpt lat="45.10174" lon="2.83184">
        <ele>1070.4</ele>
        <time>2021-09-14T06:40:27.000Z</time>
      </trkpt>
      <trkpt lat="45.10183" lon="2.83179">
        <ele>1071.1</ele>
        <time>2021-09-14T06:40:33.000Z</time>
      </trkpt>
      <trkpt lat="45.10189" lon="2.8318">
        <ele>1071.6</ele>
        <time>2021-09-14T06:40:43.000Z</time>
      </trkpt>
      <trkpt lat="45.10197" lon="2.83178">
        <ele>1072.3</ele>
        <time>2021-09-14T06:41:02.000Z</time>
      </trkpt>
      <trkpt lat="45.10204" lon="2.83178">
        <ele>1073</ele>
        <time>2021-09-14T06:41:08.000Z</time>
      </trkpt>
      <trkpt lat="45.10209" lon="2.83184">
        <ele>1073.3</ele>
        <time>2021-09-14T06:41:15.000Z</time>
      </trkpt>
      <trkpt lat="45.10214" lon="2.83191">
        <ele>1073.6</ele>
        <time>2021-09-14T06:41:22.000Z</time>
      </trkpt>
      <trkpt lat="45.1022" lon="2.83196">
        <ele>1073.9</ele>
        <time>2021-09-14T06:41:31.000Z</time>
      </trkpt>
      <trkpt lat="45.10226" lon="2.83201">
        <ele>1074.1</ele>
        <time>2021-09-14T06:41:38.000Z</time>
      </trkpt>
      <trkpt lat="45.1023" lon="2.8321">
        <ele>1074</ele>
        <time>2021-09-14T06:41:43.000Z</time>
      </trkpt>
      <trkpt lat="45.10232" lon="2.8322">
        <ele>1073.6</ele>
        <time>2021-09-14T06:41:47.000Z</time>
      </trkpt>
      <trkpt lat="45.10239" lon="2.83225">
        <ele>1073.5</ele>
        <time>2021-09-14T06:41:53.000Z</time>
      </trkpt>
      <trkpt lat="45.10244" lon="2.83232">
        <ele>1073.2</ele>
        <time>2021-09-14T06:42:00.000Z</time>
      </trkpt>
      <trkpt lat="45.10249" lon="2.83238">
        <ele>1072.9</ele>
        <time>2021-09-14T06:42:13.000Z</time>
      </trkpt>
      <trkpt lat="45.10256" lon="2.83245">
        <ele>1071.7</ele>
        <time>2021-09-14T06:42:18.000Z</time>
      </trkpt>
      <trkpt lat="45.1026" lon="2.83252">
        <ele>1070.7</ele>
        <time>2021-09-14T06:42:22.000Z</time>
      </trkpt>
      <trkpt lat="45.10265" lon="2.83259">
        <ele>1069.7</ele>
        <time>2021-09-14T06:42:28.000Z</time>
      </trkpt>
      <trkpt lat="45.10271" lon="2.83264">
        <ele>1068.5</ele>
        <time>2021-09-14T06:42:35.000Z</time>
      </trkpt>
      <trkpt lat="45.10276" lon="2.83269">
        <ele>1067.2</ele>
        <time>2021-09-14T06:42:43.000Z</time>
      </trkpt>
      <trkpt lat="45.10283" lon="2.83273">
        <ele>1065.6</ele>
        <time>2021-09-14T06:42:50.000Z</time>
      </trkpt>
      <trkpt lat="45.1029" lon="2.83276">
        <ele>1063.9</ele>
        <time>2021-09-14T06:43:00.000Z</time>
      </trkpt>
      <trkpt lat="45.10296" lon="2.83273">
        <ele>1063.2</ele>
        <time>2021-09-14T06:43:05.000Z</time>
      </trkpt>
      <trkpt lat="45.10302" lon="2.83267">
        <ele>1063</ele>
        <time>2021-09-14T06:43:10.000Z</time>
      </trkpt>
      <trkpt lat="45.10309" lon="2.83264">
        <ele>1062.4</ele>
        <time>2021-09-14T06:43:15.000Z</time>
      </trkpt>
      <trkpt lat="45.10315" lon="2.83259">
        <ele>1062.4</ele>
        <time>2021-09-14T06:43:21.000Z</time>
      </trkpt>
      <trkpt lat="45.10321" lon="2.83251">
        <ele>1063.3</ele>
        <time>2021-09-14T06:43:27.000Z</time>
      </trkpt>
      <trkpt lat="45.10319" lon="2.83261">
        <ele>1061.4</ele>
        <time>2021-09-14T06:43:46.000Z</time>
      </trkpt>
      <trkpt lat="45.10316" lon="2.83281">
        <ele>1057.8</ele>
        <time>2021-09-14T06:45:03.000Z</time>
      </trkpt>
      <trkpt lat="45.10311" lon="2.83288">
        <ele>1057.5</ele>
        <time>2021-09-14T06:46:04.000Z</time>
      </trkpt>
      <trkpt lat="45.10312" lon="2.83301">
        <ele>1054.8</ele>
        <time>2021-09-14T06:46:23.000Z</time>
      </trkpt>
      <trkpt lat="45.10318" lon="2.8331">
        <ele>1051.4</ele>
        <time>2021-09-14T06:46:44.000Z</time>
      </trkpt>
      <trkpt lat="45.10317" lon="2.8332">
        <ele>1049.6</ele>
        <time>2021-09-14T06:46:54.000Z</time>
      </trkpt>
      <trkpt lat="45.10322" lon="2.83327">
        <ele>1046.5</ele>
        <time>2021-09-14T06:47:18.000Z</time>
      </trkpt>
      <trkpt lat="45.10323" lon="2.83317">
        <ele>1048.3</ele>
        <time>2021-09-14T06:47:24.000Z</time>
      </trkpt>
      <trkpt lat="45.10324" lon="2.83307">
        <ele>1050.3</ele>
        <time>2021-09-14T06:47:54.000Z</time>
      </trkpt>
      <trkpt lat="45.10331" lon="2.83305">
        <ele>1048.8</ele>
        <time>2021-09-14T06:48:02.000Z</time>
      </trkpt>
      <trkpt lat="45.10337" lon="2.83303">
        <ele>1047.8</ele>
        <time>2021-09-14T06:48:17.000Z</time>
      </trkpt>
      <trkpt lat="45.10344" lon="2.83302">
        <ele>1046.4</ele>
        <time>2021-09-14T06:48:23.000Z</time>
      </trkpt>
      <trkpt lat="45.10352" lon="2.83302">
        <ele>1044.5</ele>
        <time>2021-09-14T06:48:27.000Z</time>
      </trkpt>
      <trkpt lat="45.10357" lon="2.83309">
        <ele>1041.5</ele>
        <time>2021-09-14T06:48:35.000Z</time>
      </trkpt>
      <trkpt lat="45.10361" lon="2.83318">
        <ele>1038.1</ele>
        <time>2021-09-14T06:48:49.000Z</time>
      </trkpt>
      <trkpt lat="45.10362" lon="2.83328">
        <ele>1035.2</ele>
        <time>2021-09-14T06:48:55.000Z</time>
      </trkpt>
      <trkpt lat="45.10358" lon="2.8334">
        <ele>1035.1</ele>
        <time>2021-09-14T06:49:03.000Z</time>
      </trkpt>
      <trkpt lat="45.10352" lon="2.83346">
        <ele>1037.1</ele>
        <time>2021-09-14T06:49:09.000Z</time>
      </trkpt>
      <trkpt lat="45.10345" lon="2.83342">
        <ele>1038.8</ele>
        <time>2021-09-14T06:49:38.000Z</time>
      </trkpt>
      <trkpt lat="45.10342" lon="2.8335">
        <ele>1040.4</ele>
        <time>2021-09-14T06:49:51.000Z</time>
      </trkpt>
      <trkpt lat="45.10348" lon="2.83352">
        <ele>1038.7</ele>
        <time>2021-09-14T06:50:02.000Z</time>
      </trkpt>
      <trkpt lat="45.10352" lon="2.83345">
        <ele>1037</ele>
        <time>2021-09-14T06:50:07.000Z</time>
      </trkpt>
      <trkpt lat="45.10358" lon="2.83341">
        <ele>1035.1</ele>
        <time>2021-09-14T06:50:25.000Z</time>
      </trkpt>
      <trkpt lat="45.10364" lon="2.83333">
        <ele>1033.4</ele>
        <time>2021-09-14T06:50:30.000Z</time>
      </trkpt>
      <trkpt lat="45.1037" lon="2.83331">
        <ele>1032.4</ele>
        <time>2021-09-14T06:50:38.000Z</time>
      </trkpt>
      <trkpt lat="45.10373" lon="2.83321">
        <ele>1034.4</ele>
        <time>2021-09-14T06:50:59.000Z</time>
      </trkpt>
      <trkpt lat="45.10377" lon="2.83313">
        <ele>1035.6</ele>
        <time>2021-09-14T06:51:08.000Z</time>
      </trkpt>
      <trkpt lat="45.10385" lon="2.83309">
        <ele>1034.8</ele>
        <time>2021-09-14T06:51:21.000Z</time>
      </trkpt>
      <trkpt lat="45.10393" lon="2.83306">
        <ele>1033.8</ele>
        <time>2021-09-14T06:51:27.000Z</time>
      </trkpt>
      <trkpt lat="45.104" lon="2.83304">
        <ele>1032.7</ele>
        <time>2021-09-14T06:51:35.000Z</time>
      </trkpt>
      <trkpt lat="45.10406" lon="2.83301">
        <ele>1032.2</ele>
        <time>2021-09-14T06:51:42.000Z</time>
      </trkpt>
      <trkpt lat="45.10411" lon="2.83294">
        <ele>1033.1</ele>
        <time>2021-09-14T06:51:50.000Z</time>
      </trkpt>
      <trkpt lat="45.10417" lon="2.83288">
        <ele>1033.4</ele>
        <time>2021-09-14T06:51:56.000Z</time>
      </trkpt>
      <trkpt lat="45.10423" lon="2.83285">
        <ele>1031.2</ele>
        <time>2021-09-14T06:52:09.000Z</time>
      </trkpt>
      <trkpt lat="45.10418" lon="2.83291">
        <ele>1032</ele>
        <time>2021-09-14T06:52:18.000Z</time>
      </trkpt>
      <trkpt lat="45.10417" lon="2.833">
        <ele>1029.8</ele>
        <time>2021-09-14T06:52:24.000Z</time>
      </trkpt>
      <trkpt lat="45.10417" lon="2.8331">
        <ele>1026.8</ele>
        <time>2021-09-14T06:52:32.000Z</time>
      </trkpt>
      <trkpt lat="45.10418" lon="2.83321">
        <ele>1023</ele>
        <time>2021-09-14T06:52:39.000Z</time>
      </trkpt>
      <trkpt lat="45.10421" lon="2.83335">
        <ele>1017.7</ele>
        <time>2021-09-14T06:52:45.000Z</time>
      </trkpt>
      <trkpt lat="45.10428" lon="2.83332">
        <ele>1014.8</ele>
        <time>2021-09-14T06:52:53.000Z</time>
      </trkpt>
      <trkpt lat="45.10431" lon="2.83323">
        <ele>1016</ele>
        <time>2021-09-14T06:53:00.000Z</time>
      </trkpt>
      <trkpt lat="45.10436" lon="2.83313">
        <ele>1016.4</ele>
        <time>2021-09-14T06:53:05.000Z</time>
      </trkpt>
      <trkpt lat="45.10442" lon="2.83308">
        <ele>1014.8</ele>
        <time>2021-09-14T06:53:09.000Z</time>
      </trkpt>
      <trkpt lat="45.10436" lon="2.8331">
        <ele>1017.2</ele>
        <time>2021-09-14T06:53:21.000Z</time>
      </trkpt>
      <trkpt lat="45.10433" lon="2.83319">
        <ele>1016.1</ele>
        <time>2021-09-14T06:53:28.000Z</time>
      </trkpt>
      <trkpt lat="45.1043" lon="2.83327">
        <ele>1015.3</ele>
        <time>2021-09-14T06:53:34.000Z</time>
      </trkpt>
      <trkpt lat="45.10428" lon="2.83336">
        <ele>1014.1</ele>
        <time>2021-09-14T06:53:43.000Z</time>
      </trkpt>
      <trkpt lat="45.10429" lon="2.83351">
        <ele>1011.7</ele>
        <time>2021-09-14T06:53:51.000Z</time>
      </trkpt>
      <trkpt lat="45.10415" lon="2.8335">
        <ele>1018.3</ele>
        <time>2021-09-14T06:53:57.000Z</time>
      </trkpt>
      <trkpt lat="45.10402" lon="2.83351">
        <ele>1022.1</ele>
        <time>2021-09-14T06:54:11.000Z</time>
      </trkpt>
      <trkpt lat="45.10397" lon="2.83356">
        <ele>1023.3</ele>
        <time>2021-09-14T06:54:25.000Z</time>
      </trkpt>
      <trkpt lat="45.10393" lon="2.83363">
        <ele>1024.2</ele>
        <time>2021-09-14T06:54:30.000Z</time>
      </trkpt>
      <trkpt lat="45.10389" lon="2.83372">
        <ele>1025.1</ele>
        <time>2021-09-14T06:54:35.000Z</time>
      </trkpt>
      <trkpt lat="45.10382" lon="2.83376">
        <ele>1027.6</ele>
        <time>2021-09-14T06:54:40.000Z</time>
      </trkpt>
      <trkpt lat="45.10378" lon="2.83384">
        <ele>1029</ele>
        <time>2021-09-14T06:54:57.000Z</time>
      </trkpt>
      <trkpt lat="45.10374" lon="2.83393">
        <ele>1030.6</ele>
        <time>2021-09-14T06:55:03.000Z</time>
      </trkpt>
      <trkpt lat="45.10368" lon="2.83398">
        <ele>1033.2</ele>
        <time>2021-09-14T06:55:11.000Z</time>
      </trkpt>
      <trkpt lat="45.10364" lon="2.8339">
        <ele>1034.8</ele>
        <time>2021-09-14T06:55:53.000Z</time>
      </trkpt>
      <trkpt lat="45.1037" lon="2.83386">
        <ele>1032.2</ele>
        <time>2021-09-14T06:56:01.000Z</time>
      </trkpt>
      <trkpt lat="45.10363" lon="2.83382">
        <ele>1035</ele>
        <time>2021-09-14T06:56:03.000Z</time>
      </trkpt>
      <trkpt lat="45.10368" lon="2.83376">
        <ele>1032.9</ele>
        <time>2021-09-14T06:56:11.000Z</time>
      </trkpt>
      <trkpt lat="45.10369" lon="2.83367">
        <ele>1032.4</ele>
        <time>2021-09-14T06:56:21.000Z</time>
      </trkpt>
      <trkpt lat="45.10363" lon="2.83362">
        <ele>1034.4</ele>
        <time>2021-09-14T06:56:29.000Z</time>
      </trkpt>
      <trkpt lat="45.1036" lon="2.83353">
        <ele>1035.1</ele>
        <time>2021-09-14T06:56:33.000Z</time>
      </trkpt>
      <trkpt lat="45.10359" lon="2.83343">
        <ele>1034.9</ele>
        <time>2021-09-14T06:56:40.000Z</time>
      </trkpt>
      <trkpt lat="45.10359" lon="2.83356">
        <ele>1035.5</ele>
        <time>2021-09-14T06:57:09.000Z</time>
      </trkpt>
      <trkpt lat="45.1036" lon="2.83366">
        <ele>1035.6</ele>
        <time>2021-09-14T06:57:15.000Z</time>
      </trkpt>
      <trkpt lat="45.1036" lon="2.83375">
        <ele>1035.9</ele>
        <time>2021-09-14T06:57:25.000Z</time>
      </trkpt>
      <trkpt lat="45.10352" lon="2.83376">
        <ele>1039</ele>
        <time>2021-09-14T06:57:34.000Z</time>
      </trkpt>
      <trkpt lat="45.10353" lon="2.83366">
        <ele>1038</ele>
        <time>2021-09-14T06:57:45.000Z</time>
      </trkpt>
      <trkpt lat="45.10345" lon="2.83367">
        <ele>1040.9</ele>
        <time>2021-09-14T06:57:51.000Z</time>
      </trkpt>
      <trkpt lat="45.10342" lon="2.83357">
        <ele>1041</ele>
        <time>2021-09-14T06:57:59.000Z</time>
      </trkpt>
      <trkpt lat="45.10336" lon="2.83353">
        <ele>1042.5</ele>
        <time>2021-09-14T06:58:05.000Z</time>
      </trkpt>
      <trkpt lat="45.10329" lon="2.8335">
        <ele>1044.4</ele>
        <time>2021-09-14T06:58:09.000Z</time>
      </trkpt>
      <trkpt lat="45.10323" lon="2.83363">
        <ele>1047.8</ele>
        <time>2021-09-14T06:58:31.000Z</time>
      </trkpt>
      <trkpt lat="45.10314" lon="2.8336">
        <ele>1050.3</ele>
        <time>2021-09-14T06:59:23.000Z</time>
      </trkpt>
      <trkpt lat="45.10309" lon="2.83367">
        <ele>1052.5</ele>
        <time>2021-09-14T06:59:43.000Z</time>
      </trkpt>
      <trkpt lat="45.10303" lon="2.83363">
        <ele>1054.1</ele>
        <time>2021-09-14T07:00:04.000Z</time>
      </trkpt>
      <trkpt lat="45.10293" lon="2.83381">
        <ele>1058.2</ele>
        <time>2021-09-14T07:00:21.000Z</time>
      </trkpt>
      <trkpt lat="45.10289" lon="2.83373">
        <ele>1058.9</ele>
        <time>2021-09-14T07:00:35.000Z</time>
      </trkpt>
      <trkpt lat="45.10282" lon="2.83381">
        <ele>1061.3</ele>
        <time>2021-09-14T07:00:51.000Z</time>
      </trkpt>
      <trkpt lat="45.10278" lon="2.83389">
        <ele>1062.7</ele>
        <time>2021-09-14T07:00:57.000Z</time>
      </trkpt>
      <trkpt lat="45.10273" lon="2.83382">
        <ele>1063.9</ele>
        <time>2021-09-14T07:01:19.000Z</time>
      </trkpt>
      <trkpt lat="45.10269" lon="2.83371">
        <ele>1064.8</ele>
        <time>2021-09-14T07:01:31.000Z</time>
      </trkpt>
      <trkpt lat="45.10265" lon="2.83378">
        <ele>1066.1</ele>
        <time>2021-09-14T07:01:34.000Z</time>
      </trkpt>
      <trkpt lat="45.10259" lon="2.83386">
        <ele>1067.9</ele>
        <time>2021-09-14T07:01:39.000Z</time>
      </trkpt>
      <trkpt lat="45.10247" lon="2.83376">
        <ele>1070.6</ele>
        <time>2021-09-14T07:01:45.000Z</time>
      </trkpt>
      <trkpt lat="45.10249" lon="2.83367">
        <ele>1070.6</ele>
        <time>2021-09-14T07:01:51.000Z</time>
      </trkpt>
      <trkpt lat="45.10252" lon="2.83359">
        <ele>1070.1</ele>
        <time>2021-09-14T07:01:57.000Z</time>
      </trkpt>
      <trkpt lat="45.1025" lon="2.8335">
        <ele>1070.8</ele>
        <time>2021-09-14T07:02:07.000Z</time>
      </trkpt>
      <trkpt lat="45.10246" lon="2.8334">
        <ele>1071.1</ele>
        <time>2021-09-14T07:02:13.000Z</time>
      </trkpt>
      <trkpt lat="45.10241" lon="2.83332">
        <ele>1071.4</ele>
        <time>2021-09-14T07:02:17.000Z</time>
      </trkpt>
      <trkpt lat="45.10236" lon="2.83327">
        <ele>1071.7</ele>
        <time>2021-09-14T07:02:27.000Z</time>
      </trkpt>
      <trkpt lat="45.1023" lon="2.83318">
        <ele>1072</ele>
        <time>2021-09-14T07:02:33.000Z</time>
      </trkpt>
      <trkpt lat="45.1023" lon="2.83306">
        <ele>1072.1</ele>
        <time>2021-09-14T07:03:21.000Z</time>
      </trkpt>
      <trkpt lat="45.10222" lon="2.83306">
        <ele>1072.3</ele>
        <time>2021-09-14T07:03:49.000Z</time>
      </trkpt>
      <trkpt lat="45.10215" lon="2.83304">
        <ele>1072.6</ele>
        <time>2021-09-14T07:03:56.000Z</time>
      </trkpt>
      <trkpt lat="45.10223" lon="2.83303">
        <ele>1072.3</ele>
        <time>2021-09-14T07:04:06.000Z</time>
      </trkpt>
      <trkpt lat="45.10234" lon="2.83303">
        <ele>1071.9</ele>
        <time>2021-09-14T07:04:09.000Z</time>
      </trkpt>
      <trkpt lat="45.10241" lon="2.83308">
        <ele>1071.6</ele>
        <time>2021-09-14T07:04:15.000Z</time>
      </trkpt>
      <trkpt lat="45.10242" lon="2.83298">
        <ele>1071.7</ele>
        <time>2021-09-14T07:04:34.000Z</time>
      </trkpt>
      <trkpt lat="45.10236" lon="2.83292">
        <ele>1071.9</ele>
        <time>2021-09-14T07:04:40.000Z</time>
      </trkpt>
      <trkpt lat="45.10218" lon="2.83293">
        <ele>1072.5</ele>
        <time>2021-09-14T07:04:45.000Z</time>
      </trkpt>
      <trkpt lat="45.10209" lon="2.83294">
        <ele>1072.7</ele>
        <time>2021-09-14T07:04:51.000Z</time>
      </trkpt>
      <trkpt lat="45.1023" lon="2.83292">
        <ele>1072.1</ele>
        <time>2021-09-14T07:04:57.000Z</time>
      </trkpt>
      <trkpt lat="45.10247" lon="2.8329">
        <ele>1071.6</ele>
        <time>2021-09-14T07:05:03.000Z</time>
      </trkpt>
      <trkpt lat="45.10242" lon="2.83297">
        <ele>1071.7</ele>
        <time>2021-09-14T07:05:09.000Z</time>
      </trkpt>
      <trkpt lat="45.10235" lon="2.83294">
        <ele>1071.9</ele>
        <time>2021-09-14T07:05:21.000Z</time>
      </trkpt>
      <trkpt lat="45.10224" lon="2.83294">
        <ele>1072.3</ele>
        <time>2021-09-14T07:05:42.000Z</time>
      </trkpt>
      <trkpt lat="45.10222" lon="2.83284">
        <ele>1072.3</ele>
        <time>2021-09-14T07:06:00.000Z</time>
      </trkpt>
      <trkpt lat="45.10216" lon="2.83279">
        <ele>1072.5</ele>
        <time>2021-09-14T07:06:03.000Z</time>
      </trkpt>
      <trkpt lat="45.10203" lon="2.83269">
        <ele>1072.7</ele>
        <time>2021-09-14T07:06:09.000Z</time>
      </trkpt>
      <trkpt lat="45.10197" lon="2.83278">
        <ele>1072.9</ele>
        <time>2021-09-14T07:06:18.000Z</time>
      </trkpt>
      <trkpt lat="45.1019" lon="2.83281">
        <ele>1073.2</ele>
        <time>2021-09-14T07:06:21.000Z</time>
      </trkpt>
      <trkpt lat="45.10173" lon="2.83277">
        <ele>1073.5</ele>
        <time>2021-09-14T07:06:27.000Z</time>
      </trkpt>
      <trkpt lat="45.10165" lon="2.83279">
        <ele>1073.9</ele>
        <time>2021-09-14T07:06:34.000Z</time>
      </trkpt>
      <trkpt lat="45.10158" lon="2.83277">
        <ele>1074.8</ele>
        <time>2021-09-14T07:06:39.000Z</time>
      </trkpt>
      <trkpt lat="45.10143" lon="2.83272">
        <ele>1076.6</ele>
        <time>2021-09-14T07:06:50.000Z</time>
      </trkpt>
      <trkpt lat="45.10138" lon="2.8326">
        <ele>1077</ele>
        <time>2021-09-14T07:07:01.000Z</time>
      </trkpt>
      <trkpt lat="45.10145" lon="2.83259">
        <ele>1076</ele>
        <time>2021-09-14T07:07:22.000Z</time>
      </trkpt>
      <trkpt lat="45.10151" lon="2.8326">
        <ele>1075.3</ele>
        <time>2021-09-14T07:07:29.000Z</time>
      </trkpt>
      <trkpt lat="45.10159" lon="2.83257">
        <ele>1074.2</ele>
        <time>2021-09-14T07:07:51.000Z</time>
      </trkpt>
      <trkpt lat="45.10158" lon="2.8327">
        <ele>1074.6</ele>
        <time>2021-09-14T07:08:12.000Z</time>
      </trkpt>
      <trkpt lat="45.1015" lon="2.83269">
        <ele>1075.6</ele>
        <time>2021-09-14T07:08:15.000Z</time>
      </trkpt>
      <trkpt lat="45.10156" lon="2.83275">
        <ele>1075</ele>
        <time>2021-09-14T07:08:44.000Z</time>
      </trkpt>
      <trkpt lat="45.10166" lon="2.83273">
        <ele>1073.6</ele>
        <time>2021-09-14T07:08:54.000Z</time>
      </trkpt>
      <trkpt lat="45.10171" lon="2.83267">
        <ele>1073.3</ele>
        <time>2021-09-14T07:09:04.000Z</time>
      </trkpt>
      <trkpt lat="45.10177" lon="2.83273">
        <ele>1073.3</ele>
        <time>2021-09-14T07:09:18.000Z</time>
      </trkpt>
      <trkpt lat="45.10183" lon="2.8327">
        <ele>1073.1</ele>
        <time>2021-09-14T07:09:35.000Z</time>
      </trkpt>
      <trkpt lat="45.10185" lon="2.83279">
        <ele>1073.2</ele>
        <time>2021-09-14T07:09:46.000Z</time>
      </trkpt>
      <trkpt lat="45.10192" lon="2.83284">
        <ele>1073.1</ele>
        <time>2021-09-14T07:09:53.000Z</time>
      </trkpt>
      <trkpt lat="45.10196" lon="2.83291">
        <ele>1073.1</ele>
        <time>2021-09-14T07:10:09.000Z</time>
      </trkpt>
      <trkpt lat="45.10218" lon="2.83295">
        <ele>1072.5</ele>
        <time>2021-09-14T07:10:15.000Z</time>
      </trkpt>
      <trkpt lat="45.1023" lon="2.83292">
        <ele>1072.1</ele>
        <time>2021-09-14T07:10:21.000Z</time>
      </trkpt>
      <trkpt lat="45.10235" lon="2.83298">
        <ele>1071.9</ele>
        <time>2021-09-14T07:10:28.000Z</time>
      </trkpt>
      <trkpt lat="45.10234" lon="2.83309">
        <ele>1071.9</ele>
        <time>2021-09-14T07:10:35.000Z</time>
      </trkpt>
      <trkpt lat="45.10222" lon="2.83305">
        <ele>1072.3</ele>
        <time>2021-09-14T07:10:49.000Z</time>
      </trkpt>
      <trkpt lat="45.10229" lon="2.83301">
        <ele>1072.1</ele>
        <time>2021-09-14T07:11:03.000Z</time>
      </trkpt>
      <trkpt lat="45.10222" lon="2.83307">
        <ele>1072.3</ele>
        <time>2021-09-14T07:11:11.000Z</time>
      </trkpt>
      <trkpt lat="45.10213" lon="2.83308">
        <ele>1072.7</ele>
        <time>2021-09-14T07:11:19.000Z</time>
      </trkpt>
      <trkpt lat="45.10206" lon="2.83307">
        <ele>1072.9</ele>
        <time>2021-09-14T07:11:29.000Z</time>
      </trkpt>
      <trkpt lat="45.10201" lon="2.833">
        <ele>1073</ele>
        <time>2021-09-14T07:11:34.000Z</time>
      </trkpt>
      <trkpt lat="45.10204" lon="2.83292">
        <ele>1072.9</ele>
        <time>2021-09-14T07:11:49.000Z</time>
      </trkpt>
      <trkpt lat="45.10209" lon="2.83283">
        <ele>1072.7</ele>
        <time>2021-09-14T07:11:55.000Z</time>
      </trkpt>
      <trkpt lat="45.10216" lon="2.83281">
        <ele>1072.5</ele>
        <time>2021-09-14T07:11:58.000Z</time>
      </trkpt>
      <trkpt lat="45.10227" lon="2.83276">
        <ele>1072.2</ele>
        <time>2021-09-14T07:12:03.000Z</time>
      </trkpt>
      <trkpt lat="45.10232" lon="2.83283">
        <ele>1072.1</ele>
        <time>2021-09-14T07:12:13.000Z</time>
      </trkpt>
      <trkpt lat="45.10228" lon="2.8329">
        <ele>1072.2</ele>
        <time>2021-09-14T07:12:20.000Z</time>
      </trkpt>
      <trkpt lat="45.10231" lon="2.8328">
        <ele>1072.1</ele>
        <time>2021-09-14T07:12:30.000Z</time>
      </trkpt>
      <trkpt lat="45.10232" lon="2.83271">
        <ele>1072.1</ele>
        <time>2021-09-14T07:12:34.000Z</time>
      </trkpt>
      <trkpt lat="45.10234" lon="2.83257">
        <ele>1072.2</ele>
        <time>2021-09-14T07:12:42.000Z</time>
      </trkpt>
      <trkpt lat="45.1024" lon="2.83261">
        <ele>1072</ele>
        <time>2021-09-14T07:12:50.000Z</time>
      </trkpt>
      <trkpt lat="45.10241" lon="2.83271">
        <ele>1071.9</ele>
        <time>2021-09-14T07:12:53.000Z</time>
      </trkpt>
      <trkpt lat="45.10241" lon="2.83281">
        <ele>1071.9</ele>
        <time>2021-09-14T07:12:58.000Z</time>
      </trkpt>
      <trkpt lat="45.10242" lon="2.83292">
        <ele>1071.7</ele>
        <time>2021-09-14T07:13:05.000Z</time>
      </trkpt>
      <trkpt lat="45.10243" lon="2.83309">
        <ele>1071.6</ele>
        <time>2021-09-14T07:13:11.000Z</time>
      </trkpt>
      <trkpt lat="45.10248" lon="2.83302">
        <ele>1071.4</ele>
        <time>2021-09-14T07:13:15.000Z</time>
      </trkpt>
      <trkpt lat="45.10251" lon="2.83313">
        <ele>1070.9</ele>
        <time>2021-09-14T07:13:21.000Z</time>
      </trkpt>
      <trkpt lat="45.10254" lon="2.83331">
        <ele>1069.6</ele>
        <time>2021-09-14T07:13:27.000Z</time>
      </trkpt>
      <trkpt lat="45.1026" lon="2.83337">
        <ele>1067.4</ele>
        <time>2021-09-14T07:13:37.000Z</time>
      </trkpt>
      <trkpt lat="45.10265" lon="2.83331">
        <ele>1065.7</ele>
        <time>2021-09-14T07:13:40.000Z</time>
      </trkpt>
      <trkpt lat="45.10269" lon="2.83323">
        <ele>1064.8</ele>
        <time>2021-09-14T07:13:49.000Z</time>
      </trkpt>
      <trkpt lat="45.10272" lon="2.83332">
        <ele>1063.2</ele>
        <time>2021-09-14T07:13:59.000Z</time>
      </trkpt>
      <trkpt lat="45.10276" lon="2.8334">
        <ele>1061.8</ele>
        <time>2021-09-14T07:14:07.000Z</time>
      </trkpt>
      <trkpt lat="45.10277" lon="2.83351">
        <ele>1061.8</ele>
        <time>2021-09-14T07:14:17.000Z</time>
      </trkpt>
      <trkpt lat="45.10274" lon="2.83365">
        <ele>1063.2</ele>
        <time>2021-09-14T07:14:21.000Z</time>
      </trkpt>
      <trkpt lat="45.10279" lon="2.83371">
        <ele>1061.8</ele>
        <time>2021-09-14T07:14:29.000Z</time>
      </trkpt>
      <trkpt lat="45.10285" lon="2.83371">
        <ele>1060</ele>
        <time>2021-09-14T07:14:40.000Z</time>
      </trkpt>
      <trkpt lat="45.10292" lon="2.83373">
        <ele>1058</ele>
        <time>2021-09-14T07:14:49.000Z</time>
      </trkpt>
      <trkpt lat="45.10298" lon="2.83376">
        <ele>1056.5</ele>
        <time>2021-09-14T07:15:00.000Z</time>
      </trkpt>
      <trkpt lat="45.103" lon="2.83385">
        <ele>1056.5</ele>
        <time>2021-09-14T07:15:12.000Z</time>
      </trkpt>
      <trkpt lat="45.10297" lon="2.83396">
        <ele>1058</ele>
        <time>2021-09-14T07:15:22.000Z</time>
      </trkpt>
      <trkpt lat="45.10289" lon="2.83406">
        <ele>1060.6</ele>
        <time>2021-09-14T07:15:27.000Z</time>
      </trkpt>
      <trkpt lat="45.10287" lon="2.83416">
        <ele>1061.5</ele>
        <time>2021-09-14T07:15:33.000Z</time>
      </trkpt>
      <trkpt lat="45.10284" lon="2.83431">
        <ele>1062</ele>
        <time>2021-09-14T07:15:39.000Z</time>
      </trkpt>
      <trkpt lat="45.1029" lon="2.83424">
        <ele>1060.8</ele>
        <time>2021-09-14T07:15:47.000Z</time>
      </trkpt>
      <trkpt lat="45.10293" lon="2.83414">
        <ele>1060</ele>
        <time>2021-09-14T07:15:52.000Z</time>
      </trkpt>
      <trkpt lat="45.10301" lon="2.83407">
        <ele>1057.7</ele>
        <time>2021-09-14T07:15:57.000Z</time>
      </trkpt>
      <trkpt lat="45.10306" lon="2.83381">
        <ele>1054.5</ele>
        <time>2021-09-14T07:16:03.000Z</time>
      </trkpt>
      <trkpt lat="45.10315" lon="2.83382">
        <ele>1052</ele>
        <time>2021-09-14T07:16:09.000Z</time>
      </trkpt>
      <trkpt lat="45.10319" lon="2.83363">
        <ele>1049</ele>
        <time>2021-09-14T07:16:15.000Z</time>
      </trkpt>
      <trkpt lat="45.10325" lon="2.83361">
        <ele>1047</ele>
        <time>2021-09-14T07:16:27.000Z</time>
      </trkpt>
      <trkpt lat="45.10332" lon="2.83365">
        <ele>1045.2</ele>
        <time>2021-09-14T07:16:33.000Z</time>
      </trkpt>
      <trkpt lat="45.10335" lon="2.83374">
        <ele>1045.3</ele>
        <time>2021-09-14T07:16:39.000Z</time>
      </trkpt>
      <trkpt lat="45.10341" lon="2.83379">
        <ele>1043.5</ele>
        <time>2021-09-14T07:16:51.000Z</time>
      </trkpt>
      <trkpt lat="45.1035" lon="2.83377">
        <ele>1039.8</ele>
        <time>2021-09-14T07:17:00.000Z</time>
      </trkpt>
      <trkpt lat="45.10357" lon="2.83374">
        <ele>1037</ele>
        <time>2021-09-14T07:17:04.000Z</time>
      </trkpt>
      <trkpt lat="45.10365" lon="2.83373">
        <ele>1034</ele>
        <time>2021-09-14T07:17:09.000Z</time>
      </trkpt>
      <trkpt lat="45.10375" lon="2.8337">
        <ele>1030.3</ele>
        <time>2021-09-14T07:17:14.000Z</time>
      </trkpt>
      <trkpt lat="45.10384" lon="2.83363">
        <ele>1027.2</ele>
        <time>2021-09-14T07:17:21.000Z</time>
      </trkpt>
      <trkpt lat="45.10382" lon="2.83378">
        <ele>1027.5</ele>
        <time>2021-09-14T07:17:35.000Z</time>
      </trkpt>
      <trkpt lat="45.10389" lon="2.83374">
        <ele>1025</ele>
        <time>2021-09-14T07:18:02.000Z</time>
      </trkpt>
      <trkpt lat="45.10395" lon="2.83378">
        <ele>1022.5</ele>
        <time>2021-09-14T07:18:12.000Z</time>
      </trkpt>
      <trkpt lat="45.10393" lon="2.83394">
        <ele>1022.3</ele>
        <time>2021-09-14T07:18:31.000Z</time>
      </trkpt>
      <trkpt lat="45.10398" lon="2.83386">
        <ele>1020.7</ele>
        <time>2021-09-14T07:18:59.000Z</time>
      </trkpt>
      <trkpt lat="45.10397" lon="2.83376">
        <ele>1021.9</ele>
        <time>2021-09-14T07:19:06.000Z</time>
      </trkpt>
      <trkpt lat="45.10402" lon="2.83369">
        <ele>1020.6</ele>
        <time>2021-09-14T07:19:11.000Z</time>
      </trkpt>
      <trkpt lat="45.10406" lon="2.83361">
        <ele>1019.9</ele>
        <time>2021-09-14T07:19:17.000Z</time>
      </trkpt>
      <trkpt lat="45.10412" lon="2.83353">
        <ele>1018.9</ele>
        <time>2021-09-14T07:19:23.000Z</time>
      </trkpt>
      <trkpt lat="45.10417" lon="2.83347">
        <ele>1018</ele>
        <time>2021-09-14T07:19:29.000Z</time>
      </trkpt>
      <trkpt lat="45.10421" lon="2.83339">
        <ele>1017.1</ele>
        <time>2021-09-14T07:19:38.000Z</time>
      </trkpt>
      <trkpt lat="45.10425" lon="2.83331">
        <ele>1016.6</ele>
        <time>2021-09-14T07:19:45.000Z</time>
      </trkpt>
      <trkpt lat="45.10429" lon="2.83323">
        <ele>1017</ele>
        <time>2021-09-14T07:19:50.000Z</time>
      </trkpt>
      <trkpt lat="45.10432" lon="2.83315">
        <ele>1017.8</ele>
        <time>2021-09-14T07:20:14.000Z</time>
      </trkpt>
      <trkpt lat="45.10429" lon="2.83306">
        <ele>1021.9</ele>
        <time>2021-09-14T07:20:30.000Z</time>
      </trkpt>
      <trkpt lat="45.10427" lon="2.83296">
        <ele>1025.9</ele>
        <time>2021-09-14T07:20:38.000Z</time>
      </trkpt>
      <trkpt lat="45.10432" lon="2.83288">
        <ele>1025.7</ele>
        <time>2021-09-14T07:20:41.000Z</time>
      </trkpt>
      <trkpt lat="45.10438" lon="2.83289">
        <ele>1022.3</ele>
        <time>2021-09-14T07:21:13.000Z</time>
      </trkpt>
      <trkpt lat="45.10445" lon="2.83288">
        <ele>1018.9</ele>
        <time>2021-09-14T07:21:36.000Z</time>
      </trkpt>
      <trkpt lat="45.10449" lon="2.8328">
        <ele>1019.1</ele>
        <time>2021-09-14T07:21:52.000Z</time>
      </trkpt>
      <trkpt lat="45.10457" lon="2.83278">
        <ele>1015.5</ele>
        <time>2021-09-14T07:21:58.000Z</time>
      </trkpt>
      <trkpt lat="45.10464" lon="2.8328">
        <ele>1011.3</ele>
        <time>2021-09-14T07:22:02.000Z</time>
      </trkpt>
      <trkpt lat="45.10471" lon="2.83281">
        <ele>1007.3</ele>
        <time>2021-09-14T07:22:07.000Z</time>
      </trkpt>
      <trkpt lat="45.10477" lon="2.83285">
        <ele>1003.1</ele>
        <time>2021-09-14T07:22:12.000Z</time>
      </trkpt>
      <trkpt lat="45.10484" lon="2.83286">
        <ele>999.2</ele>
        <time>2021-09-14T07:22:17.000Z</time>
      </trkpt>
      <trkpt lat="45.10491" lon="2.83284">
        <ele>996.1</ele>
        <time>2021-09-14T07:22:23.000Z</time>
      </trkpt>
      <trkpt lat="45.10498" lon="2.83286">
        <ele>992</ele>
        <time>2021-09-14T07:22:47.000Z</time>
      </trkpt>
      <trkpt lat="45.10504" lon="2.8328">
        <ele>990.8</ele>
        <time>2021-09-14T07:22:53.000Z</time>
      </trkpt>
      <trkpt lat="45.10509" lon="2.83271">
        <ele>991</ele>
        <time>2021-09-14T07:22:59.000Z</time>
      </trkpt>
      <trkpt lat="45.10514" lon="2.83264">
        <ele>990.6</ele>
        <time>2021-09-14T07:23:04.000Z</time>
      </trkpt>
      <trkpt lat="45.10519" lon="2.83255">
        <ele>990.6</ele>
        <time>2021-09-14T07:23:10.000Z</time>
      </trkpt>
      <trkpt lat="45.10517" lon="2.83245">
        <ele>994.1</ele>
        <time>2021-09-14T07:23:19.000Z</time>
      </trkpt>
      <trkpt lat="45.10516" lon="2.83234">
        <ele>997.7</ele>
        <time>2021-09-14T07:23:25.000Z</time>
      </trkpt>
      <trkpt lat="45.10518" lon="2.83224">
        <ele>999.8</ele>
        <time>2021-09-14T07:23:28.000Z</time>
      </trkpt>
      <trkpt lat="45.10519" lon="2.83212">
        <ele>1002.9</ele>
        <time>2021-09-14T07:23:33.000Z</time>
      </trkpt>
      <trkpt lat="45.10526" lon="2.83203">
        <ele>1002.8</ele>
        <time>2021-09-14T07:23:39.000Z</time>
      </trkpt>
      <trkpt lat="45.10533" lon="2.83201">
        <ele>1000.7</ele>
        <time>2021-09-14T07:23:47.000Z</time>
      </trkpt>
      <trkpt lat="45.1054" lon="2.83199">
        <ele>998.6</ele>
        <time>2021-09-14T07:23:54.000Z</time>
      </trkpt>
      <trkpt lat="45.10547" lon="2.83199">
        <ele>995.8</ele>
        <time>2021-09-14T07:24:01.000Z</time>
      </trkpt>
      <trkpt lat="45.1055" lon="2.83209">
        <ele>991.5</ele>
        <time>2021-09-14T07:24:06.000Z</time>
      </trkpt>
      <trkpt lat="45.10552" lon="2.8322">
        <ele>987.2</ele>
        <time>2021-09-14T07:24:13.000Z</time>
      </trkpt>
      <trkpt lat="45.10556" lon="2.83229">
        <ele>982.6</ele>
        <time>2021-09-14T07:24:19.000Z</time>
      </trkpt>
      <trkpt lat="45.1056" lon="2.83238">
        <ele>978</ele>
        <time>2021-09-14T07:24:23.000Z</time>
      </trkpt>
      <trkpt lat="45.10571" lon="2.83248">
        <ele>970</ele>
        <time>2021-09-14T07:24:27.000Z</time>
      </trkpt>
      <trkpt lat="45.10571" lon="2.83269">
        <ele>965.5</ele>
        <time>2021-09-14T07:24:33.000Z</time>
      </trkpt>
      <trkpt lat="45.1058" lon="2.83275">
        <ele>960.6</ele>
        <time>2021-09-14T07:24:39.000Z</time>
      </trkpt>
      <trkpt lat="45.10578" lon="2.83284">
        <ele>959.6</ele>
        <time>2021-09-14T07:24:48.000Z</time>
      </trkpt>
      <trkpt lat="45.10573" lon="2.83292">
        <ele>960.1</ele>
        <time>2021-09-14T07:24:54.000Z</time>
      </trkpt>
      <trkpt lat="45.10567" lon="2.83311">
        <ele>958.6</ele>
        <time>2021-09-14T07:24:57.000Z</time>
      </trkpt>
      <trkpt lat="45.10558" lon="2.83336">
        <ele>957.1</ele>
        <time>2021-09-14T07:25:03.000Z</time>
      </trkpt>
      <trkpt lat="45.10554" lon="2.83346">
        <ele>957.3</ele>
        <time>2021-09-14T07:25:09.000Z</time>
      </trkpt>
      <trkpt lat="45.1055" lon="2.83354">
        <ele>957.8</ele>
        <time>2021-09-14T07:25:17.000Z</time>
      </trkpt>
      <trkpt lat="45.10547" lon="2.83363">
        <ele>957.8</ele>
        <time>2021-09-14T07:25:22.000Z</time>
      </trkpt>
      <trkpt lat="45.10546" lon="2.83372">
        <ele>957.1</ele>
        <time>2021-09-14T07:25:30.000Z</time>
      </trkpt>
      <trkpt lat="45.10544" lon="2.83382">
        <ele>956.7</ele>
        <time>2021-09-14T07:25:34.000Z</time>
      </trkpt>
      <trkpt lat="45.10545" lon="2.83402">
        <ele>953.8</ele>
        <time>2021-09-14T07:25:39.000Z</time>
      </trkpt>
      <trkpt lat="45.10549" lon="2.83419">
        <ele>950.2</ele>
        <time>2021-09-14T07:25:45.000Z</time>
      </trkpt>
      <trkpt lat="45.10557" lon="2.83422">
        <ele>946.4</ele>
        <time>2021-09-14T07:25:51.000Z</time>
      </trkpt>
      <trkpt lat="45.10564" lon="2.83421">
        <ele>943.3</ele>
        <time>2021-09-14T07:25:57.000Z</time>
      </trkpt>
      <trkpt lat="45.1057" lon="2.83416">
        <ele>941</ele>
        <time>2021-09-14T07:26:03.000Z</time>
      </trkpt>
      <trkpt lat="45.10575" lon="2.8341">
        <ele>939.7</ele>
        <time>2021-09-14T07:26:23.000Z</time>
      </trkpt>
      <trkpt lat="45.1058" lon="2.83404">
        <ele>938.4</ele>
        <time>2021-09-14T07:26:29.000Z</time>
      </trkpt>
      <trkpt lat="45.10587" lon="2.83399">
        <ele>937</ele>
        <time>2021-09-14T07:26:34.000Z</time>
      </trkpt>
      <trkpt lat="45.10593" lon="2.83392">
        <ele>936.9</ele>
        <time>2021-09-14T07:26:39.000Z</time>
      </trkpt>
      <trkpt lat="45.106" lon="2.83387">
        <ele>936.3</ele>
        <time>2021-09-14T07:26:45.000Z</time>
      </trkpt>
      <trkpt lat="45.10605" lon="2.83381">
        <ele>936.2</ele>
        <time>2021-09-14T07:27:10.000Z</time>
      </trkpt>
      <trkpt lat="45.1061" lon="2.83375">
        <ele>936.1</ele>
        <time>2021-09-14T07:27:21.000Z</time>
      </trkpt>
      <trkpt lat="45.10617" lon="2.83374">
        <ele>934.8</ele>
        <time>2021-09-14T07:27:27.000Z</time>
      </trkpt>
      <trkpt lat="45.10626" lon="2.83373">
        <ele>933.1</ele>
        <time>2021-09-14T07:27:33.000Z</time>
      </trkpt>
      <trkpt lat="45.10633" lon="2.83371">
        <ele>931.9</ele>
        <time>2021-09-14T07:27:40.000Z</time>
      </trkpt>
      <trkpt lat="45.10638" lon="2.83365">
        <ele>931.8</ele>
        <time>2021-09-14T07:27:45.000Z</time>
      </trkpt>
      <trkpt lat="45.10647" lon="2.83362">
        <ele>930.3</ele>
        <time>2021-09-14T07:27:51.000Z</time>
      </trkpt>
      <trkpt lat="45.10654" lon="2.8336">
        <ele>929.1</ele>
        <time>2021-09-14T07:27:57.000Z</time>
      </trkpt>
      <trkpt lat="45.10664" lon="2.83359">
        <ele>927.2</ele>
        <time>2021-09-14T07:29:08.000Z</time>
      </trkpt>
      <trkpt lat="45.10659" lon="2.83367">
        <ele>927.1</ele>
        <time>2021-09-14T07:29:22.000Z</time>
      </trkpt>
      <trkpt lat="45.10658" lon="2.83377">
        <ele>926</ele>
        <time>2021-09-14T07:29:27.000Z</time>
      </trkpt>
      <trkpt lat="45.10657" lon="2.83387">
        <ele>924.9</ele>
        <time>2021-09-14T07:29:33.000Z</time>
      </trkpt>
      <trkpt lat="45.10654" lon="2.83396">
        <ele>924.2</ele>
        <time>2021-09-14T07:29:41.000Z</time>
      </trkpt>
      <trkpt lat="45.10651" lon="2.83405">
        <ele>923.6</ele>
        <time>2021-09-14T07:29:46.000Z</time>
      </trkpt>
      <trkpt lat="45.10648" lon="2.83416">
        <ele>922.7</ele>
        <time>2021-09-14T07:29:51.000Z</time>
      </trkpt>
      <trkpt lat="45.10644" lon="2.83431">
        <ele>922.1</ele>
        <time>2021-09-14T07:29:57.000Z</time>
      </trkpt>
      <trkpt lat="45.10639" lon="2.83442">
        <ele>922.2</ele>
        <time>2021-09-14T07:30:03.000Z</time>
      </trkpt>
      <trkpt lat="45.10635" lon="2.8345">
        <ele>922.3</ele>
        <time>2021-09-14T07:30:09.000Z</time>
      </trkpt>
      <trkpt lat="45.10631" lon="2.83461">
        <ele>922.1</ele>
        <time>2021-09-14T07:30:15.000Z</time>
      </trkpt>
      <trkpt lat="45.10625" lon="2.83466">
        <ele>922.9</ele>
        <time>2021-09-14T07:30:22.000Z</time>
      </trkpt>
      <trkpt lat="45.10619" lon="2.83471">
        <ele>923.6</ele>
        <time>2021-09-14T07:30:34.000Z</time>
      </trkpt>
      <trkpt lat="45.10613" lon="2.83477">
        <ele>924.2</ele>
        <time>2021-09-14T07:30:39.000Z</time>
      </trkpt>
      <trkpt lat="45.10608" lon="2.83486">
        <ele>924.4</ele>
        <time>2021-09-14T07:30:47.000Z</time>
      </trkpt>
      <trkpt lat="45.10605" lon="2.83494">
        <ele>924.3</ele>
        <time>2021-09-14T07:30:54.000Z</time>
      </trkpt>
      <trkpt lat="45.10608" lon="2.83502">
        <ele>923.3</ele>
        <time>2021-09-14T07:30:59.000Z</time>
      </trkpt>
      <trkpt lat="45.10612" lon="2.83512">
        <ele>922.7</ele>
        <time>2021-09-14T07:31:04.000Z</time>
      </trkpt>
      <trkpt lat="45.10612" lon="2.83522">
        <ele>922.9</ele>
        <time>2021-09-14T07:31:10.000Z</time>
      </trkpt>
      <trkpt lat="45.1061" lon="2.83532">
        <ele>923.5</ele>
        <time>2021-09-14T07:31:43.000Z</time>
      </trkpt>
      <trkpt lat="45.10615" lon="2.83538">
        <ele>922.6</ele>
        <time>2021-09-14T07:31:57.000Z</time>
      </trkpt>
      <trkpt lat="45.10614" lon="2.83548">
        <ele>923</ele>
        <time>2021-09-14T07:32:03.000Z</time>
      </trkpt>
      <trkpt lat="45.10613" lon="2.83558">
        <ele>923.4</ele>
        <time>2021-09-14T07:32:09.000Z</time>
      </trkpt>
      <trkpt lat="45.10615" lon="2.83567">
        <ele>923.1</ele>
        <time>2021-09-14T07:32:15.000Z</time>
      </trkpt>
      <trkpt lat="45.10617" lon="2.83576">
        <ele>922.8</ele>
        <time>2021-09-14T07:32:23.000Z</time>
      </trkpt>
      <trkpt lat="45.10618" lon="2.83585">
        <ele>922.6</ele>
        <time>2021-09-14T07:32:29.000Z</time>
      </trkpt>
      <trkpt lat="45.10619" lon="2.83596">
        <ele>921.7</ele>
        <time>2021-09-14T07:32:34.000Z</time>
      </trkpt>
      <trkpt lat="45.10621" lon="2.83605">
        <ele>920.7</ele>
        <time>2021-09-14T07:32:39.000Z</time>
      </trkpt>
      <trkpt lat="45.10622" lon="2.83616">
        <ele>919.8</ele>
        <time>2021-09-14T07:32:45.000Z</time>
      </trkpt>
      <trkpt lat="45.10622" lon="2.83626">
        <ele>919.2</ele>
        <time>2021-09-14T07:32:51.000Z</time>
      </trkpt>
      <trkpt lat="45.1062" lon="2.83648">
        <ele>918.3</ele>
        <time>2021-09-14T07:32:57.000Z</time>
      </trkpt>
      <trkpt lat="45.10618" lon="2.83658">
        <ele>918.2</ele>
        <time>2021-09-14T07:33:04.000Z</time>
      </trkpt>
      <trkpt lat="45.10616" lon="2.83668">
        <ele>918</ele>
        <time>2021-09-14T07:33:11.000Z</time>
      </trkpt>
      <trkpt lat="45.10615" lon="2.83678">
        <ele>917.1</ele>
        <time>2021-09-14T07:33:17.000Z</time>
      </trkpt>
      <trkpt lat="45.10614" lon="2.83688">
        <ele>916.2</ele>
        <time>2021-09-14T07:33:23.000Z</time>
      </trkpt>
      <trkpt lat="45.10614" lon="2.83697">
        <ele>915.2</ele>
        <time>2021-09-14T07:33:30.000Z</time>
      </trkpt>
      <trkpt lat="45.10612" lon="2.83707">
        <ele>914.5</ele>
        <time>2021-09-14T07:33:34.000Z</time>
      </trkpt>
      <trkpt lat="45.1061" lon="2.8372">
        <ele>913.4</ele>
        <time>2021-09-14T07:33:39.000Z</time>
      </trkpt>
      <trkpt lat="45.10609" lon="2.83733">
        <ele>912</ele>
        <time>2021-09-14T07:33:45.000Z</time>
      </trkpt>
      <trkpt lat="45.1061" lon="2.83745">
        <ele>910.4</ele>
        <time>2021-09-14T07:33:51.000Z</time>
      </trkpt>
      <trkpt lat="45.10607" lon="2.83755">
        <ele>909.8</ele>
        <time>2021-09-14T07:34:07.000Z</time>
      </trkpt>
      <trkpt lat="45.10609" lon="2.83764">
        <ele>908.5</ele>
        <time>2021-09-14T07:34:15.000Z</time>
      </trkpt>
      <trkpt lat="45.10612" lon="2.83775">
        <ele>907</ele>
        <time>2021-09-14T07:34:21.000Z</time>
      </trkpt>
      <trkpt lat="45.10614" lon="2.83788">
        <ele>905.4</ele>
        <time>2021-09-14T07:34:27.000Z</time>
      </trkpt>
      <trkpt lat="45.10617" lon="2.838">
        <ele>903.8</ele>
        <time>2021-09-14T07:34:33.000Z</time>
      </trkpt>
      <trkpt lat="45.1062" lon="2.8381">
        <ele>902.6</ele>
        <time>2021-09-14T07:34:39.000Z</time>
      </trkpt>
      <trkpt lat="45.10621" lon="2.8382">
        <ele>901.5</ele>
        <time>2021-09-14T07:34:46.000Z</time>
      </trkpt>
      <trkpt lat="45.10624" lon="2.83829">
        <ele>900.5</ele>
        <time>2021-09-14T07:34:51.000Z</time>
      </trkpt>
      <trkpt lat="45.10626" lon="2.83843">
        <ele>899.5</ele>
        <time>2021-09-14T07:34:57.000Z</time>
      </trkpt>
      <trkpt lat="45.10629" lon="2.83854">
        <ele>898.9</ele>
        <time>2021-09-14T07:35:03.000Z</time>
      </trkpt>
      <trkpt lat="45.1063" lon="2.83866">
        <ele>898.3</ele>
        <time>2021-09-14T07:35:09.000Z</time>
      </trkpt>
      <trkpt lat="45.10633" lon="2.83877">
        <ele>897.7</ele>
        <time>2021-09-14T07:35:15.000Z</time>
      </trkpt>
      <trkpt lat="45.10631" lon="2.83893">
        <ele>897.2</ele>
        <time>2021-09-14T07:35:21.000Z</time>
      </trkpt>
      <trkpt lat="45.10632" lon="2.83904">
        <ele>896.7</ele>
        <time>2021-09-14T07:35:27.000Z</time>
      </trkpt>
      <trkpt lat="45.10632" lon="2.83913">
        <ele>896.4</ele>
        <time>2021-09-14T07:35:38.000Z</time>
      </trkpt>
      <trkpt lat="45.10626" lon="2.83919">
        <ele>896.4</ele>
        <time>2021-09-14T07:35:57.000Z</time>
      </trkpt>
      <trkpt lat="45.10621" lon="2.83929">
        <ele>896.3</ele>
        <time>2021-09-14T07:36:03.000Z</time>
      </trkpt>
      <trkpt lat="45.10615" lon="2.83938">
        <ele>896.3</ele>
        <time>2021-09-14T07:36:09.000Z</time>
      </trkpt>
      <trkpt lat="45.1061" lon="2.83948">
        <ele>896.2</ele>
        <time>2021-09-14T07:36:15.000Z</time>
      </trkpt>
      <trkpt lat="45.10604" lon="2.83955">
        <ele>896.2</ele>
        <time>2021-09-14T07:36:21.000Z</time>
      </trkpt>
      <trkpt lat="45.10599" lon="2.83962">
        <ele>896.2</ele>
        <time>2021-09-14T07:36:27.000Z</time>
      </trkpt>
      <trkpt lat="45.10593" lon="2.83968">
        <ele>896.3</ele>
        <time>2021-09-14T07:36:33.000Z</time>
      </trkpt>
      <trkpt lat="45.10589" lon="2.83976">
        <ele>896.3</ele>
        <time>2021-09-14T07:36:39.000Z</time>
      </trkpt>
      <trkpt lat="45.10584" lon="2.83982">
        <ele>896.4</ele>
        <time>2021-09-14T07:36:46.000Z</time>
      </trkpt>
      <trkpt lat="45.1058" lon="2.83992">
        <ele>896.9</ele>
        <time>2021-09-14T07:36:59.000Z</time>
      </trkpt>
      <trkpt lat="45.10577" lon="2.84002">
        <ele>897.3</ele>
        <time>2021-09-14T07:37:04.000Z</time>
      </trkpt>
      <trkpt lat="45.10573" lon="2.84011">
        <ele>897.9</ele>
        <time>2021-09-14T07:37:09.000Z</time>
      </trkpt>
      <trkpt lat="45.10571" lon="2.84021">
        <ele>898.2</ele>
        <time>2021-09-14T07:37:15.000Z</time>
      </trkpt>
      <trkpt lat="45.10569" lon="2.8403">
        <ele>898.4</ele>
        <time>2021-09-14T07:37:32.000Z</time>
      </trkpt>
      <trkpt lat="45.10565" lon="2.8404">
        <ele>898.9</ele>
        <time>2021-09-14T07:37:37.000Z</time>
      </trkpt>
      <trkpt lat="45.10561" lon="2.84049">
        <ele>899.5</ele>
        <time>2021-09-14T07:37:42.000Z</time>
      </trkpt>
      <trkpt lat="45.10558" lon="2.84058">
        <ele>899.8</ele>
        <time>2021-09-14T07:37:46.000Z</time>
      </trkpt>
      <trkpt lat="45.10554" lon="2.84068">
        <ele>900.3</ele>
        <time>2021-09-14T07:37:51.000Z</time>
      </trkpt>
      <trkpt lat="45.1055" lon="2.84081">
        <ele>900.7</ele>
        <time>2021-09-14T07:37:57.000Z</time>
      </trkpt>
      <trkpt lat="45.10546" lon="2.84092">
        <ele>900.9</ele>
        <time>2021-09-14T07:38:03.000Z</time>
      </trkpt>
      <trkpt lat="45.10542" lon="2.84104">
        <ele>901</ele>
        <time>2021-09-14T07:38:09.000Z</time>
      </trkpt>
      <trkpt lat="45.10537" lon="2.84115">
        <ele>901.2</ele>
        <time>2021-09-14T07:38:15.000Z</time>
      </trkpt>
      <trkpt lat="45.10533" lon="2.84127">
        <ele>901.1</ele>
        <time>2021-09-14T07:38:21.000Z</time>
      </trkpt>
      <trkpt lat="45.10529" lon="2.84138">
        <ele>901.1</ele>
        <time>2021-09-14T07:38:27.000Z</time>
      </trkpt>
      <trkpt lat="45.10525" lon="2.84148">
        <ele>901.1</ele>
        <time>2021-09-14T07:38:33.000Z</time>
      </trkpt>
      <trkpt lat="45.10521" lon="2.84158">
        <ele>901</ele>
        <time>2021-09-14T07:38:39.000Z</time>
      </trkpt>
      <trkpt lat="45.10518" lon="2.84168">
        <ele>900.8</ele>
        <time>2021-09-14T07:38:45.000Z</time>
      </trkpt>
      <trkpt lat="45.10514" lon="2.84179">
        <ele>900.9</ele>
        <time>2021-09-14T07:38:51.000Z</time>
      </trkpt>
      <trkpt lat="45.10508" lon="2.84187">
        <ele>901.2</ele>
        <time>2021-09-14T07:38:57.000Z</time>
      </trkpt>
      <trkpt lat="45.10502" lon="2.84195">
        <ele>901.4</ele>
        <time>2021-09-14T07:39:03.000Z</time>
      </trkpt>
      <trkpt lat="45.10498" lon="2.84203">
        <ele>901.6</ele>
        <time>2021-09-14T07:39:09.000Z</time>
      </trkpt>
      <trkpt lat="45.10493" lon="2.8421">
        <ele>902.2</ele>
        <time>2021-09-14T07:39:17.000Z</time>
      </trkpt>
      <trkpt lat="45.10487" lon="2.84217">
        <ele>903</ele>
        <time>2021-09-14T07:39:24.000Z</time>
      </trkpt>
      <trkpt lat="45.10482" lon="2.84224">
        <ele>903.5</ele>
        <time>2021-09-14T07:39:29.000Z</time>
      </trkpt>
      <trkpt lat="45.10478" lon="2.84231">
        <ele>903.8</ele>
        <time>2021-09-14T07:39:34.000Z</time>
      </trkpt>
      <trkpt lat="45.10472" lon="2.84238">
        <ele>904.4</ele>
        <time>2021-09-14T07:39:40.000Z</time>
      </trkpt>
      <trkpt lat="45.10467" lon="2.84245">
        <ele>904.9</ele>
        <time>2021-09-14T07:39:45.000Z</time>
      </trkpt>
      <trkpt lat="45.10462" lon="2.84252">
        <ele>905.4</ele>
        <time>2021-09-14T07:39:51.000Z</time>
      </trkpt>
      <trkpt lat="45.10456" lon="2.84259">
        <ele>906.3</ele>
        <time>2021-09-14T07:39:57.000Z</time>
      </trkpt>
      <trkpt lat="45.10452" lon="2.84266">
        <ele>906.9</ele>
        <time>2021-09-14T07:40:04.000Z</time>
      </trkpt>
      <trkpt lat="45.10448" lon="2.84274">
        <ele>907.4</ele>
        <time>2021-09-14T07:40:09.000Z</time>
      </trkpt>
      <trkpt lat="45.10445" lon="2.84284">
        <ele>907.7</ele>
        <time>2021-09-14T07:40:15.000Z</time>
      </trkpt>
      <trkpt lat="45.10443" lon="2.84293">
        <ele>907.8</ele>
        <time>2021-09-14T07:40:21.000Z</time>
      </trkpt>
      <trkpt lat="45.10444" lon="2.84304">
        <ele>907.5</ele>
        <time>2021-09-14T07:40:29.000Z</time>
      </trkpt>
      <trkpt lat="45.10445" lon="2.84313">
        <ele>907.3</ele>
        <time>2021-09-14T07:40:35.000Z</time>
      </trkpt>
      <trkpt lat="45.10444" lon="2.84322">
        <ele>907.2</ele>
        <time>2021-09-14T07:40:40.000Z</time>
      </trkpt>
      <trkpt lat="45.1044" lon="2.84331">
        <ele>907.5</ele>
        <time>2021-09-14T07:40:45.000Z</time>
      </trkpt>
      <trkpt lat="45.10435" lon="2.8434">
        <ele>908</ele>
        <time>2021-09-14T07:40:51.000Z</time>
      </trkpt>
      <trkpt lat="45.10429" lon="2.84343">
        <ele>908.6</ele>
        <time>2021-09-14T07:40:58.000Z</time>
      </trkpt>
      <trkpt lat="45.10422" lon="2.84347">
        <ele>909.4</ele>
        <time>2021-09-14T07:41:03.000Z</time>
      </trkpt>
      <trkpt lat="45.10416" lon="2.84351">
        <ele>910.1</ele>
        <time>2021-09-14T07:41:10.000Z</time>
      </trkpt>
      <trkpt lat="45.1041" lon="2.84357">
        <ele>911.5</ele>
        <time>2021-09-14T07:41:17.000Z</time>
      </trkpt>
      <trkpt lat="45.10404" lon="2.84362">
        <ele>912.7</ele>
        <time>2021-09-14T07:41:23.000Z</time>
      </trkpt>
      <trkpt lat="45.10397" lon="2.84366">
        <ele>914.2</ele>
        <time>2021-09-14T07:41:29.000Z</time>
      </trkpt>
      <trkpt lat="45.10391" lon="2.84371">
        <ele>915.4</ele>
        <time>2021-09-14T07:41:35.000Z</time>
      </trkpt>
      <trkpt lat="45.10385" lon="2.84376">
        <ele>916.6</ele>
        <time>2021-09-14T07:41:41.000Z</time>
      </trkpt>
      <trkpt lat="45.10379" lon="2.84381">
        <ele>917.8</ele>
        <time>2021-09-14T07:41:47.000Z</time>
      </trkpt>
      <trkpt lat="45.10373" lon="2.84387">
        <ele>918.9</ele>
        <time>2021-09-14T07:41:53.000Z</time>
      </trkpt>
      <trkpt lat="45.10368" lon="2.84393">
        <ele>919.8</ele>
        <time>2021-09-14T07:41:59.000Z</time>
      </trkpt>
      <trkpt lat="45.10362" lon="2.84399">
        <ele>920.9</ele>
        <time>2021-09-14T07:42:06.000Z</time>
      </trkpt>
      <trkpt lat="45.10355" lon="2.84402">
        <ele>922.2</ele>
        <time>2021-09-14T07:42:12.000Z</time>
      </trkpt>
      <trkpt lat="45.10348" lon="2.84406">
        <ele>923.5</ele>
        <time>2021-09-14T07:42:20.000Z</time>
      </trkpt>
      <trkpt lat="45.10343" lon="2.84413">
        <ele>924.3</ele>
        <time>2021-09-14T07:42:25.000Z</time>
      </trkpt>
      <trkpt lat="45.10339" lon="2.84421">
        <ele>924.6</ele>
        <time>2021-09-14T07:42:31.000Z</time>
      </trkpt>
      <trkpt lat="45.10336" lon="2.84432">
        <ele>924.4</ele>
        <time>2021-09-14T07:42:37.000Z</time>
      </trkpt>
      <trkpt lat="45.10336" lon="2.84442">
        <ele>923.7</ele>
        <time>2021-09-14T07:42:42.000Z</time>
      </trkpt>
      <trkpt lat="45.10334" lon="2.84453">
        <ele>923.3</ele>
        <time>2021-09-14T07:42:47.000Z</time>
      </trkpt>
      <trkpt lat="45.1033" lon="2.84462">
        <ele>923.9</ele>
        <time>2021-09-14T07:42:52.000Z</time>
      </trkpt>
      <trkpt lat="45.10327" lon="2.8447">
        <ele>924.4</ele>
        <time>2021-09-14T07:42:58.000Z</time>
      </trkpt>
      <trkpt lat="45.10324" lon="2.8448">
        <ele>924.7</ele>
        <time>2021-09-14T07:43:03.000Z</time>
      </trkpt>
      <trkpt lat="45.10322" lon="2.84489">
        <ele>924.7</ele>
        <time>2021-09-14T07:43:08.000Z</time>
      </trkpt>
      <trkpt lat="45.1032" lon="2.84498">
        <ele>924.6</ele>
        <time>2021-09-14T07:43:14.000Z</time>
      </trkpt>
      <trkpt lat="45.10315" lon="2.84508">
        <ele>925.1</ele>
        <time>2021-09-14T07:43:19.000Z</time>
      </trkpt>
      <trkpt lat="45.1031" lon="2.84517">
        <ele>925.6</ele>
        <time>2021-09-14T07:43:25.000Z</time>
      </trkpt>
      <trkpt lat="45.10308" lon="2.84529">
        <ele>924.6</ele>
        <time>2021-09-14T07:43:31.000Z</time>
      </trkpt>
      <trkpt lat="45.10306" lon="2.84539">
        <ele>923.9</ele>
        <time>2021-09-14T07:43:37.000Z</time>
      </trkpt>
      <trkpt lat="45.10305" lon="2.84551">
        <ele>922.6</ele>
        <time>2021-09-14T07:43:43.000Z</time>
      </trkpt>
      <trkpt lat="45.10302" lon="2.84562">
        <ele>922</ele>
        <time>2021-09-14T07:43:49.000Z</time>
      </trkpt>
      <trkpt lat="45.10299" lon="2.84572">
        <ele>921.5</ele>
        <time>2021-09-14T07:43:55.000Z</time>
      </trkpt>
      <trkpt lat="45.10295" lon="2.84582">
        <ele>921.2</ele>
        <time>2021-09-14T07:44:01.000Z</time>
      </trkpt>
      <trkpt lat="45.10292" lon="2.84593">
        <ele>920.7</ele>
        <time>2021-09-14T07:44:07.000Z</time>
      </trkpt>
      <trkpt lat="45.10289" lon="2.84605">
        <ele>920</ele>
        <time>2021-09-14T07:44:13.000Z</time>
      </trkpt>
      <trkpt lat="45.10287" lon="2.84616">
        <ele>919.1</ele>
        <time>2021-09-14T07:44:19.000Z</time>
      </trkpt>
      <trkpt lat="45.10285" lon="2.84626">
        <ele>918.3</ele>
        <time>2021-09-14T07:44:25.000Z</time>
      </trkpt>
      <trkpt lat="45.10282" lon="2.84637">
        <ele>917.6</ele>
        <time>2021-09-14T07:44:31.000Z</time>
      </trkpt>
      <trkpt lat="45.1028" lon="2.84649">
        <ele>916.5</ele>
        <time>2021-09-14T07:44:37.000Z</time>
      </trkpt>
      <trkpt lat="45.10278" lon="2.84661">
        <ele>915.4</ele>
        <time>2021-09-14T07:44:43.000Z</time>
      </trkpt>
      <trkpt lat="45.10276" lon="2.84673">
        <ele>914.8</ele>
        <time>2021-09-14T07:44:49.000Z</time>
      </trkpt>
      <trkpt lat="45.10275" lon="2.84686">
        <ele>914.4</ele>
        <time>2021-09-14T07:44:55.000Z</time>
      </trkpt>
      <trkpt lat="45.10274" lon="2.84698">
        <ele>914.1</ele>
        <time>2021-09-14T07:45:01.000Z</time>
      </trkpt>
      <trkpt lat="45.10272" lon="2.84709">
        <ele>914.1</ele>
        <time>2021-09-14T07:45:07.000Z</time>
      </trkpt>
      <trkpt lat="45.10269" lon="2.8472">
        <ele>914.3</ele>
        <time>2021-09-14T07:45:13.000Z</time>
      </trkpt>
      <trkpt lat="45.10267" lon="2.84731">
        <ele>914.3</ele>
        <time>2021-09-14T07:45:19.000Z</time>
      </trkpt>
      <trkpt lat="45.10265" lon="2.84741">
        <ele>914.4</ele>
        <time>2021-09-14T07:45:25.000Z</time>
      </trkpt>
      <trkpt lat="45.10264" lon="2.84751">
        <ele>914.2</ele>
        <time>2021-09-14T07:45:32.000Z</time>
      </trkpt>
      <trkpt lat="45.10263" lon="2.84761">
        <ele>913.6</ele>
        <time>2021-09-14T07:45:38.000Z</time>
      </trkpt>
      <trkpt lat="45.10263" lon="2.84771">
        <ele>912.7</ele>
        <time>2021-09-14T07:45:43.000Z</time>
      </trkpt>
      <trkpt lat="45.10265" lon="2.84784">
        <ele>911</ele>
        <time>2021-09-14T07:45:49.000Z</time>
      </trkpt>
      <trkpt lat="45.10271" lon="2.84792">
        <ele>908.8</ele>
        <time>2021-09-14T07:45:55.000Z</time>
      </trkpt>
      <trkpt lat="45.10277" lon="2.84801">
        <ele>906.6</ele>
        <time>2021-09-14T07:46:01.000Z</time>
      </trkpt>
      <trkpt lat="45.10285" lon="2.84809">
        <ele>904</ele>
        <time>2021-09-14T07:46:07.000Z</time>
      </trkpt>
      <trkpt lat="45.10293" lon="2.84817">
        <ele>901.5</ele>
        <time>2021-09-14T07:46:13.000Z</time>
      </trkpt>
      <trkpt lat="45.103" lon="2.84826">
        <ele>899.1</ele>
        <time>2021-09-14T07:46:19.000Z</time>
      </trkpt>
      <trkpt lat="45.10308" lon="2.84835">
        <ele>896.6</ele>
        <time>2021-09-14T07:46:25.000Z</time>
      </trkpt>
      <trkpt lat="45.10316" lon="2.84844">
        <ele>894.2</ele>
        <time>2021-09-14T07:46:31.000Z</time>
      </trkpt>
      <trkpt lat="45.10323" lon="2.84852">
        <ele>892.4</ele>
        <time>2021-09-14T07:46:37.000Z</time>
      </trkpt>
      <trkpt lat="45.10328" lon="2.84859">
        <ele>891.1</ele>
        <time>2021-09-14T07:46:43.000Z</time>
      </trkpt>
      <trkpt lat="45.10336" lon="2.84863">
        <ele>889.9</ele>
        <time>2021-09-14T07:46:49.000Z</time>
      </trkpt>
      <trkpt lat="45.10347" lon="2.84868">
        <ele>889.8</ele>
        <time>2021-09-14T07:46:55.000Z</time>
      </trkpt>
      <trkpt lat="45.10355" lon="2.84875">
        <ele>889.6</ele>
        <time>2021-09-14T07:47:01.000Z</time>
      </trkpt>
      <trkpt lat="45.10359" lon="2.84884">
        <ele>889.5</ele>
        <time>2021-09-14T07:47:07.000Z</time>
      </trkpt>
      <trkpt lat="45.10364" lon="2.8489">
        <ele>889.5</ele>
        <time>2021-09-14T07:47:13.000Z</time>
      </trkpt>
      <trkpt lat="45.10365" lon="2.849">
        <ele>889.4</ele>
        <time>2021-09-14T07:47:28.000Z</time>
      </trkpt>
      <trkpt lat="45.10369" lon="2.84909">
        <ele>889.4</ele>
        <time>2021-09-14T07:47:35.000Z</time>
      </trkpt>
      <trkpt lat="45.10374" lon="2.84915">
        <ele>889.5</ele>
        <time>2021-09-14T07:47:41.000Z</time>
      </trkpt>
      <trkpt lat="45.10381" lon="2.84917">
        <ele>889.7</ele>
        <time>2021-09-14T07:47:48.000Z</time>
      </trkpt>
      <trkpt lat="45.10385" lon="2.84926">
        <ele>889.8</ele>
        <time>2021-09-14T07:47:54.000Z</time>
      </trkpt>
      <trkpt lat="45.10381" lon="2.84934">
        <ele>889.6</ele>
        <time>2021-09-14T07:48:00.000Z</time>
      </trkpt>
      <trkpt lat="45.10376" lon="2.84942">
        <ele>889.4</ele>
        <time>2021-09-14T07:48:06.000Z</time>
      </trkpt>
      <trkpt lat="45.10373" lon="2.84952">
        <ele>889.2</ele>
        <time>2021-09-14T07:48:11.000Z</time>
      </trkpt>
      <trkpt lat="45.10369" lon="2.84963">
        <ele>889.1</ele>
        <time>2021-09-14T07:48:17.000Z</time>
      </trkpt>
      <trkpt lat="45.10368" lon="2.84972">
        <ele>889.1</ele>
        <time>2021-09-14T07:48:37.000Z</time>
      </trkpt>
      <trkpt lat="45.10364" lon="2.84982">
        <ele>889</ele>
        <time>2021-09-14T07:48:44.000Z</time>
      </trkpt>
      <trkpt lat="45.1036" lon="2.84989">
        <ele>889</ele>
        <time>2021-09-14T07:48:48.000Z</time>
      </trkpt>
      <trkpt lat="45.10355" lon="2.84995">
        <ele>889</ele>
        <time>2021-09-14T07:49:49.000Z</time>
      </trkpt>
      <trkpt lat="45.10352" lon="2.85005">
        <ele>888.9</ele>
        <time>2021-09-14T07:49:54.000Z</time>
      </trkpt>
      <trkpt lat="45.1035" lon="2.85015">
        <ele>888.8</ele>
        <time>2021-09-14T07:49:59.000Z</time>
      </trkpt>
      <trkpt lat="45.10345" lon="2.85024">
        <ele>888.7</ele>
        <time>2021-09-14T07:50:05.000Z</time>
      </trkpt>
      <trkpt lat="45.10343" lon="2.85034">
        <ele>888.6</ele>
        <time>2021-09-14T07:50:11.000Z</time>
      </trkpt>
      <trkpt lat="45.10341" lon="2.85044">
        <ele>888.5</ele>
        <time>2021-09-14T07:50:17.000Z</time>
      </trkpt>
      <trkpt lat="45.10338" lon="2.85055">
        <ele>888.3</ele>
        <time>2021-09-14T07:50:23.000Z</time>
      </trkpt>
      <trkpt lat="45.10336" lon="2.85064">
        <ele>888.2</ele>
        <time>2021-09-14T07:50:31.000Z</time>
      </trkpt>
      <trkpt lat="45.10334" lon="2.85074">
        <ele>888.1</ele>
        <time>2021-09-14T07:50:49.000Z</time>
      </trkpt>
      <trkpt lat="45.10331" lon="2.85082">
        <ele>888</ele>
        <time>2021-09-14T07:50:54.000Z</time>
      </trkpt>
      <trkpt lat="45.10328" lon="2.85091">
        <ele>888.1</ele>
        <time>2021-09-14T07:50:59.000Z</time>
      </trkpt>
      <trkpt lat="45.10324" lon="2.85103">
        <ele>888.1</ele>
        <time>2021-09-14T07:51:05.000Z</time>
      </trkpt>
      <trkpt lat="45.10322" lon="2.85115">
        <ele>888.1</ele>
        <time>2021-09-14T07:51:11.000Z</time>
      </trkpt>
      <trkpt lat="45.10322" lon="2.85126">
        <ele>888.1</ele>
        <time>2021-09-14T07:51:17.000Z</time>
      </trkpt>
      <trkpt lat="45.10323" lon="2.85136">
        <ele>888.1</ele>
        <time>2021-09-14T07:51:23.000Z</time>
      </trkpt>
      <trkpt lat="45.10324" lon="2.85148">
        <ele>888.1</ele>
        <time>2021-09-14T07:51:29.000Z</time>
      </trkpt>
      <trkpt lat="45.10326" lon="2.85157">
        <ele>888.1</ele>
        <time>2021-09-14T07:51:35.000Z</time>
      </trkpt>
      <trkpt lat="45.10328" lon="2.85167">
        <ele>888.1</ele>
        <time>2021-09-14T07:51:41.000Z</time>
      </trkpt>
      <trkpt lat="45.1033" lon="2.85178">
        <ele>888</ele>
        <time>2021-09-14T07:51:47.000Z</time>
      </trkpt>
      <trkpt lat="45.10331" lon="2.85191">
        <ele>888</ele>
        <time>2021-09-14T07:51:53.000Z</time>
      </trkpt>
      <trkpt lat="45.10333" lon="2.85203">
        <ele>888</ele>
        <time>2021-09-14T07:51:59.000Z</time>
      </trkpt>
      <trkpt lat="45.1034" lon="2.8521">
        <ele>888.2</ele>
        <time>2021-09-14T07:52:05.000Z</time>
      </trkpt>
      <trkpt lat="45.10346" lon="2.85218">
        <ele>888.3</ele>
        <time>2021-09-14T07:52:11.000Z</time>
      </trkpt>
      <trkpt lat="45.10352" lon="2.85224">
        <ele>888.5</ele>
        <time>2021-09-14T07:52:17.000Z</time>
      </trkpt>
      <trkpt lat="45.10359" lon="2.85231">
        <ele>888.8</ele>
        <time>2021-09-14T07:52:23.000Z</time>
      </trkpt>
      <trkpt lat="45.10369" lon="2.85238">
        <ele>889.2</ele>
        <time>2021-09-14T07:52:29.000Z</time>
      </trkpt>
      <trkpt lat="45.10375" lon="2.85243">
        <ele>889.4</ele>
        <time>2021-09-14T07:52:35.000Z</time>
      </trkpt>
      <trkpt lat="45.10381" lon="2.85249">
        <ele>889.7</ele>
        <time>2021-09-14T07:52:41.000Z</time>
      </trkpt>
      <trkpt lat="45.10389" lon="2.85253">
        <ele>890</ele>
        <time>2021-09-14T07:52:47.000Z</time>
      </trkpt>
      <trkpt lat="45.10396" lon="2.85258">
        <ele>890.3</ele>
        <time>2021-09-14T07:52:53.000Z</time>
      </trkpt>
      <trkpt lat="45.10402" lon="2.85262">
        <ele>890.5</ele>
        <time>2021-09-14T07:53:26.000Z</time>
      </trkpt>
      <trkpt lat="45.10405" lon="2.8527">
        <ele>890.6</ele>
        <time>2021-09-14T07:53:33.000Z</time>
      </trkpt>
      <trkpt lat="45.10409" lon="2.85278">
        <ele>890.8</ele>
        <time>2021-09-14T07:53:52.000Z</time>
      </trkpt>
      <trkpt lat="45.10411" lon="2.85288">
        <ele>890.8</ele>
        <time>2021-09-14T07:54:00.000Z</time>
      </trkpt>
      <trkpt lat="45.10411" lon="2.85297">
        <ele>890.8</ele>
        <time>2021-09-14T07:54:06.000Z</time>
      </trkpt>
      <trkpt lat="45.10411" lon="2.85307">
        <ele>890.8</ele>
        <time>2021-09-14T07:54:14.000Z</time>
      </trkpt>
      <trkpt lat="45.10412" lon="2.85318">
        <ele>890.9</ele>
        <time>2021-09-14T07:54:20.000Z</time>
      </trkpt>
      <trkpt lat="45.10413" lon="2.85327">
        <ele>890.9</ele>
        <time>2021-09-14T07:54:26.000Z</time>
      </trkpt>
      <trkpt lat="45.10413" lon="2.85336">
        <ele>891</ele>
        <time>2021-09-14T07:54:33.000Z</time>
      </trkpt>
      <trkpt lat="45.10413" lon="2.85348">
        <ele>891.6</ele>
        <time>2021-09-14T07:54:40.000Z</time>
      </trkpt>
      <trkpt lat="45.10414" lon="2.85358">
        <ele>892.1</ele>
        <time>2021-09-14T07:55:49.000Z</time>
      </trkpt>
      <trkpt lat="45.10415" lon="2.85369">
        <ele>892.6</ele>
        <time>2021-09-14T07:56:17.000Z</time>
      </trkpt>
      <trkpt lat="45.10414" lon="2.85379">
        <ele>893</ele>
        <time>2021-09-14T07:56:28.000Z</time>
      </trkpt>
      <trkpt lat="45.10414" lon="2.85389">
        <ele>893.5</ele>
        <time>2021-09-14T07:56:35.000Z</time>
      </trkpt>
      <trkpt lat="45.10418" lon="2.85397">
        <ele>894.3</ele>
        <time>2021-09-14T07:56:44.000Z</time>
      </trkpt>
      <trkpt lat="45.10417" lon="2.85407">
        <ele>894.6</ele>
        <time>2021-09-14T07:56:52.000Z</time>
      </trkpt>
      <trkpt lat="45.1042" lon="2.85414">
        <ele>895.5</ele>
        <time>2021-09-14T07:57:03.000Z</time>
      </trkpt>
      <trkpt lat="45.1042" lon="2.85404">
        <ele>895</ele>
        <time>2021-09-14T07:57:16.000Z</time>
      </trkpt>
      <trkpt lat="45.10423" lon="2.85394">
        <ele>895.1</ele>
        <time>2021-09-14T07:57:21.000Z</time>
      </trkpt>
      <trkpt lat="45.10427" lon="2.85384">
        <ele>895.3</ele>
        <time>2021-09-14T07:57:27.000Z</time>
      </trkpt>
      <trkpt lat="45.10432" lon="2.85375">
        <ele>895.7</ele>
        <time>2021-09-14T07:57:33.000Z</time>
      </trkpt>
      <trkpt lat="45.10438" lon="2.85366">
        <ele>896.1</ele>
        <time>2021-09-14T07:57:39.000Z</time>
      </trkpt>
      <trkpt lat="45.10441" lon="2.85357">
        <ele>896.1</ele>
        <time>2021-09-14T07:57:45.000Z</time>
      </trkpt>
      <trkpt lat="45.10447" lon="2.85354">
        <ele>896.8</ele>
        <time>2021-09-14T07:57:51.000Z</time>
      </trkpt>
      <trkpt lat="45.10453" lon="2.85346">
        <ele>897.2</ele>
        <time>2021-09-14T07:57:57.000Z</time>
      </trkpt>
      <trkpt lat="45.10459" lon="2.85338">
        <ele>897.5</ele>
        <time>2021-09-14T07:58:03.000Z</time>
      </trkpt>
      <trkpt lat="45.10463" lon="2.85327">
        <ele>897.3</ele>
        <time>2021-09-14T07:58:09.000Z</time>
      </trkpt>
      <trkpt lat="45.10463" lon="2.85317">
        <ele>896.8</ele>
        <time>2021-09-14T07:58:15.000Z</time>
      </trkpt>
      <trkpt lat="45.10467" lon="2.85307">
        <ele>896.7</ele>
        <time>2021-09-14T07:58:21.000Z</time>
      </trkpt>
      <trkpt lat="45.1047" lon="2.85298">
        <ele>896.5</ele>
        <time>2021-09-14T07:58:27.000Z</time>
      </trkpt>
      <trkpt lat="45.10477" lon="2.85289">
        <ele>896.6</ele>
        <time>2021-09-14T07:58:33.000Z</time>
      </trkpt>
      <trkpt lat="45.1048" lon="2.8528">
        <ele>896.2</ele>
        <time>2021-09-14T07:58:39.000Z</time>
      </trkpt>
      <trkpt lat="45.10486" lon="2.85272">
        <ele>896.1</ele>
        <time>2021-09-14T07:58:45.000Z</time>
      </trkpt>
      <trkpt lat="45.10492" lon="2.8526">
        <ele>895.5</ele>
        <time>2021-09-14T08:00:07.000Z</time>
      </trkpt>
      <trkpt lat="45.10489" lon="2.8527">
        <ele>896.1</ele>
        <time>2021-09-14T08:00:14.000Z</time>
      </trkpt>
      <trkpt lat="45.10486" lon="2.85278">
        <ele>896.6</ele>
        <time>2021-09-14T08:00:18.000Z</time>
      </trkpt>
      <trkpt lat="45.10482" lon="2.85286">
        <ele>896.8</ele>
        <time>2021-09-14T08:00:22.000Z</time>
      </trkpt>
      <trkpt lat="45.10481" lon="2.85295">
        <ele>897.4</ele>
        <time>2021-09-14T08:00:28.000Z</time>
      </trkpt>
      <trkpt lat="45.10477" lon="2.85305">
        <ele>897.7</ele>
        <time>2021-09-14T08:00:34.000Z</time>
      </trkpt>
      <trkpt lat="45.10472" lon="2.85312">
        <ele>897.6</ele>
        <time>2021-09-14T08:00:39.000Z</time>
      </trkpt>
      <trkpt lat="45.10467" lon="2.85321">
        <ele>897.5</ele>
        <time>2021-09-14T08:00:45.000Z</time>
      </trkpt>
      <trkpt lat="45.10462" lon="2.85328">
        <ele>897.2</ele>
        <time>2021-09-14T08:00:58.000Z</time>
      </trkpt>
      <trkpt lat="45.10458" lon="2.85336">
        <ele>897.2</ele>
        <time>2021-09-14T08:01:03.000Z</time>
      </trkpt>
      <trkpt lat="45.10452" lon="2.85344">
        <ele>896.9</ele>
        <time>2021-09-14T08:01:09.000Z</time>
      </trkpt>
      <trkpt lat="45.10449" lon="2.85354">
        <ele>897.1</ele>
        <time>2021-09-14T08:01:15.000Z</time>
      </trkpt>
      <trkpt lat="45.10445" lon="2.85364">
        <ele>897.2</ele>
        <time>2021-09-14T08:01:21.000Z</time>
      </trkpt>
      <trkpt lat="45.1044" lon="2.85373">
        <ele>896.9</ele>
        <time>2021-09-14T08:01:27.000Z</time>
      </trkpt>
      <trkpt lat="45.10435" lon="2.85383">
        <ele>896.7</ele>
        <time>2021-09-14T08:01:33.000Z</time>
      </trkpt>
      <trkpt lat="45.10432" lon="2.85393">
        <ele>896.7</ele>
        <time>2021-09-14T08:01:39.000Z</time>
      </trkpt>
      <trkpt lat="45.10427" lon="2.85403">
        <ele>896.4</ele>
        <time>2021-09-14T08:01:45.000Z</time>
      </trkpt>
      <trkpt lat="45.10423" lon="2.85415">
        <ele>896.2</ele>
        <time>2021-09-14T08:01:51.000Z</time>
      </trkpt>
      <trkpt lat="45.10422" lon="2.85426">
        <ele>896.3</ele>
        <time>2021-09-14T08:01:57.000Z</time>
      </trkpt>
      <trkpt lat="45.10419" lon="2.85438">
        <ele>896</ele>
        <time>2021-09-14T08:02:03.000Z</time>
      </trkpt>
      <trkpt lat="45.10415" lon="2.8545">
        <ele>895.6</ele>
        <time>2021-09-14T08:02:09.000Z</time>
      </trkpt>
      <trkpt lat="45.1041" lon="2.85463">
        <ele>895.5</ele>
        <time>2021-09-14T08:02:15.000Z</time>
      </trkpt>
      <trkpt lat="45.10406" lon="2.85476">
        <ele>895.3</ele>
        <time>2021-09-14T08:02:21.000Z</time>
      </trkpt>
      <trkpt lat="45.10403" lon="2.85488">
        <ele>895.3</ele>
        <time>2021-09-14T08:02:27.000Z</time>
      </trkpt>
      <trkpt lat="45.10401" lon="2.85499">
        <ele>895.3</ele>
        <time>2021-09-14T08:02:33.000Z</time>
      </trkpt>
      <trkpt lat="45.10397" lon="2.85512">
        <ele>894.8</ele>
        <time>2021-09-14T08:02:39.000Z</time>
      </trkpt>
      <trkpt lat="45.10395" lon="2.85525">
        <ele>894.4</ele>
        <time>2021-09-14T08:02:45.000Z</time>
      </trkpt>
      <trkpt lat="45.10393" lon="2.85538">
        <ele>894.1</ele>
        <time>2021-09-14T08:02:51.000Z</time>
      </trkpt>
      <trkpt lat="45.10392" lon="2.85549">
        <ele>893.9</ele>
        <time>2021-09-14T08:02:57.000Z</time>
      </trkpt>
      <trkpt lat="45.10391" lon="2.85561">
        <ele>893.7</ele>
        <time>2021-09-14T08:03:03.000Z</time>
      </trkpt>
      <trkpt lat="45.10391" lon="2.85573">
        <ele>893.6</ele>
        <time>2021-09-14T08:03:09.000Z</time>
      </trkpt>
      <trkpt lat="45.10389" lon="2.85586">
        <ele>893.3</ele>
        <time>2021-09-14T08:03:15.000Z</time>
      </trkpt>
      <trkpt lat="45.10389" lon="2.85599">
        <ele>893.3</ele>
        <time>2021-09-14T08:03:21.000Z</time>
      </trkpt>
      <trkpt lat="45.10387" lon="2.85612">
        <ele>893.1</ele>
        <time>2021-09-14T08:03:27.000Z</time>
      </trkpt>
      <trkpt lat="45.10386" lon="2.85624">
        <ele>892.9</ele>
        <time>2021-09-14T08:03:33.000Z</time>
      </trkpt>
      <trkpt lat="45.10386" lon="2.85634">
        <ele>892.9</ele>
        <time>2021-09-14T08:03:53.000Z</time>
      </trkpt>
      <trkpt lat="45.10385" lon="2.85644">
        <ele>892.8</ele>
        <time>2021-09-14T08:03:58.000Z</time>
      </trkpt>
      <trkpt lat="45.10385" lon="2.85654">
        <ele>892.8</ele>
        <time>2021-09-14T08:04:03.000Z</time>
      </trkpt>
      <trkpt lat="45.10385" lon="2.85666">
        <ele>892.7</ele>
        <time>2021-09-14T08:04:09.000Z</time>
      </trkpt>
      <trkpt lat="45.10385" lon="2.85678">
        <ele>892.7</ele>
        <time>2021-09-14T08:04:15.000Z</time>
      </trkpt>
      <trkpt lat="45.10384" lon="2.85689">
        <ele>892.6</ele>
        <time>2021-09-14T08:04:21.000Z</time>
      </trkpt>
      <trkpt lat="45.10384" lon="2.85701">
        <ele>892.6</ele>
        <time>2021-09-14T08:04:27.000Z</time>
      </trkpt>
      <trkpt lat="45.10384" lon="2.85713">
        <ele>892.5</ele>
        <time>2021-09-14T08:04:33.000Z</time>
      </trkpt>
      <trkpt lat="45.10384" lon="2.85723">
        <ele>892.5</ele>
        <time>2021-09-14T08:04:39.000Z</time>
      </trkpt>
      <trkpt lat="45.10385" lon="2.85734">
        <ele>892.5</ele>
        <time>2021-09-14T08:04:45.000Z</time>
      </trkpt>
      <trkpt lat="45.10387" lon="2.85747">
        <ele>892.6</ele>
        <time>2021-09-14T08:04:51.000Z</time>
      </trkpt>
      <trkpt lat="45.10387" lon="2.8576">
        <ele>892.5</ele>
        <time>2021-09-14T08:04:57.000Z</time>
      </trkpt>
      <trkpt lat="45.10388" lon="2.85772">
        <ele>892.4</ele>
        <time>2021-09-14T08:05:03.000Z</time>
      </trkpt>
      <trkpt lat="45.1039" lon="2.85785">
        <ele>892.3</ele>
        <time>2021-09-14T08:05:09.000Z</time>
      </trkpt>
      <trkpt lat="45.10392" lon="2.85797">
        <ele>892.3</ele>
        <time>2021-09-14T08:05:15.000Z</time>
      </trkpt>
      <trkpt lat="45.10394" lon="2.85809">
        <ele>892.2</ele>
        <time>2021-09-14T08:05:21.000Z</time>
      </trkpt>
      <trkpt lat="45.10396" lon="2.8582">
        <ele>892.2</ele>
        <time>2021-09-14T08:05:27.000Z</time>
      </trkpt>
      <trkpt lat="45.10399" lon="2.85831">
        <ele>892.2</ele>
        <time>2021-09-14T08:05:33.000Z</time>
      </trkpt>
      <trkpt lat="45.10402" lon="2.85842">
        <ele>892.1</ele>
        <time>2021-09-14T08:05:39.000Z</time>
      </trkpt>
      <trkpt lat="45.10406" lon="2.85853">
        <ele>892</ele>
        <time>2021-09-14T08:05:45.000Z</time>
      </trkpt>
      <trkpt lat="45.10409" lon="2.85865">
        <ele>891.9</ele>
        <time>2021-09-14T08:05:51.000Z</time>
      </trkpt>
      <trkpt lat="45.10414" lon="2.85876">
        <ele>891.8</ele>
        <time>2021-09-14T08:05:57.000Z</time>
      </trkpt>
      <trkpt lat="45.10414" lon="2.85886">
        <ele>891.6</ele>
        <time>2021-09-14T08:06:03.000Z</time>
      </trkpt>
      <trkpt lat="45.10416" lon="2.85899">
        <ele>891.4</ele>
        <time>2021-09-14T08:06:09.000Z</time>
      </trkpt>
      <trkpt lat="45.10421" lon="2.85908">
        <ele>892.1</ele>
        <time>2021-09-14T08:06:15.000Z</time>
      </trkpt>
      <trkpt lat="45.10425" lon="2.85917">
        <ele>892.6</ele>
        <time>2021-09-14T08:06:21.000Z</time>
      </trkpt>
      <trkpt lat="45.10429" lon="2.85926">
        <ele>892.9</ele>
        <time>2021-09-14T08:06:38.000Z</time>
      </trkpt>
      <trkpt lat="45.10433" lon="2.85934">
        <ele>893.3</ele>
        <time>2021-09-14T08:06:43.000Z</time>
      </trkpt>
      <trkpt lat="45.10438" lon="2.85942">
        <ele>893.7</ele>
        <time>2021-09-14T08:06:48.000Z</time>
      </trkpt>
      <trkpt lat="45.10443" lon="2.85949">
        <ele>894.2</ele>
        <time>2021-09-14T08:06:53.000Z</time>
      </trkpt>
      <trkpt lat="45.10447" lon="2.85957">
        <ele>894.3</ele>
        <time>2021-09-14T08:06:57.000Z</time>
      </trkpt>
      <trkpt lat="45.10453" lon="2.85966">
        <ele>894.7</ele>
        <time>2021-09-14T08:07:03.000Z</time>
      </trkpt>
      <trkpt lat="45.10459" lon="2.85975">
        <ele>894.9</ele>
        <time>2021-09-14T08:07:09.000Z</time>
      </trkpt>
      <trkpt lat="45.10465" lon="2.85984">
        <ele>895</ele>
        <time>2021-09-14T08:07:15.000Z</time>
      </trkpt>
      <trkpt lat="45.1047" lon="2.85994">
        <ele>894.9</ele>
        <time>2021-09-14T08:07:21.000Z</time>
      </trkpt>
      <trkpt lat="45.10476" lon="2.86002">
        <ele>895</ele>
        <time>2021-09-14T08:07:27.000Z</time>
      </trkpt>
      <trkpt lat="45.10482" lon="2.86012">
        <ele>895.1</ele>
        <time>2021-09-14T08:07:33.000Z</time>
      </trkpt>
      <trkpt lat="45.10488" lon="2.86022">
        <ele>895.1</ele>
        <time>2021-09-14T08:07:39.000Z</time>
      </trkpt>
      <trkpt lat="45.10492" lon="2.8603">
        <ele>895</ele>
        <time>2021-09-14T08:07:49.000Z</time>
      </trkpt>
      <trkpt lat="45.10498" lon="2.86035">
        <ele>895.3</ele>
        <time>2021-09-14T08:07:59.000Z</time>
      </trkpt>
      <trkpt lat="45.10503" lon="2.86041">
        <ele>895.4</ele>
        <time>2021-09-14T08:08:04.000Z</time>
      </trkpt>
      <trkpt lat="45.10508" lon="2.86047">
        <ele>895.6</ele>
        <time>2021-09-14T08:08:09.000Z</time>
      </trkpt>
      <trkpt lat="45.10515" lon="2.86053">
        <ele>895.9</ele>
        <time>2021-09-14T08:08:15.000Z</time>
      </trkpt>
      <trkpt lat="45.10519" lon="2.86063">
        <ele>895.5</ele>
        <time>2021-09-14T08:08:21.000Z</time>
      </trkpt>
      <trkpt lat="45.10524" lon="2.86071">
        <ele>895.4</ele>
        <time>2021-09-14T08:08:27.000Z</time>
      </trkpt>
      <trkpt lat="45.10525" lon="2.86081">
        <ele>894.6</ele>
        <time>2021-09-14T08:08:34.000Z</time>
      </trkpt>
      <trkpt lat="45.10532" lon="2.86086">
        <ele>895</ele>
        <time>2021-09-14T08:08:39.000Z</time>
      </trkpt>
      <trkpt lat="45.10541" lon="2.86089">
        <ele>895.8</ele>
        <time>2021-09-14T08:08:45.000Z</time>
      </trkpt>
      <trkpt lat="45.10549" lon="2.86097">
        <ele>896.3</ele>
        <time>2021-09-14T08:08:51.000Z</time>
      </trkpt>
      <trkpt lat="45.10555" lon="2.86103">
        <ele>896.7</ele>
        <time>2021-09-14T08:08:57.000Z</time>
      </trkpt>
      <trkpt lat="45.10562" lon="2.86108">
        <ele>897.1</ele>
        <time>2021-09-14T08:09:03.000Z</time>
      </trkpt>
      <trkpt lat="45.10569" lon="2.86113">
        <ele>897.6</ele>
        <time>2021-09-14T08:09:09.000Z</time>
      </trkpt>
      <trkpt lat="45.10575" lon="2.86118">
        <ele>898</ele>
        <time>2021-09-14T08:09:15.000Z</time>
      </trkpt>
      <trkpt lat="45.10582" lon="2.86121">
        <ele>898.5</ele>
        <time>2021-09-14T08:09:21.000Z</time>
      </trkpt>
      <trkpt lat="45.10589" lon="2.86129">
        <ele>898.5</ele>
        <time>2021-09-14T08:09:27.000Z</time>
      </trkpt>
      <trkpt lat="45.10596" lon="2.86135">
        <ele>898.4</ele>
        <time>2021-09-14T08:09:33.000Z</time>
      </trkpt>
      <trkpt lat="45.10601" lon="2.86142">
        <ele>898.2</ele>
        <time>2021-09-14T08:09:58.000Z</time>
      </trkpt>
      <trkpt lat="45.10603" lon="2.86151">
        <ele>898</ele>
        <time>2021-09-14T08:13:27.000Z</time>
      </trkpt>
      <trkpt lat="45.10609" lon="2.86157">
        <ele>897.9</ele>
        <time>2021-09-14T08:13:33.000Z</time>
      </trkpt>
      <trkpt lat="45.10615" lon="2.86165">
        <ele>897.8</ele>
        <time>2021-09-14T08:13:40.000Z</time>
      </trkpt>
      <trkpt lat="45.10621" lon="2.86168">
        <ele>897.9</ele>
        <time>2021-09-14T08:13:45.000Z</time>
      </trkpt>
      <trkpt lat="45.10627" lon="2.86174">
        <ele>898.2</ele>
        <time>2021-09-14T08:13:53.000Z</time>
      </trkpt>
      <trkpt lat="45.10633" lon="2.86179">
        <ele>898.4</ele>
        <time>2021-09-14T08:13:58.000Z</time>
      </trkpt>
      <trkpt lat="45.10626" lon="2.8618">
        <ele>898.3</ele>
        <time>2021-09-14T08:14:18.000Z</time>
      </trkpt>
      <trkpt lat="45.10619" lon="2.86177">
        <ele>898.1</ele>
        <time>2021-09-14T08:14:27.000Z</time>
      </trkpt>
      <trkpt lat="45.10615" lon="2.86187">
        <ele>898.2</ele>
        <time>2021-09-14T08:14:34.000Z</time>
      </trkpt>
      <trkpt lat="45.10611" lon="2.86197">
        <ele>898.4</ele>
        <time>2021-09-14T08:14:40.000Z</time>
      </trkpt>
      <trkpt lat="45.10608" lon="2.86206">
        <ele>898.6</ele>
        <time>2021-09-14T08:14:45.000Z</time>
      </trkpt>
      <trkpt lat="45.10605" lon="2.86215">
        <ele>898.8</ele>
        <time>2021-09-14T08:14:52.000Z</time>
      </trkpt>
      <trkpt lat="45.10604" lon="2.86226">
        <ele>899.1</ele>
        <time>2021-09-14T08:14:59.000Z</time>
      </trkpt>
      <trkpt lat="45.10604" lon="2.86235">
        <ele>899.3</ele>
        <time>2021-09-14T08:15:04.000Z</time>
      </trkpt>
      <trkpt lat="45.10605" lon="2.86245">
        <ele>899.6</ele>
        <time>2021-09-14T08:15:10.000Z</time>
      </trkpt>
      <trkpt lat="45.10607" lon="2.86255">
        <ele>900</ele>
        <time>2021-09-14T08:15:16.000Z</time>
      </trkpt>
      <trkpt lat="45.10604" lon="2.86264">
        <ele>900.5</ele>
        <time>2021-09-14T08:15:21.000Z</time>
      </trkpt>
      <trkpt lat="45.106" lon="2.86276">
        <ele>901.2</ele>
        <time>2021-09-14T08:15:27.000Z</time>
      </trkpt>
      <trkpt lat="45.10593" lon="2.86282">
        <ele>901.7</ele>
        <time>2021-09-14T08:15:33.000Z</time>
      </trkpt>
      <trkpt lat="45.10586" lon="2.86286">
        <ele>902.1</ele>
        <time>2021-09-14T08:15:40.000Z</time>
      </trkpt>
      <trkpt lat="45.10581" lon="2.86291">
        <ele>902.4</ele>
        <time>2021-09-14T08:15:55.000Z</time>
      </trkpt>
      <trkpt lat="45.10579" lon="2.863">
        <ele>902.8</ele>
        <time>2021-09-14T08:16:06.000Z</time>
      </trkpt>
      <trkpt lat="45.10577" lon="2.8631">
        <ele>903.4</ele>
        <time>2021-09-14T08:16:13.000Z</time>
      </trkpt>
      <trkpt lat="45.10575" lon="2.86319">
        <ele>904</ele>
        <time>2021-09-14T08:16:20.000Z</time>
      </trkpt>
      <trkpt lat="45.1057" lon="2.86314">
        <ele>903.5</ele>
        <time>2021-09-14T08:16:38.000Z</time>
      </trkpt>
      <trkpt lat="45.10543" lon="2.86325">
        <ele>903.8</ele>
        <time>2021-09-14T08:32:32.000Z</time>
      </trkpt>
      <trkpt lat="45.10559" lon="2.86299">
        <ele>902</ele>
        <time>2021-09-14T08:32:38.000Z</time>
      </trkpt>
      <trkpt lat="45.10549" lon="2.86295">
        <ele>901.3</ele>
        <time>2021-09-14T08:32:43.000Z</time>
      </trkpt>
      <trkpt lat="45.10532" lon="2.86294">
        <ele>900.6</ele>
        <time>2021-09-14T08:32:49.000Z</time>
      </trkpt>
      <trkpt lat="45.10515" lon="2.86292">
        <ele>899.7</ele>
        <time>2021-09-14T08:32:55.000Z</time>
      </trkpt>
      <trkpt lat="45.1052" lon="2.86299">
        <ele>900.6</ele>
        <time>2021-09-14T08:33:33.000Z</time>
      </trkpt>
      <trkpt lat="45.10512" lon="2.86308">
        <ele>901.3</ele>
        <time>2021-09-14T08:33:40.000Z</time>
      </trkpt>
      <trkpt lat="45.10507" lon="2.86314">
        <ele>901.9</ele>
        <time>2021-09-14T08:33:43.000Z</time>
      </trkpt>
      <trkpt lat="45.10524" lon="2.86312">
        <ele>902.1</ele>
        <time>2021-09-14T08:33:49.000Z</time>
      </trkpt>
      <trkpt lat="45.10534" lon="2.8633">
        <ele>904.1</ele>
        <time>2021-09-14T08:33:55.000Z</time>
      </trkpt>
      <trkpt lat="45.10543" lon="2.86344">
        <ele>904.3</ele>
        <time>2021-09-14T08:34:01.000Z</time>
      </trkpt>
      <trkpt lat="45.1055" lon="2.86344">
        <ele>904.4</ele>
        <time>2021-09-14T08:34:07.000Z</time>
      </trkpt>
      <trkpt lat="45.10556" lon="2.86331">
        <ele>904.5</ele>
        <time>2021-09-14T08:34:13.000Z</time>
      </trkpt>
      <trkpt lat="45.1057" lon="2.86321">
        <ele>904</ele>
        <time>2021-09-14T08:34:19.000Z</time>
      </trkpt>
      <trkpt lat="45.10576" lon="2.86312">
        <ele>903.5</ele>
        <time>2021-09-14T08:34:25.000Z</time>
      </trkpt>
      <trkpt lat="45.10577" lon="2.86302">
        <ele>902.9</ele>
        <time>2021-09-14T08:34:33.000Z</time>
      </trkpt>
      <trkpt lat="45.10583" lon="2.86306">
        <ele>903.3</ele>
        <time>2021-09-14T08:34:38.000Z</time>
      </trkpt>
      <trkpt lat="45.10571" lon="2.86312">
        <ele>903.4</ele>
        <time>2021-09-14T08:35:02.000Z</time>
      </trkpt>
      <trkpt lat="45.10565" lon="2.86304">
        <ele>902.6</ele>
        <time>2021-09-14T08:35:15.000Z</time>
      </trkpt>
      <trkpt lat="45.10572" lon="2.863">
        <ele>902.6</ele>
        <time>2021-09-14T08:36:14.000Z</time>
      </trkpt>
      <trkpt lat="45.10578" lon="2.863">
        <ele>902.8</ele>
        <time>2021-09-14T08:36:21.000Z</time>
      </trkpt>
      <trkpt lat="45.10586" lon="2.86294">
        <ele>902.6</ele>
        <time>2021-09-14T08:36:39.000Z</time>
      </trkpt>
      <trkpt lat="45.10591" lon="2.86289">
        <ele>902.1</ele>
        <time>2021-09-14T08:36:44.000Z</time>
      </trkpt>
      <trkpt lat="45.10598" lon="2.86288">
        <ele>901.9</ele>
        <time>2021-09-14T08:36:57.000Z</time>
      </trkpt>
      <trkpt lat="45.10605" lon="2.86288">
        <ele>901.7</ele>
        <time>2021-09-14T08:37:00.000Z</time>
      </trkpt>
      <trkpt lat="45.10605" lon="2.86277">
        <ele>901.1</ele>
        <time>2021-09-14T08:37:06.000Z</time>
      </trkpt>
      <trkpt lat="45.10604" lon="2.86267">
        <ele>900.6</ele>
        <time>2021-09-14T08:37:12.000Z</time>
      </trkpt>
      <trkpt lat="45.10606" lon="2.86258">
        <ele>900.1</ele>
        <time>2021-09-14T08:37:19.000Z</time>
      </trkpt>
      <trkpt lat="45.10611" lon="2.86251">
        <ele>899.7</ele>
        <time>2021-09-14T08:37:29.000Z</time>
      </trkpt>
      <trkpt lat="45.10614" lon="2.86243">
        <ele>899.5</ele>
        <time>2021-09-14T08:37:36.000Z</time>
      </trkpt>
      <trkpt lat="45.10616" lon="2.86233">
        <ele>899.2</ele>
        <time>2021-09-14T08:37:43.000Z</time>
      </trkpt>
      <trkpt lat="45.10617" lon="2.86222">
        <ele>899</ele>
        <time>2021-09-14T08:37:50.000Z</time>
      </trkpt>
      <trkpt lat="45.1062" lon="2.86213">
        <ele>898.8</ele>
        <time>2021-09-14T08:37:56.000Z</time>
      </trkpt>
      <trkpt lat="45.10624" lon="2.86204">
        <ele>898.7</ele>
        <time>2021-09-14T08:38:02.000Z</time>
      </trkpt>
      <trkpt lat="45.10623" lon="2.86194">
        <ele>898.5</ele>
        <time>2021-09-14T08:38:09.000Z</time>
      </trkpt>
      <trkpt lat="45.10628" lon="2.86187">
        <ele>898.4</ele>
        <time>2021-09-14T08:38:19.000Z</time>
      </trkpt>
      <trkpt lat="45.10633" lon="2.86193">
        <ele>898.6</ele>
        <time>2021-09-14T08:38:25.000Z</time>
      </trkpt>
      <trkpt lat="45.10637" lon="2.86201">
        <ele>898.7</ele>
        <time>2021-09-14T08:38:31.000Z</time>
      </trkpt>
      <trkpt lat="45.1064" lon="2.8621">
        <ele>898.9</ele>
        <time>2021-09-14T08:38:38.000Z</time>
      </trkpt>
      <trkpt lat="45.10642" lon="2.86219">
        <ele>899</ele>
        <time>2021-09-14T08:38:48.000Z</time>
      </trkpt>
      <trkpt lat="45.10648" lon="2.86227">
        <ele>899</ele>
        <time>2021-09-14T08:38:53.000Z</time>
      </trkpt>
      <trkpt lat="45.10653" lon="2.86234">
        <ele>899.1</ele>
        <time>2021-09-14T08:38:58.000Z</time>
      </trkpt>
      <trkpt lat="45.10659" lon="2.8624">
        <ele>899.1</ele>
        <time>2021-09-14T08:39:03.000Z</time>
      </trkpt>
      <trkpt lat="45.10666" lon="2.86245">
        <ele>899</ele>
        <time>2021-09-14T08:39:09.000Z</time>
      </trkpt>
      <trkpt lat="45.10674" lon="2.8625">
        <ele>898.8</ele>
        <time>2021-09-14T08:39:15.000Z</time>
      </trkpt>
      <trkpt lat="45.10681" lon="2.86257">
        <ele>898.8</ele>
        <time>2021-09-14T08:39:21.000Z</time>
      </trkpt>
      <trkpt lat="45.10688" lon="2.86262">
        <ele>898.7</ele>
        <time>2021-09-14T08:39:27.000Z</time>
      </trkpt>
      <trkpt lat="45.10694" lon="2.8627">
        <ele>898.7</ele>
        <time>2021-09-14T08:39:33.000Z</time>
      </trkpt>
      <trkpt lat="45.10702" lon="2.86279">
        <ele>898.7</ele>
        <time>2021-09-14T08:39:39.000Z</time>
      </trkpt>
      <trkpt lat="45.10712" lon="2.86284">
        <ele>898.5</ele>
        <time>2021-09-14T08:39:45.000Z</time>
      </trkpt>
      <trkpt lat="45.10718" lon="2.8629">
        <ele>898.4</ele>
        <time>2021-09-14T08:39:51.000Z</time>
      </trkpt>
      <trkpt lat="45.10725" lon="2.86297">
        <ele>898.3</ele>
        <time>2021-09-14T08:39:57.000Z</time>
      </trkpt>
      <trkpt lat="45.10734" lon="2.86304">
        <ele>898.2</ele>
        <time>2021-09-14T08:40:03.000Z</time>
      </trkpt>
      <trkpt lat="45.10743" lon="2.86311">
        <ele>898</ele>
        <time>2021-09-14T08:40:09.000Z</time>
      </trkpt>
      <trkpt lat="45.10752" lon="2.86318">
        <ele>897.8</ele>
        <time>2021-09-14T08:40:15.000Z</time>
      </trkpt>
      <trkpt lat="45.10757" lon="2.86323">
        <ele>897.7</ele>
        <time>2021-09-14T08:40:24.000Z</time>
      </trkpt>
      <trkpt lat="45.10762" lon="2.8633">
        <ele>897.5</ele>
        <time>2021-09-14T08:40:39.000Z</time>
      </trkpt>
      <trkpt lat="45.10766" lon="2.86338">
        <ele>897.3</ele>
        <time>2021-09-14T08:42:32.000Z</time>
      </trkpt>
      <trkpt lat="45.10772" lon="2.86343">
        <ele>896.9</ele>
        <time>2021-09-14T08:42:36.000Z</time>
      </trkpt>
      <trkpt lat="45.10778" lon="2.86348">
        <ele>896.5</ele>
        <time>2021-09-14T08:42:40.000Z</time>
      </trkpt>
      <trkpt lat="45.10783" lon="2.86355">
        <ele>896.1</ele>
        <time>2021-09-14T08:42:45.000Z</time>
      </trkpt>
      <trkpt lat="45.10789" lon="2.86362">
        <ele>895.7</ele>
        <time>2021-09-14T08:42:51.000Z</time>
      </trkpt>
      <trkpt lat="45.10798" lon="2.86368">
        <ele>895.3</ele>
        <time>2021-09-14T08:42:57.000Z</time>
      </trkpt>
      <trkpt lat="45.10808" lon="2.86372">
        <ele>894.8</ele>
        <time>2021-09-14T08:43:03.000Z</time>
      </trkpt>
      <trkpt lat="45.10813" lon="2.86378">
        <ele>894.5</ele>
        <time>2021-09-14T08:43:09.000Z</time>
      </trkpt>
      <trkpt lat="45.1082" lon="2.86384">
        <ele>894.2</ele>
        <time>2021-09-14T08:43:15.000Z</time>
      </trkpt>
      <trkpt lat="45.10828" lon="2.86389">
        <ele>893.8</ele>
        <time>2021-09-14T08:43:21.000Z</time>
      </trkpt>
      <trkpt lat="45.1083" lon="2.86398">
        <ele>893.5</ele>
        <time>2021-09-14T08:43:32.000Z</time>
      </trkpt>
      <trkpt lat="45.10837" lon="2.86401">
        <ele>893.5</ele>
        <time>2021-09-14T08:43:54.000Z</time>
      </trkpt>
      <trkpt lat="45.10843" lon="2.86406">
        <ele>893.5</ele>
        <time>2021-09-14T08:44:06.000Z</time>
      </trkpt>
      <trkpt lat="45.10849" lon="2.8641">
        <ele>893.5</ele>
        <time>2021-09-14T08:44:15.000Z</time>
      </trkpt>
      <trkpt lat="45.10852" lon="2.86418">
        <ele>893.4</ele>
        <time>2021-09-14T08:44:23.000Z</time>
      </trkpt>
      <trkpt lat="45.10857" lon="2.86424">
        <ele>893.5</ele>
        <time>2021-09-14T08:44:33.000Z</time>
      </trkpt>
      <trkpt lat="45.10862" lon="2.86431">
        <ele>893.5</ele>
        <time>2021-09-14T08:44:42.000Z</time>
      </trkpt>
      <trkpt lat="45.10866" lon="2.86437">
        <ele>893.6</ele>
        <time>2021-09-14T08:44:50.000Z</time>
      </trkpt>
      <trkpt lat="45.10872" lon="2.86443">
        <ele>893.7</ele>
        <time>2021-09-14T08:44:59.000Z</time>
      </trkpt>
      <trkpt lat="45.10876" lon="2.8645">
        <ele>893.8</ele>
        <time>2021-09-14T08:45:09.000Z</time>
      </trkpt>
      <trkpt lat="45.1088" lon="2.86458">
        <ele>894</ele>
        <time>2021-09-14T08:45:18.000Z</time>
      </trkpt>
      <trkpt lat="45.10886" lon="2.86461">
        <ele>894.2</ele>
        <time>2021-09-14T08:45:28.000Z</time>
      </trkpt>
      <trkpt lat="45.10892" lon="2.86467">
        <ele>894.5</ele>
        <time>2021-09-14T08:45:37.000Z</time>
      </trkpt>
      <trkpt lat="45.10897" lon="2.86474">
        <ele>894.7</ele>
        <time>2021-09-14T08:45:46.000Z</time>
      </trkpt>
      <trkpt lat="45.10902" lon="2.8648">
        <ele>895</ele>
        <time>2021-09-14T08:45:54.000Z</time>
      </trkpt>
      <trkpt lat="45.10907" lon="2.86487">
        <ele>895.3</ele>
        <time>2021-09-14T08:46:03.000Z</time>
      </trkpt>
      <trkpt lat="45.10912" lon="2.86493">
        <ele>895.7</ele>
        <time>2021-09-14T08:46:14.000Z</time>
      </trkpt>
      <trkpt lat="45.10916" lon="2.86501">
        <ele>895.9</ele>
        <time>2021-09-14T08:46:22.000Z</time>
      </trkpt>
      <trkpt lat="45.10918" lon="2.8651">
        <ele>895.9</ele>
        <time>2021-09-14T08:46:32.000Z</time>
      </trkpt>
      <trkpt lat="45.10922" lon="2.86517">
        <ele>896.1</ele>
        <time>2021-09-14T08:46:42.000Z</time>
      </trkpt>
      <trkpt lat="45.10925" lon="2.86525">
        <ele>896.1</ele>
        <time>2021-09-14T08:46:50.000Z</time>
      </trkpt>
      <trkpt lat="45.10928" lon="2.86533">
        <ele>896.2</ele>
        <time>2021-09-14T08:47:18.000Z</time>
      </trkpt>
      <trkpt lat="45.10931" lon="2.86543">
        <ele>896.3</ele>
        <time>2021-09-14T08:47:25.000Z</time>
      </trkpt>
      <trkpt lat="45.10928" lon="2.86552">
        <ele>895.8</ele>
        <time>2021-09-14T08:47:50.000Z</time>
      </trkpt>
      <trkpt lat="45.10932" lon="2.86559">
        <ele>896</ele>
        <time>2021-09-14T08:47:57.000Z</time>
      </trkpt>
      <trkpt lat="45.10937" lon="2.86567">
        <ele>896.3</ele>
        <time>2021-09-14T08:48:05.000Z</time>
      </trkpt>
      <trkpt lat="45.10942" lon="2.86573">
        <ele>896.6</ele>
        <time>2021-09-14T08:48:13.000Z</time>
      </trkpt>
      <trkpt lat="45.1094" lon="2.86582">
        <ele>896.3</ele>
        <time>2021-09-14T08:48:23.000Z</time>
      </trkpt>
      <trkpt lat="45.10944" lon="2.8659">
        <ele>896.6</ele>
        <time>2021-09-14T08:48:32.000Z</time>
      </trkpt>
      <trkpt lat="45.10949" lon="2.86597">
        <ele>897</ele>
        <time>2021-09-14T08:48:36.000Z</time>
      </trkpt>
      <trkpt lat="45.10954" lon="2.86602">
        <ele>897.4</ele>
        <time>2021-09-14T08:48:39.000Z</time>
      </trkpt>
      <trkpt lat="45.10959" lon="2.86608">
        <ele>897.8</ele>
        <time>2021-09-14T08:48:45.000Z</time>
      </trkpt>
      <trkpt lat="45.10963" lon="2.86616">
        <ele>898</ele>
        <time>2021-09-14T08:48:52.000Z</time>
      </trkpt>
      <trkpt lat="45.10967" lon="2.86624">
        <ele>898.2</ele>
        <time>2021-09-14T08:48:59.000Z</time>
      </trkpt>
      <trkpt lat="45.10972" lon="2.86631">
        <ele>898.6</ele>
        <time>2021-09-14T08:49:06.000Z</time>
      </trkpt>
      <trkpt lat="45.10977" lon="2.86639">
        <ele>898.8</ele>
        <time>2021-09-14T08:49:13.000Z</time>
      </trkpt>
      <trkpt lat="45.10983" lon="2.86646">
        <ele>899.2</ele>
        <time>2021-09-14T08:49:19.000Z</time>
      </trkpt>
      <trkpt lat="45.10986" lon="2.86654">
        <ele>899.2</ele>
        <time>2021-09-14T08:49:24.000Z</time>
      </trkpt>
      <trkpt lat="45.1099" lon="2.86662">
        <ele>899.4</ele>
        <time>2021-09-14T08:49:29.000Z</time>
      </trkpt>
      <trkpt lat="45.10994" lon="2.86669">
        <ele>899.5</ele>
        <time>2021-09-14T08:49:33.000Z</time>
      </trkpt>
      <trkpt lat="45.10995" lon="2.8668">
        <ele>899.5</ele>
        <time>2021-09-14T08:49:39.000Z</time>
      </trkpt>
      <trkpt lat="45.10999" lon="2.86689">
        <ele>899.7</ele>
        <time>2021-09-14T08:49:45.000Z</time>
      </trkpt>
      <trkpt lat="45.11007" lon="2.86697">
        <ele>900.4</ele>
        <time>2021-09-14T08:49:51.000Z</time>
      </trkpt>
      <trkpt lat="45.11015" lon="2.86705">
        <ele>901.2</ele>
        <time>2021-09-14T08:49:57.000Z</time>
      </trkpt>
      <trkpt lat="45.11018" lon="2.86713">
        <ele>901.4</ele>
        <time>2021-09-14T08:50:03.000Z</time>
      </trkpt>
      <trkpt lat="45.1102" lon="2.86723">
        <ele>901.4</ele>
        <time>2021-09-14T08:50:10.000Z</time>
      </trkpt>
      <trkpt lat="45.11024" lon="2.86733">
        <ele>901.6</ele>
        <time>2021-09-14T08:50:32.000Z</time>
      </trkpt>
      <trkpt lat="45.11029" lon="2.8674">
        <ele>902</ele>
        <time>2021-09-14T08:50:40.000Z</time>
      </trkpt>
      <trkpt lat="45.11032" lon="2.8675">
        <ele>902.1</ele>
        <time>2021-09-14T08:50:47.000Z</time>
      </trkpt>
      <trkpt lat="45.11038" lon="2.86754">
        <ele>902.7</ele>
        <time>2021-09-14T08:50:53.000Z</time>
      </trkpt>
      <trkpt lat="45.11047" lon="2.86758">
        <ele>903.6</ele>
        <time>2021-09-14T08:50:57.000Z</time>
      </trkpt>
      <trkpt lat="45.11059" lon="2.86762">
        <ele>904.9</ele>
        <time>2021-09-14T08:51:03.000Z</time>
      </trkpt>
      <trkpt lat="45.11066" lon="2.8677">
        <ele>905.6</ele>
        <time>2021-09-14T08:51:09.000Z</time>
      </trkpt>
      <trkpt lat="45.11072" lon="2.86777">
        <ele>906.3</ele>
        <time>2021-09-14T08:51:15.000Z</time>
      </trkpt>
      <trkpt lat="45.11077" lon="2.86787">
        <ele>906.9</ele>
        <time>2021-09-14T08:51:21.000Z</time>
      </trkpt>
      <trkpt lat="45.11076" lon="2.86796">
        <ele>906.9</ele>
        <time>2021-09-14T08:51:32.000Z</time>
      </trkpt>
      <trkpt lat="45.11073" lon="2.86805">
        <ele>906.7</ele>
        <time>2021-09-14T08:51:57.000Z</time>
      </trkpt>
      <trkpt lat="45.11069" lon="2.86814">
        <ele>906.5</ele>
        <time>2021-09-14T08:52:08.000Z</time>
      </trkpt>
      <trkpt lat="45.11071" lon="2.86823">
        <ele>906.8</ele>
        <time>2021-09-14T08:52:16.000Z</time>
      </trkpt>
      <trkpt lat="45.11073" lon="2.86833">
        <ele>907.1</ele>
        <time>2021-09-14T08:52:23.000Z</time>
      </trkpt>
      <trkpt lat="45.11076" lon="2.86842">
        <ele>907.4</ele>
        <time>2021-09-14T08:52:29.000Z</time>
      </trkpt>
      <trkpt lat="45.11075" lon="2.86853">
        <ele>907.3</ele>
        <time>2021-09-14T08:52:36.000Z</time>
      </trkpt>
      <trkpt lat="45.11078" lon="2.86861">
        <ele>907.6</ele>
        <time>2021-09-14T08:52:43.000Z</time>
      </trkpt>
      <trkpt lat="45.11084" lon="2.86865">
        <ele>908.1</ele>
        <time>2021-09-14T08:52:51.000Z</time>
      </trkpt>
      <trkpt lat="45.1109" lon="2.86869">
        <ele>908.8</ele>
        <time>2021-09-14T08:53:00.000Z</time>
      </trkpt>
      <trkpt lat="45.11091" lon="2.86879">
        <ele>909</ele>
        <time>2021-09-14T08:53:11.000Z</time>
      </trkpt>
      <trkpt lat="45.11095" lon="2.86887">
        <ele>909.5</ele>
        <time>2021-09-14T08:53:20.000Z</time>
      </trkpt>
      <trkpt lat="45.11094" lon="2.86896">
        <ele>909.4</ele>
        <time>2021-09-14T08:53:27.000Z</time>
      </trkpt>
      <trkpt lat="45.11093" lon="2.86906">
        <ele>909.3</ele>
        <time>2021-09-14T08:53:33.000Z</time>
      </trkpt>
      <trkpt lat="45.11094" lon="2.86916">
        <ele>909.5</ele>
        <time>2021-09-14T08:53:40.000Z</time>
      </trkpt>
      <trkpt lat="45.11101" lon="2.86917">
        <ele>910.5</ele>
        <time>2021-09-14T08:54:09.000Z</time>
      </trkpt>
      <trkpt lat="45.11107" lon="2.86919">
        <ele>911.4</ele>
        <time>2021-09-14T08:54:16.000Z</time>
      </trkpt>
      <trkpt lat="45.11113" lon="2.86924">
        <ele>912.3</ele>
        <time>2021-09-14T08:54:23.000Z</time>
      </trkpt>
      <trkpt lat="45.11115" lon="2.86934">
        <ele>912.6</ele>
        <time>2021-09-14T08:54:29.000Z</time>
      </trkpt>
      <trkpt lat="45.11108" lon="2.86932">
        <ele>911.6</ele>
        <time>2021-09-14T08:54:33.000Z</time>
      </trkpt>
      <trkpt lat="45.1108" lon="2.8689">
        <ele>907.7</ele>
        <time>2021-09-14T08:59:13.000Z</time>
      </trkpt>
      <trkpt lat="45.11092" lon="2.86899">
        <ele>909.2</ele>
        <time>2021-09-14T08:59:19.000Z</time>
      </trkpt>
      <trkpt lat="45.11104" lon="2.86929">
        <ele>911</ele>
        <time>2021-09-14T09:00:34.000Z</time>
      </trkpt>
      <trkpt lat="45.11099" lon="2.86913">
        <ele>910.2</ele>
        <time>2021-09-14T09:00:39.000Z</time>
      </trkpt>
      <trkpt lat="45.11093" lon="2.86906">
        <ele>909.3</ele>
        <time>2021-09-14T09:00:46.000Z</time>
      </trkpt>
      <trkpt lat="45.11094" lon="2.86896">
        <ele>909.4</ele>
        <time>2021-09-14T09:00:56.000Z</time>
      </trkpt>
      <trkpt lat="45.11087" lon="2.86898">
        <ele>908.5</ele>
        <time>2021-09-14T09:01:08.000Z</time>
      </trkpt>
      <trkpt lat="45.11085" lon="2.86907">
        <ele>908.2</ele>
        <time>2021-09-14T09:01:21.000Z</time>
      </trkpt>
      <trkpt lat="45.11082" lon="2.86897">
        <ele>907.9</ele>
        <time>2021-09-14T09:01:36.000Z</time>
      </trkpt>
      <trkpt lat="45.11081" lon="2.86887">
        <ele>907.8</ele>
        <time>2021-09-14T09:01:39.000Z</time>
      </trkpt>
      <trkpt lat="45.11079" lon="2.86868">
        <ele>907.7</ele>
        <time>2021-09-14T09:01:45.000Z</time>
      </trkpt>
      <trkpt lat="45.11086" lon="2.86916">
        <ele>908.4</ele>
        <time>2021-09-14T09:02:00.000Z</time>
      </trkpt>
      <trkpt lat="45.11093" lon="2.86909">
        <ele>909.4</ele>
        <time>2021-09-14T09:02:06.000Z</time>
      </trkpt>
      <trkpt lat="45.1109" lon="2.86919">
        <ele>909</ele>
        <time>2021-09-14T09:02:50.000Z</time>
      </trkpt>
      <trkpt lat="45.11092" lon="2.86928">
        <ele>909.3</ele>
        <time>2021-09-14T09:02:59.000Z</time>
      </trkpt>
      <trkpt lat="45.11099" lon="2.86927">
        <ele>910.3</ele>
        <time>2021-09-14T09:03:41.000Z</time>
      </trkpt>
      <trkpt lat="45.11101" lon="2.86936">
        <ele>910.6</ele>
        <time>2021-09-14T09:03:55.000Z</time>
      </trkpt>
      <trkpt lat="45.11099" lon="2.86946">
        <ele>910.3</ele>
        <time>2021-09-14T09:04:02.000Z</time>
      </trkpt>
      <trkpt lat="45.11096" lon="2.86955">
        <ele>909.9</ele>
        <time>2021-09-14T09:04:15.000Z</time>
      </trkpt>
      <trkpt lat="45.11093" lon="2.86964">
        <ele>909.5</ele>
        <time>2021-09-14T09:04:21.000Z</time>
      </trkpt>
      <trkpt lat="45.11093" lon="2.86974">
        <ele>909.5</ele>
        <time>2021-09-14T09:04:29.000Z</time>
      </trkpt>
      <trkpt lat="45.11097" lon="2.86981">
        <ele>910.1</ele>
        <time>2021-09-14T09:04:41.000Z</time>
      </trkpt>
      <trkpt lat="45.11103" lon="2.86988">
        <ele>911</ele>
        <time>2021-09-14T09:04:48.000Z</time>
      </trkpt>
      <trkpt lat="45.11103" lon="2.86998">
        <ele>911.1</ele>
        <time>2021-09-14T09:04:54.000Z</time>
      </trkpt>
      <trkpt lat="45.11105" lon="2.87008">
        <ele>911.5</ele>
        <time>2021-09-14T09:05:01.000Z</time>
      </trkpt>
      <trkpt lat="45.11106" lon="2.87017">
        <ele>911.8</ele>
        <time>2021-09-14T09:05:06.000Z</time>
      </trkpt>
      <trkpt lat="45.11104" lon="2.87026">
        <ele>911.7</ele>
        <time>2021-09-14T09:05:12.000Z</time>
      </trkpt>
      <trkpt lat="45.11102" lon="2.87035">
        <ele>911.6</ele>
        <time>2021-09-14T09:05:18.000Z</time>
      </trkpt>
      <trkpt lat="45.11102" lon="2.87047">
        <ele>911.8</ele>
        <time>2021-09-14T09:05:25.000Z</time>
      </trkpt>
      <trkpt lat="45.111" lon="2.87056">
        <ele>911.7</ele>
        <time>2021-09-14T09:05:32.000Z</time>
      </trkpt>
      <trkpt lat="45.11093" lon="2.87055">
        <ele>910.7</ele>
        <time>2021-09-14T09:06:00.000Z</time>
      </trkpt>
      <trkpt lat="45.11099" lon="2.87056">
        <ele>911.5</ele>
        <time>2021-09-14T09:07:03.000Z</time>
      </trkpt>
      <trkpt lat="45.11106" lon="2.87057">
        <ele>912.5</ele>
        <time>2021-09-14T09:07:09.000Z</time>
      </trkpt>
      <trkpt lat="45.11101" lon="2.87065">
        <ele>912</ele>
        <time>2021-09-14T09:07:19.000Z</time>
      </trkpt>
      <trkpt lat="45.11094" lon="2.87061">
        <ele>910.9</ele>
        <time>2021-09-14T09:07:48.000Z</time>
      </trkpt>
      <trkpt lat="45.11086" lon="2.8706">
        <ele>909.8</ele>
        <time>2021-09-14T09:07:56.000Z</time>
      </trkpt>
      <trkpt lat="45.11082" lon="2.87068">
        <ele>909.5</ele>
        <time>2021-09-14T09:08:07.000Z</time>
      </trkpt>
      <trkpt lat="45.11089" lon="2.87072">
        <ele>910.5</ele>
        <time>2021-09-14T09:08:17.000Z</time>
      </trkpt>
      <trkpt lat="45.11095" lon="2.87071">
        <ele>911.3</ele>
        <time>2021-09-14T09:08:32.000Z</time>
      </trkpt>
      <trkpt lat="45.11099" lon="2.87064">
        <ele>911.7</ele>
        <time>2021-09-14T09:08:39.000Z</time>
      </trkpt>
      <trkpt lat="45.11104" lon="2.87057">
        <ele>912.3</ele>
        <time>2021-09-14T09:08:46.000Z</time>
      </trkpt>
      <trkpt lat="45.11111" lon="2.87048">
        <ele>913.1</ele>
        <time>2021-09-14T09:08:51.000Z</time>
      </trkpt>
      <trkpt lat="45.11119" lon="2.87049">
        <ele>914.2</ele>
        <time>2021-09-14T09:08:59.000Z</time>
      </trkpt>
      <trkpt lat="45.11126" lon="2.87052">
        <ele>915.3</ele>
        <time>2021-09-14T09:09:03.000Z</time>
      </trkpt>
      <trkpt lat="45.11105" lon="2.87098">
        <ele>913.3</ele>
        <time>2021-09-14T09:19:09.000Z</time>
      </trkpt>
      <trkpt lat="45.11096" lon="2.87059">
        <ele>911.2</ele>
        <time>2021-09-14T09:19:15.000Z</time>
      </trkpt>
      <trkpt lat="45.11089" lon="2.87053">
        <ele>910.1</ele>
        <time>2021-09-14T09:19:21.000Z</time>
      </trkpt>
      <trkpt lat="45.11078" lon="2.87038">
        <ele>908.6</ele>
        <time>2021-09-14T09:19:29.000Z</time>
      </trkpt>
      <trkpt lat="45.1108" lon="2.87047">
        <ele>908.9</ele>
        <time>2021-09-14T09:19:36.000Z</time>
      </trkpt>
      <trkpt lat="45.11076" lon="2.87039">
        <ele>908.5</ele>
        <time>2021-09-14T09:20:53.000Z</time>
      </trkpt>
      <trkpt lat="45.1108" lon="2.87047">
        <ele>908.9</ele>
        <time>2021-09-14T09:21:00.000Z</time>
      </trkpt>
      <trkpt lat="45.11085" lon="2.87056">
        <ele>909.6</ele>
        <time>2021-09-14T09:21:28.000Z</time>
      </trkpt>
      <trkpt lat="45.11093" lon="2.8707">
        <ele>911</ele>
        <time>2021-09-14T09:21:33.000Z</time>
      </trkpt>
      <trkpt lat="45.11086" lon="2.87061">
        <ele>909.8</ele>
        <time>2021-09-14T09:21:40.000Z</time>
      </trkpt>
      <trkpt lat="45.11079" lon="2.8706">
        <ele>909.1</ele>
        <time>2021-09-14T09:21:45.000Z</time>
      </trkpt>
      <trkpt lat="45.11073" lon="2.8705">
        <ele>908.5</ele>
        <time>2021-09-14T09:21:51.000Z</time>
      </trkpt>
      <trkpt lat="45.11068" lon="2.87058">
        <ele>908.3</ele>
        <time>2021-09-14T09:22:24.000Z</time>
      </trkpt>
      <trkpt lat="45.11062" lon="2.87062">
        <ele>908</ele>
        <time>2021-09-14T09:22:29.000Z</time>
      </trkpt>
      <trkpt lat="45.11057" lon="2.87069">
        <ele>907.8</ele>
        <time>2021-09-14T09:22:35.000Z</time>
      </trkpt>
      <trkpt lat="45.11051" lon="2.87073">
        <ele>907.5</ele>
        <time>2021-09-14T09:22:41.000Z</time>
      </trkpt>
      <trkpt lat="45.11046" lon="2.87081">
        <ele>907.3</ele>
        <time>2021-09-14T09:22:48.000Z</time>
      </trkpt>
      <trkpt lat="45.11042" lon="2.87091">
        <ele>907.3</ele>
        <time>2021-09-14T09:22:54.000Z</time>
      </trkpt>
      <trkpt lat="45.11036" lon="2.87097">
        <ele>907.1</ele>
        <time>2021-09-14T09:23:01.000Z</time>
      </trkpt>
      <trkpt lat="45.11033" lon="2.87105">
        <ele>907.2</ele>
        <time>2021-09-14T09:23:08.000Z</time>
      </trkpt>
      <trkpt lat="45.11032" lon="2.87115">
        <ele>907.4</ele>
        <time>2021-09-14T09:23:15.000Z</time>
      </trkpt>
      <trkpt lat="45.11027" lon="2.87121">
        <ele>907.3</ele>
        <time>2021-09-14T09:23:37.000Z</time>
      </trkpt>
      <trkpt lat="45.11026" lon="2.87131">
        <ele>907.6</ele>
        <time>2021-09-14T09:23:44.000Z</time>
      </trkpt>
      <trkpt lat="45.11023" lon="2.8714">
        <ele>907.7</ele>
        <time>2021-09-14T09:23:50.000Z</time>
      </trkpt>
      <trkpt lat="45.11017" lon="2.87146">
        <ele>907.5</ele>
        <time>2021-09-14T09:23:56.000Z</time>
      </trkpt>
      <trkpt lat="45.11024" lon="2.87151">
        <ele>908.2</ele>
        <time>2021-09-14T09:24:19.000Z</time>
      </trkpt>
      <trkpt lat="45.11029" lon="2.87158">
        <ele>908.8</ele>
        <time>2021-09-14T09:24:23.000Z</time>
      </trkpt>
      <trkpt lat="45.11037" lon="2.87171">
        <ele>909.6</ele>
        <time>2021-09-14T09:24:29.000Z</time>
      </trkpt>
      <trkpt lat="45.1103" lon="2.87175">
        <ele>909</ele>
        <time>2021-09-14T09:24:38.000Z</time>
      </trkpt>
      <trkpt lat="45.11023" lon="2.87177">
        <ele>908.5</ele>
        <time>2021-09-14T09:24:43.000Z</time>
      </trkpt>
      <trkpt lat="45.11016" lon="2.87184">
        <ele>907.8</ele>
        <time>2021-09-14T09:24:48.000Z</time>
      </trkpt>
      <trkpt lat="45.11011" lon="2.87193">
        <ele>907.2</ele>
        <time>2021-09-14T09:24:53.000Z</time>
      </trkpt>
      <trkpt lat="45.11009" lon="2.87202">
        <ele>906.9</ele>
        <time>2021-09-14T09:25:05.000Z</time>
      </trkpt>
      <trkpt lat="45.11005" lon="2.8721">
        <ele>906.4</ele>
        <time>2021-09-14T09:25:17.000Z</time>
      </trkpt>
      <trkpt lat="45.11004" lon="2.87201">
        <ele>906.5</ele>
        <time>2021-09-14T09:26:21.000Z</time>
      </trkpt>
      <trkpt lat="45.11004" lon="2.87191">
        <ele>906.7</ele>
        <time>2021-09-14T09:26:28.000Z</time>
      </trkpt>
      <trkpt lat="45.10999" lon="2.87185">
        <ele>906.5</ele>
        <time>2021-09-14T09:26:39.000Z</time>
      </trkpt>
      <trkpt lat="45.10994" lon="2.87177">
        <ele>906.4</ele>
        <time>2021-09-14T09:26:46.000Z</time>
      </trkpt>
      <trkpt lat="45.10988" lon="2.87172">
        <ele>906.1</ele>
        <time>2021-09-14T09:26:54.000Z</time>
      </trkpt>
      <trkpt lat="45.10982" lon="2.87167">
        <ele>905.9</ele>
        <time>2021-09-14T09:27:04.000Z</time>
      </trkpt>
      <trkpt lat="45.10973" lon="2.87167">
        <ele>905.4</ele>
        <time>2021-09-14T09:27:09.000Z</time>
      </trkpt>
      <trkpt lat="45.10958" lon="2.87163">
        <ele>904.5</ele>
        <time>2021-09-14T09:27:15.000Z</time>
      </trkpt>
      <trkpt lat="45.10956" lon="2.87172">
        <ele>904.2</ele>
        <time>2021-09-14T09:27:30.000Z</time>
      </trkpt>
      <trkpt lat="45.10951" lon="2.87179">
        <ele>903.7</ele>
        <time>2021-09-14T09:27:38.000Z</time>
      </trkpt>
      <trkpt lat="45.10947" lon="2.87187">
        <ele>903.2</ele>
        <time>2021-09-14T09:27:47.000Z</time>
      </trkpt>
      <trkpt lat="45.1094" lon="2.87189">
        <ele>902.7</ele>
        <time>2021-09-14T09:27:56.000Z</time>
      </trkpt>
      <trkpt lat="45.10934" lon="2.87191">
        <ele>902.2</ele>
        <time>2021-09-14T09:28:05.000Z</time>
      </trkpt>
      <trkpt lat="45.10935" lon="2.8718">
        <ele>902.7</ele>
        <time>2021-09-14T09:28:13.000Z</time>
      </trkpt>
      <trkpt lat="45.10935" lon="2.8717">
        <ele>903</ele>
        <time>2021-09-14T09:28:18.000Z</time>
      </trkpt>
      <trkpt lat="45.10934" lon="2.87159">
        <ele>903.2</ele>
        <time>2021-09-14T09:28:23.000Z</time>
      </trkpt>
      <trkpt lat="45.10933" lon="2.87147">
        <ele>903.4</ele>
        <time>2021-09-14T09:28:28.000Z</time>
      </trkpt>
      <trkpt lat="45.10931" lon="2.87136">
        <ele>903.6</ele>
        <time>2021-09-14T09:28:33.000Z</time>
      </trkpt>
      <trkpt lat="45.10932" lon="2.87126">
        <ele>903.8</ele>
        <time>2021-09-14T09:28:43.000Z</time>
      </trkpt>
      <trkpt lat="45.10931" lon="2.87116">
        <ele>904.1</ele>
        <time>2021-09-14T09:28:51.000Z</time>
      </trkpt>
      <trkpt lat="45.10933" lon="2.87107">
        <ele>904.3</ele>
        <time>2021-09-14T09:28:58.000Z</time>
      </trkpt>
      <trkpt lat="45.10932" lon="2.87096">
        <ele>904.5</ele>
        <time>2021-09-14T09:29:05.000Z</time>
      </trkpt>
      <trkpt lat="45.10933" lon="2.87087">
        <ele>904.7</ele>
        <time>2021-09-14T09:29:11.000Z</time>
      </trkpt>
      <trkpt lat="45.10929" lon="2.87079">
        <ele>904.7</ele>
        <time>2021-09-14T09:29:19.000Z</time>
      </trkpt>
      <trkpt lat="45.10928" lon="2.87069">
        <ele>904.4</ele>
        <time>2021-09-14T09:29:37.000Z</time>
      </trkpt>
      <trkpt lat="45.10929" lon="2.87059">
        <ele>904.1</ele>
        <time>2021-09-14T09:29:42.000Z</time>
      </trkpt>
      <trkpt lat="45.10931" lon="2.87049">
        <ele>903.7</ele>
        <time>2021-09-14T09:29:47.000Z</time>
      </trkpt>
      <trkpt lat="45.10932" lon="2.87039">
        <ele>903.4</ele>
        <time>2021-09-14T09:29:51.000Z</time>
      </trkpt>
      <trkpt lat="45.10935" lon="2.87028">
        <ele>903.1</ele>
        <time>2021-09-14T09:29:57.000Z</time>
      </trkpt>
      <trkpt lat="45.10936" lon="2.87015">
        <ele>902.7</ele>
        <time>2021-09-14T09:30:03.000Z</time>
      </trkpt>
      <trkpt lat="45.10937" lon="2.87002">
        <ele>902.3</ele>
        <time>2021-09-14T09:30:09.000Z</time>
      </trkpt>
      <trkpt lat="45.10939" lon="2.86993">
        <ele>902.4</ele>
        <time>2021-09-14T09:30:15.000Z</time>
      </trkpt>
    </trkseg>
  </trk>
</gpx>